Darstellungsparameter: Aktuell verwendete Einstellungen:
Skalierung der Graphiken ... ?
xyx+y,   Skalierungsfaktor:      Skalierung: Modus: x, Faktor: 1
Darstellungszeitraum ... ?
Vom - - bis: - -   Zeitraum: 10.05.2008 - 09.08.2008
Min/Max/Avg-Anzeige ... ?
Zeige MMA aktuell
Zeige MMA Monat
Zeige MMA alles
Zeige --A aktuell
Zeige --A Monat
Zeige --A alles
Keine MMA-Anzeige
MMA:
Average (ber die Originaldaten)
MMA-Basis: 17.04.2019 - 19.05.2019
Quicknavigation für Darstellung... ?
Tage:      1T, 2T, 3T, 5T -1T -2T -3T -5T +1T +2T +3T +5T
Wochen: 1W, 2W, 3W -1W -2W -3W +1W +2W +3W
Monate: 1M, 3M, 6M -1M -3M -6M +1M +3M +6M
Jahre:    1J, 3J, 5J, 10J -1J -3J -5J -10J +1J +3J +5J +10J
Nutze für die Darstellung ... ?
Originaldaten oder Mittelwerte auf ...
Stundenbasis Tagesbasis Wochenbasis
Monatsbasis Jahresbasis      Datenbasis: Original-Daten
Darstellen als:
Statistik (Auto) Statistik J:M      Darstellung:
Zur Graphik,    zurück zur Übersicht aller Sensoren.
 
Tabellarische Datenbersicht: ?
 
Sensor: Nr:Datum:Temp:Abs-Feuchte:Windchill:Wind:
Aussen-T/F 1 10-05-2008 00:09:03 17.2 C 6 g/m*3 17.2 C 0 km/h
2 10-05-2008 00:21:03 17 C 5.93 g/m*3 17 C 0 km/h
3 10-05-2008 00:33:03 16.6 C 6.07 g/m*3 16.6 C 0 km/h
4 10-05-2008 00:45:03 16.2 C 6.07 g/m*3 16.2 C 0 km/h
5 10-05-2008 00:57:03 16.1 C 6.03 g/m*3 16.1 C 0 km/h
6 10-05-2008 01:09:03 15.8 C 6.19 g/m*3 15.8 C 0 km/h
7 10-05-2008 01:21:03 15.4 C 6.31 g/m*3 15.4 C 0 km/h
8 10-05-2008 01:33:03 15.2 C 6.36 g/m*3 15.2 C 0 km/h
9 10-05-2008 01:45:03 15.1 C 6.58 g/m*3 15.1 C 0 km/h
10 10-05-2008 01:57:03 15 C 6.54 g/m*3 15 C 0 km/h
11 10-05-2008 02:09:04 15.1 C 6.45 g/m*3 15.1 C 0 km/h
12 10-05-2008 02:21:04 15 C 6.54 g/m*3 15 C 0 km/h
13 10-05-2008 02:33:04 14.8 C 6.59 g/m*3 14.8 C 0 km/h
14 10-05-2008 02:45:04 14.7 C 6.55 g/m*3 14.7 C 0 km/h
15 10-05-2008 02:57:04 14.5 C 6.47 g/m*3 14.5 C 0 km/h
16 10-05-2008 03:09:04 14.4 C 6.68 g/m*3 14.4 C 0 km/h
17 10-05-2008 03:21:04 14 C 6.75 g/m*3 14 C 0 km/h
18 10-05-2008 03:33:04 13.7 C 6.75 g/m*3 13.7 C 0 km/h
19 10-05-2008 03:45:04 13.4 C 6.74 g/m*3 13.4 C 0 km/h
20 10-05-2008 03:57:04 13.1 C 6.85 g/m*3 13.1 C 0 km/h
21 10-05-2008 04:09:04 12.9 C 6.99 g/m*3 12.9 C 0 km/h
22 10-05-2008 04:21:04 12.7 C 7.01 g/m*3 12.7 C 0 km/h
23 10-05-2008 04:33:04 12.6 C 6.97 g/m*3 12.6 C 0 km/h
24 10-05-2008 04:45:04 12.4 C 6.99 g/m*3 12.4 C 0 km/h
25 10-05-2008 04:57:04 12.2 C 7.01 g/m*3 12.2 C 0 km/h
Sensor: Nr:Datum:Temp:Abs-Feuchte:Windchill:Wind:
Aussen-T/F 26 10-05-2008 05:09:04 12 C 7.03 g/m*3 12 C 0 km/h
27 10-05-2008 05:21:04 11.8 C 7.16 g/m*3 11.8 C 0 km/h
28 10-05-2008 05:33:04 11.5 C 7.13 g/m*3 11.5 C 0 km/h
29 10-05-2008 05:45:04 11.4 C 6.98 g/m*3 11.4 C 0 km/h
30 10-05-2008 05:57:04 11.4 C 7.08 g/m*3 11.4 C 0 km/h
31 10-05-2008 06:09:05 11.3 C 7.04 g/m*3 11.3 C 0 km/h
32 10-05-2008 06:21:05 11.2 C 6.99 g/m*3 11.2 C 0 km/h
33 10-05-2008 06:33:05 11.2 C 6.99 g/m*3 11.2 C 0 km/h
34 10-05-2008 06:45:05 11.3 C 7.14 g/m*3 11.3 C 0 km/h
35 10-05-2008 06:57:05 11.3 C 7.14 g/m*3 11.3 C 0 km/h
36 10-05-2008 07:09:05 11.4 C 7.19 g/m*3 11.4 C 0 km/h
37 10-05-2008 07:21:05 11.6 C 7.38 g/m*3 11.6 C 0 km/h
38 10-05-2008 07:33:05 11.8 C 7.47 g/m*3 11.8 C 0 km/h
39 10-05-2008 07:45:05 12.1 C 7.4 g/m*3 12.1 C 0 km/h
40 10-05-2008 07:57:05 12.1 C 7.51 g/m*3 12.1 C 0 km/h
41 10-05-2008 08:09:05 12.3 C 7.49 g/m*3 12.3 C 0 km/h
42 10-05-2008 08:21:05 12.8 C 7.62 g/m*3 12.8 C 0 km/h
43 10-05-2008 08:33:05 13.1 C 7.42 g/m*3 13.1 C 0 km/h
44 10-05-2008 08:45:05 13.5 C 7.6 g/m*3 13.5 C 0 km/h
45 10-05-2008 08:57:05 14 C 7.72 g/m*3 14 C 0 km/h
46 10-05-2008 09:09:05 15.2 C 7.79 g/m*3 15.2 C 0 km/h
47 10-05-2008 09:21:05 16.2 C 7.45 g/m*3 16.2 C 0 km/h
48 10-05-2008 09:33:02 17 C 7.09 g/m*3 17 C 0 km/h
49 10-05-2008 09:45:01 17.8 C 7.13 g/m*3 17.8 C 0 km/h
50 10-05-2008 09:57:01 18.5 C 6.49 g/m*3 18.5 C 0 km/h
Sensor: Nr:Datum:Temp:Abs-Feuchte:Windchill:Wind:
Aussen-T/F 51 10-05-2008 10:09:02 19.3 C 6.63 g/m*3 19.3 C 0 km/h
52 10-05-2008 10:21:02 19.9 C 6.53 g/m*3 19.9 C 0 km/h
53 10-05-2008 10:33:01 20.5 C 6.41 g/m*3 20.5 C 0 km/h
54 10-05-2008 10:45:01 20.9 C 6.56 g/m*3 20.9 C 0 km/h
55 10-05-2008 10:57:01 21.5 C 6.41 g/m*3 21.5 C 0 km/h
56 10-05-2008 11:09:02 22 C 6.21 g/m*3 22 C 0 km/h
57 10-05-2008 11:21:02 22.6 C 6.23 g/m*3 22.6 C 0 km/h
58 10-05-2008 11:33:01 23.2 C 6.24 g/m*3 23.2 C 0 km/h
59 10-05-2008 11:45:01 23.6 C 5.96 g/m*3 23.6 C 0 km/h
60 10-05-2008 11:57:01 23.9 C 5.84 g/m*3 23.9 C 0 km/h
61 10-05-2008 12:09:02 24.3 C 5.75 g/m*3 24.3 C 0 km/h
62 10-05-2008 12:21:02 24.8 C 5.69 g/m*3 24.8 C 0 km/h
63 10-05-2008 12:33:01 25.4 C 5.65 g/m*3 25.4 C 0 km/h
64 10-05-2008 12:45:01 25.8 C 5.3 g/m*3 25.8 C 0 km/h
65 10-05-2008 12:57:01 26.2 C 5.17 g/m*3 26.2 C 0 km/h
66 10-05-2008 13:09:02 26.8 C 5.09 g/m*3 26.8 C 0 km/h
67 10-05-2008 13:21:01 27.8 C 5.38 g/m*3 27.8 C 0 km/h
68 10-05-2008 13:33:01 28.6 C 5.62 g/m*3 28.6 C 0 km/h
69 10-05-2008 13:45:01 28.4 C 5.56 g/m*3 28.4 C 0 km/h
70 10-05-2008 13:57:01 28.1 C 5.47 g/m*3 28.1 C 0 km/h
71 10-05-2008 14:09:02 27.9 C 5.41 g/m*3 27.9 C 0 km/h
72 10-05-2008 14:21:01 28.2 C 5.5 g/m*3 28.2 C 0 km/h
73 10-05-2008 14:33:01 28.2 C 5.5 g/m*3 28.2 C 0 km/h
74 10-05-2008 14:45:01 28.8 C 5.68 g/m*3 28.8 C 0 km/h
75 10-05-2008 14:57:01 29.3 C 5.84 g/m*3 29.3 C 0 km/h
Sensor: Nr:Datum:Temp:Abs-Feuchte:Windchill:Wind:
Aussen-T/F 76 10-05-2008 15:09:02 30 C 6.06 g/m*3 30 C 0 km/h
77 10-05-2008 15:21:02 30.4 C 6.2 g/m*3 30.4 C 0 km/h
78 10-05-2008 15:33:01 30.6 C 6.26 g/m*3 30.6 C 0 km/h
79 10-05-2008 15:45:02 30.7 C 6.3 g/m*3 30.7 C 0 km/h
80 10-05-2008 15:57:02 30.7 C 6.3 g/m*3 30.7 C 0 km/h
81 10-05-2008 16:09:02 30.6 C 6.26 g/m*3 30.6 C 0 km/h
82 10-05-2008 16:21:01 31 C 6.4 g/m*3 31 C 0 km/h
83 10-05-2008 16:33:02 31 C 6.4 g/m*3 31 C 0 km/h
84 10-05-2008 16:45:02 31.4 C 6.54 g/m*3 31.4 C 0 km/h
85 10-05-2008 16:57:02 31.4 C 6.54 g/m*3 31.4 C 0 km/h
86 10-05-2008 17:09:01 31.7 C 6.64 g/m*3 31.7 C 0 km/h
87 10-05-2008 17:21:01 31.7 C 6.64 g/m*3 31.7 C 0 km/h
88 10-05-2008 17:33:02 31.7 C 6.64 g/m*3 31.7 C 0 km/h
89 10-05-2008 17:45:02 31.7 C 6.64 g/m*3 31.7 C 0 km/h
90 10-05-2008 17:57:02 31.5 C 6.57 g/m*3 31.5 C 0 km/h
91 10-05-2008 18:09:02 31.5 C 6.57 g/m*3 31.5 C 0 km/h
92 10-05-2008 18:21:02 31.4 C 6.54 g/m*3 31.4 C 0 km/h
93 10-05-2008 18:33:02 31.5 C 6.57 g/m*3 31.5 C 0 km/h
94 10-05-2008 18:45:02 31 C 6.4 g/m*3 31 C 0 km/h
95 10-05-2008 18:57:03 31.2 C 6.47 g/m*3 31.2 C 0 km/h
96 10-05-2008 19:09:01 31 C 6.4 g/m*3 31 C 0 km/h
97 10-05-2008 19:21:02 30.8 C 6.33 g/m*3 30.8 C 0 km/h
98 10-05-2008 19:33:02 30.7 C 6.3 g/m*3 30.7 C 0 km/h
99 10-05-2008 19:45:02 30.3 C 6.16 g/m*3 30.3 C 0 km/h
100 10-05-2008 19:57:02 30 C 6.06 g/m*3 30 C 0 km/h
Sensor: Nr:Datum:Temp:Abs-Feuchte:Windchill:Wind:
Aussen-T/F 101 10-05-2008 20:09:02 29.5 C 5.9 g/m*3 29.5 C 0 km/h
102 10-05-2008 20:21:02 29 C 5.74 g/m*3 29 C 0 km/h
103 10-05-2008 20:33:02 27.5 C 5.29 g/m*3 27.5 C 0 km/h
104 10-05-2008 20:45:01 25.8 C 4.82 g/m*3 25.8 C 0 km/h
105 10-05-2008 20:57:01 24.2 C 4.4 g/m*3 24.2 C 0 km/h
106 10-05-2008 21:09:01 23.6 C 4.25 g/m*3 23.6 C 0 km/h
107 10-05-2008 21:21:02 23.2 C 4.16 g/m*3 23.2 C 0 km/h
108 10-05-2008 21:33:01 22.9 C 5.11 g/m*3 22.9 C 0 km/h
109 10-05-2008 21:45:01 22.6 C 5.22 g/m*3 22.6 C 0 km/h
110 10-05-2008 21:57:01 22.4 C 5.36 g/m*3 22.4 C 0 km/h
111 10-05-2008 22:09:02 21.9 C 5.6 g/m*3 21.9 C 0 km/h
112 10-05-2008 22:21:02 21.5 C 5.66 g/m*3 21.5 C 0 km/h
113 10-05-2008 22:33:01 21.2 C 5.74 g/m*3 21.2 C 0 km/h
114 10-05-2008 22:45:01 20.8 C 5.79 g/m*3 20.8 C 0 km/h
115 10-05-2008 22:57:01 20.8 C 5.79 g/m*3 20.8 C 0 km/h
116 10-05-2008 23:09:02 20.5 C 5.69 g/m*3 20.5 C 0 km/h
117 10-05-2008 23:21:01 20.3 C 5.8 g/m*3 20.3 C 0 km/h
118 10-05-2008 23:33:01 20 C 5.88 g/m*3 20 C 0 km/h
119 10-05-2008 23:45:01 19.8 C 5.98 g/m*3 19.8 C 0 km/h
120 10-05-2008 23:57:01 19.6 C 5.91 g/m*3 19.6 C 0 km/h
121 11-05-2008 00:10:02 19.3 C 5.81 g/m*3 19.3 C 0 km/h
122 11-05-2008 00:22:02 19.1 C 5.9 g/m*3 19.1 C 0 km/h
123 11-05-2008 00:34:02 18.8 C 5.8 g/m*3 18.8 C 0 km/h
124 11-05-2008 00:46:02 18.5 C 5.85 g/m*3 18.5 C 0 km/h
125 11-05-2008 00:58:02 18.3 C 5.94 g/m*3 18.3 C 0 km/h
Sensor: Nr:Datum:Temp:Abs-Feuchte:Windchill:Wind:
Aussen-T/F 126 11-05-2008 01:10:02 18.3 C 5.79 g/m*3 18.3 C 0 km/h
127 11-05-2008 01:22:02 18 C 5.84 g/m*3 18 C 0 km/h
128 11-05-2008 01:34:02 17.6 C 6 g/m*3 17.6 C 0 km/h
129 11-05-2008 01:46:03 17.5 C 5.96 g/m*3 17.5 C 0 km/h
130 11-05-2008 01:58:03 17.2 C 6 g/m*3 17.2 C 0 km/h
131 11-05-2008 02:10:03 17 C 5.93 g/m*3 17 C 0 km/h
132 11-05-2008 02:22:03 16.8 C 6 g/m*3 16.8 C 0 km/h
133 11-05-2008 02:34:03 16.5 C 5.9 g/m*3 16.5 C 0 km/h
134 11-05-2008 02:46:03 16.2 C 6.07 g/m*3 16.2 C 0 km/h
135 11-05-2008 02:58:03 15.8 C 6.19 g/m*3 15.8 C 0 km/h
136 11-05-2008 03:10:03 15.6 C 6.25 g/m*3 15.6 C 0 km/h
137 11-05-2008 03:22:03 15.2 C 6.23 g/m*3 15.2 C 0 km/h
138 11-05-2008 03:34:03 14.9 C 6.25 g/m*3 14.9 C 0 km/h
139 11-05-2008 03:46:03 14.7 C 6.42 g/m*3 14.7 C 0 km/h
140 11-05-2008 03:58:03 14.4 C 6.43 g/m*3 14.4 C 0 km/h
141 11-05-2008 04:10:03 14.2 C 6.35 g/m*3 14.2 C 0 km/h
142 11-05-2008 04:22:03 13.7 C 6.28 g/m*3 13.7 C 0 km/h
143 11-05-2008 04:34:03 13.6 C 6.36 g/m*3 13.6 C 0 km/h
144 11-05-2008 04:46:03 13.5 C 6.55 g/m*3 13.5 C 0 km/h
145 11-05-2008 04:58:03 13.2 C 6.32 g/m*3 13.2 C 0 km/h
146 11-05-2008 05:10:03 13.1 C 6.28 g/m*3 13.1 C 0 km/h
147 11-05-2008 05:22:03 13 C 6.24 g/m*3 13 C 0 km/h
148 11-05-2008 05:34:04 12.9 C 6.42 g/m*3 12.9 C 0 km/h
149 11-05-2008 05:46:04 12.7 C 6.35 g/m*3 12.7 C 0 km/h
150 11-05-2008 05:58:04 12.6 C 6.42 g/m*3 12.6 C 0 km/h
Sensor: Nr:Datum:Temp:Abs-Feuchte:Windchill:Wind:
Aussen-T/F 151 11-05-2008 06:10:04 12.5 C 6.49 g/m*3 12.5 C 0 km/h
152 11-05-2008 06:22:04 12.4 C 6.56 g/m*3 12.4 C 0 km/h
153 11-05-2008 06:34:04 12.2 C 6.47 g/m*3 12.2 C 0 km/h
154 11-05-2008 06:46:04 12.3 C 6.62 g/m*3 12.3 C 0 km/h
155 11-05-2008 06:58:04 12.4 C 6.77 g/m*3 12.4 C 0 km/h
156 11-05-2008 07:10:04 12.3 C 6.84 g/m*3 12.3 C 0 km/h
157 11-05-2008 07:22:04 12.6 C 6.97 g/m*3 12.6 C 0 km/h
158 11-05-2008 07:34:04 12.7 C 7.01 g/m*3 12.7 C 0 km/h
159 11-05-2008 07:46:02 12.7 C 7.01 g/m*3 12.7 C 0 km/h
160 11-05-2008 07:58:02 12.9 C 7.21 g/m*3 12.9 C 0 km/h
161 11-05-2008 08:10:02 13.1 C 7.07 g/m*3 13.1 C 0 km/h
162 11-05-2008 08:22:03 13.4 C 7.21 g/m*3 13.4 C 0 km/h
163 11-05-2008 08:34:03 13.8 C 7.27 g/m*3 13.8 C 0 km/h
164 11-05-2008 08:46:03 14.1 C 7.16 g/m*3 14.1 C 0 km/h
165 11-05-2008 08:58:03 14.8 C 7.22 g/m*3 14.8 C 0 km/h
166 11-05-2008 09:10:02 15.6 C 7.18 g/m*3 15.6 C 0 km/h
167 11-05-2008 09:34:03 17.2 C 6.74 g/m*3 17.2 C 0 km/h
168 11-05-2008 09:46:03 18 C 6.3 g/m*3 18 C 0 km/h
169 11-05-2008 09:58:03 18.7 C 6.24 g/m*3 18.7 C 0 km/h
170 11-05-2008 10:10:04 19.5 C 6.04 g/m*3 19.5 C 0 km/h
171 11-05-2008 10:22:03 20 C 5.88 g/m*3 20 C 0 km/h
172 11-05-2008 10:34:03 20.4 C 5.66 g/m*3 20.4 C 0 km/h
173 11-05-2008 10:46:03 20.8 C 5.61 g/m*3 20.8 C 0 km/h
174 11-05-2008 10:58:03 21.2 C 5 g/m*3 21.2 C 0 km/h
175 11-05-2008 11:10:02 21.8 C 5.18 g/m*3 21.8 C 0 km/h
Sensor: Nr:Datum:Temp:Abs-Feuchte:Windchill:Wind:
Aussen-T/F 176 11-05-2008 11:22:02 22.3 C 4.94 g/m*3 22.3 C 0 km/h
177 11-05-2008 11:34:02 22.7 C 4.85 g/m*3 22.7 C 0 km/h
178 11-05-2008 11:46:02 23.2 C 4.78 g/m*3 23.2 C 0 km/h
179 11-05-2008 11:58:02 23.4 C 4.42 g/m*3 23.4 C 0 km/h
180 11-05-2008 12:10:02 23.4 C 4.63 g/m*3 23.4 C 0 km/h
181 11-05-2008 12:22:01 24.1 C 4.81 g/m*3 24.1 C 0 km/h
182 11-05-2008 12:34:02 24.8 C 4.55 g/m*3 24.8 C 0 km/h
183 11-05-2008 12:46:02 25.7 C 4.79 g/m*3 25.7 C 0 km/h
184 11-05-2008 12:58:02 25.8 C 4.82 g/m*3 25.8 C 0 km/h
185 11-05-2008 13:10:02 26.6 C 5.03 g/m*3 26.6 C 0 km/h
186 11-05-2008 13:22:02 26.8 C 5.09 g/m*3 26.8 C 0 km/h
187 11-05-2008 13:34:02 27.5 C 5.29 g/m*3 27.5 C 0 km/h
188 11-05-2008 13:46:01 27.1 C 5.18 g/m*3 27.1 C 0 km/h
189 11-05-2008 13:58:01 26.7 C 5.06 g/m*3 26.7 C 0 km/h
190 11-05-2008 14:10:02 26.5 C 5.01 g/m*3 26.5 C 0 km/h
191 11-05-2008 14:22:02 26.4 C 4.98 g/m*3 26.4 C 0 km/h
192 11-05-2008 14:34:01 26.5 C 5.01 g/m*3 26.5 C 0 km/h
193 11-05-2008 14:46:02 27.5 C 5.29 g/m*3 27.5 C 0 km/h
194 11-05-2008 14:58:02 28.1 C 5.47 g/m*3 28.1 C 0 km/h
195 11-05-2008 15:10:02 28.6 C 5.62 g/m*3 28.6 C 0 km/h
196 11-05-2008 15:22:02 28.7 C 5.65 g/m*3 28.7 C 0 km/h
197 11-05-2008 15:34:02 29.5 C 5.9 g/m*3 29.5 C 0 km/h
198 11-05-2008 15:46:02 29 C 5.74 g/m*3 29 C 0 km/h
199 11-05-2008 15:58:02 29.5 C 5.9 g/m*3 29.5 C 0 km/h
200 11-05-2008 16:10:02 30 C 6.06 g/m*3 30 C 0 km/h
Sensor: Nr:Datum:Temp:Abs-Feuchte:Windchill:Wind:
Aussen-T/F 201 11-05-2008 16:22:02 30 C 6.06 g/m*3 30 C 0 km/h
202 11-05-2008 16:34:02 30.1 C 6.1 g/m*3 30.1 C 0 km/h
203 11-05-2008 16:46:01 30.6 C 6.26 g/m*3 30.6 C 0 km/h
204 11-05-2008 16:58:02 30.7 C 6.3 g/m*3 30.7 C 0 km/h
205 11-05-2008 17:10:01 30.7 C 6.3 g/m*3 30.7 C 0 km/h
206 11-05-2008 17:22:01 30.6 C 6.26 g/m*3 30.6 C 0 km/h
207 11-05-2008 17:34:02 30.4 C 6.2 g/m*3 30.4 C 0 km/h
208 11-05-2008 17:46:03 30.7 C 6.3 g/m*3 30.7 C 0 km/h
209 11-05-2008 17:58:03 30.4 C 6.2 g/m*3 30.4 C 0 km/h
210 11-05-2008 18:10:02 30.6 C 6.26 g/m*3 30.6 C 0 km/h
211 11-05-2008 18:22:02 30.5 C 6.23 g/m*3 30.5 C 0 km/h
212 11-05-2008 18:34:02 30.4 C 6.2 g/m*3 30.4 C 0 km/h
213 11-05-2008 18:46:02 30.4 C 6.2 g/m*3 30.4 C 0 km/h
214 11-05-2008 18:58:02 30.2 C 6.13 g/m*3 30.2 C 0 km/h
215 11-05-2008 19:10:02 30 C 6.06 g/m*3 30 C 0 km/h
216 11-05-2008 19:22:02 29.5 C 5.9 g/m*3 29.5 C 0 km/h
217 11-05-2008 19:34:02 29.1 C 5.78 g/m*3 29.1 C 0 km/h
218 11-05-2008 19:46:02 28.5 C 5.59 g/m*3 28.5 C 0 km/h
219 11-05-2008 19:58:02 27.8 C 5.38 g/m*3 27.8 C 0 km/h
220 11-05-2008 20:10:02 27.4 C 5.26 g/m*3 27.4 C 0 km/h
221 11-05-2008 20:22:03 26.7 C 5.06 g/m*3 26.7 C 0 km/h
222 11-05-2008 20:34:02 25.6 C 4.76 g/m*3 25.6 C 0 km/h
223 11-05-2008 20:46:02 23.5 C 4.23 g/m*3 23.5 C 0 km/h
224 11-05-2008 20:58:02 23.1 C 4.13 g/m*3 23.1 C 0 km/h
225 11-05-2008 21:10:01 22.2 C 4.12 g/m*3 22.2 C 0 km/h
Sensor: Nr:Datum:Temp:Abs-Feuchte:Windchill:Wind:
Aussen-T/F 226 11-05-2008 21:22:01 21.8 C 4.6 g/m*3 21.8 C 0 km/h
227 11-05-2008 21:34:02 21.6 C 4.74 g/m*3 21.6 C 0 km/h
228 11-05-2008 21:46:02 21.3 C 4.85 g/m*3 21.3 C 0 km/h
229 11-05-2008 21:58:02 20.9 C 5.1 g/m*3 20.9 C 0 km/h
230 11-05-2008 22:10:02 20.6 C 5.19 g/m*3 20.6 C 0 km/h
231 11-05-2008 22:22:02 20.3 C 5.28 g/m*3 20.3 C 0 km/h
232 11-05-2008 22:34:02 19.9 C 5.5 g/m*3 19.9 C 0 km/h
233 11-05-2008 22:46:02 19.6 C 5.57 g/m*3 19.6 C 0 km/h
234 11-05-2008 22:58:02 19.3 C 5.64 g/m*3 19.3 C 0 km/h
235 11-05-2008 23:11:03 19.1 C 5.74 g/m*3 19.1 C 0 km/h
236 11-05-2008 23:23:03 18.8 C 5.64 g/m*3 18.8 C 0 km/h
237 11-05-2008 23:35:03 18.6 C 5.57 g/m*3 18.6 C 0 km/h
238 11-05-2008 23:47:04 18.3 C 5.63 g/m*3 18.3 C 0 km/h
239 11-05-2008 23:59:04 17.9 C 5.8 g/m*3 17.9 C 0 km/h
240 12-05-2008 00:11:04 17.7 C 5.88 g/m*3 17.7 C 0 km/h
241 12-05-2008 00:23:04 17.3 C 5.89 g/m*3 17.3 C 0 km/h
242 12-05-2008 00:35:04 17 C 5.79 g/m*3 17 C 0 km/h
243 12-05-2008 00:47:04 16.8 C 5.86 g/m*3 16.8 C 0 km/h
244 12-05-2008 00:59:04 16.6 C 5.93 g/m*3 16.6 C 0 km/h
245 12-05-2008 01:11:04 16.4 C 6.14 g/m*3 16.4 C 0 km/h
246 12-05-2008 01:23:04 16.2 C 6.07 g/m*3 16.2 C 0 km/h
247 12-05-2008 01:35:04 16.2 C 5.93 g/m*3 16.2 C 0 km/h
248 12-05-2008 01:47:04 16.3 C 5.97 g/m*3 16.3 C 0 km/h
249 12-05-2008 01:59:04 16.1 C 6.03 g/m*3 16.1 C 0 km/h
250 12-05-2008 02:11:04 15.6 C 6.25 g/m*3 15.6 C 0 km/h
Sensor: Nr:Datum:Temp:Abs-Feuchte:Windchill:Wind:
Aussen-T/F 251 12-05-2008 02:23:04 15.2 C 6.1 g/m*3 15.2 C 0 km/h
252 12-05-2008 02:35:04 15.1 C 6.06 g/m*3 15.1 C 0 km/h
253 12-05-2008 02:47:04 15 C 6.28 g/m*3 15 C 0 km/h
254 12-05-2008 02:59:04 14.6 C 6.26 g/m*3 14.6 C 0 km/h
255 12-05-2008 03:11:04 14.5 C 6.22 g/m*3 14.5 C 0 km/h
256 12-05-2008 03:23:04 14.4 C 6.18 g/m*3 14.4 C 0 km/h
257 12-05-2008 03:35:04 14.1 C 6.19 g/m*3 14.1 C 0 km/h
258 12-05-2008 03:47:05 13.8 C 6.31 g/m*3 13.8 C 0 km/h
259 12-05-2008 03:59:05 13.6 C 6.36 g/m*3 13.6 C 0 km/h
260 12-05-2008 04:11:05 13.2 C 6.32 g/m*3 13.2 C 0 km/h
261 12-05-2008 04:23:05 13.1 C 6.39 g/m*3 13.1 C 0 km/h
262 12-05-2008 04:35:05 13 C 6.46 g/m*3 13 C 0 km/h
263 12-05-2008 04:47:05 12.8 C 6.61 g/m*3 12.8 C 0 km/h
264 12-05-2008 04:59:05 12.7 C 6.57 g/m*3 12.7 C 0 km/h
265 12-05-2008 05:11:05 12.4 C 6.56 g/m*3 12.4 C 0 km/h
266 12-05-2008 05:23:05 12.3 C 6.62 g/m*3 12.3 C 0 km/h
267 12-05-2008 05:35:05 12.1 C 6.65 g/m*3 12.1 C 0 km/h
268 12-05-2008 05:47:01 12 C 6.61 g/m*3 12 C 0 km/h
269 12-05-2008 05:59:01 12.2 C 6.69 g/m*3 12.2 C 0 km/h
270 12-05-2008 06:11:01 11.7 C 6.69 g/m*3 11.7 C 0 km/h
271 12-05-2008 06:23:02 11.6 C 6.65 g/m*3 11.6 C 0 km/h
272 12-05-2008 06:35:01 11.5 C 6.82 g/m*3 11.5 C 0 km/h
273 12-05-2008 06:47:01 11.5 C 6.82 g/m*3 11.5 C 0 km/h
274 12-05-2008 06:59:01 11.4 C 6.88 g/m*3 11.4 C 0 km/h
275 12-05-2008 07:11:02 11.7 C 7.11 g/m*3 11.7 C 0 km/h
Sensor: Nr:Datum:Temp:Abs-Feuchte:Windchill:Wind:
Aussen-T/F 276 12-05-2008 07:23:02 11.6 C 6.96 g/m*3 11.6 C 0 km/h
277 12-05-2008 07:35:01 11.8 C 7.05 g/m*3 11.8 C 0 km/h
278 12-05-2008 07:47:02 12.1 C 7.08 g/m*3 12.1 C 0 km/h
279 12-05-2008 07:59:02 12.3 C 7.06 g/m*3 12.3 C 0 km/h
280 12-05-2008 08:11:02 12.5 C 7.15 g/m*3 12.5 C 0 km/h
281 12-05-2008 08:23:02 12.8 C 7.28 g/m*3 12.8 C 0 km/h
282 12-05-2008 08:35:02 13.1 C 7.3 g/m*3 13.1 C 0 km/h
283 12-05-2008 08:47:02 13.6 C 7.41 g/m*3 13.6 C 0 km/h
284 12-05-2008 08:59:02 14.2 C 7.45 g/m*3 14.2 C 0 km/h
285 12-05-2008 09:11:02 15 C 7.57 g/m*3 15 C 0 km/h
286 12-05-2008 09:23:01 15.9 C 7.72 g/m*3 15.9 C 0 km/h
287 12-05-2008 09:35:01 17.1 C 7.13 g/m*3 17.1 C 0 km/h
288 12-05-2008 09:47:01 18.1 C 6.64 g/m*3 18.1 C 0 km/h
289 12-05-2008 09:59:01 19.1 C 6.39 g/m*3 19.1 C 0 km/h
290 12-05-2008 10:11:01 19.6 C 5.91 g/m*3 19.6 C 0 km/h
291 12-05-2008 10:23:02 20.1 C 5.74 g/m*3 20.1 C 0 km/h
292 12-05-2008 10:35:01 20.7 C 5.76 g/m*3 20.7 C 0 km/h
293 12-05-2008 10:47:02 21.2 C 5.56 g/m*3 21.2 C 0 km/h
294 12-05-2008 10:59:02 21.7 C 5.53 g/m*3 21.7 C 0 km/h
295 12-05-2008 11:11:01 22.3 C 5.33 g/m*3 22.3 C 0 km/h
296 12-05-2008 11:23:02 22.8 C 5.28 g/m*3 22.8 C 0 km/h
297 12-05-2008 11:35:01 23.2 C 5.2 g/m*3 23.2 C 0 km/h
298 12-05-2008 11:47:02 23.7 C 5.13 g/m*3 23.7 C 0 km/h
299 12-05-2008 11:59:02 23.9 C 4.98 g/m*3 23.9 C 0 km/h
300 12-05-2008 12:11:02 24.2 C 4.62 g/m*3 24.2 C 0 km/h
Sensor: Nr:Datum:Temp:Abs-Feuchte:Windchill:Wind:
Aussen-T/F 301 12-05-2008 12:23:02 24.2 C 4.4 g/m*3 24.2 C 0 km/h
302 12-05-2008 12:35:02 25.5 C 4.73 g/m*3 25.5 C 0 km/h
303 12-05-2008 12:47:02 26.3 C 4.95 g/m*3 26.3 C 0 km/h
304 12-05-2008 12:59:02 26.4 C 4.98 g/m*3 26.4 C 0 km/h
305 12-05-2008 13:11:01 27.2 C 5.2 g/m*3 27.2 C 0 km/h
306 12-05-2008 13:23:02 28 C 5.44 g/m*3 28 C 0 km/h
307 12-05-2008 13:35:02 28.2 C 5.5 g/m*3 28.2 C 0 km/h
308 12-05-2008 13:47:02 28.1 C 5.47 g/m*3 28.1 C 0 km/h
309 12-05-2008 13:59:02 27.7 C 5.35 g/m*3 27.7 C 0 km/h
310 12-05-2008 14:11:02 28 C 5.44 g/m*3 28 C 0 km/h
311 12-05-2008 14:23:02 27.3 C 5.23 g/m*3 27.3 C 0 km/h
312 12-05-2008 14:35:02 28 C 5.44 g/m*3 28 C 0 km/h
313 12-05-2008 14:47:02 28.7 C 5.65 g/m*3 28.7 C 0 km/h
314 12-05-2008 14:59:02 29.2 C 5.81 g/m*3 29.2 C 0 km/h
315 12-05-2008 15:11:02 28.2 C 5.5 g/m*3 28.2 C 0 km/h
316 12-05-2008 15:23:02 29.2 C 5.81 g/m*3 29.2 C 0 km/h
317 12-05-2008 15:35:02 29.8 C 6 g/m*3 29.8 C 0 km/h
318 12-05-2008 15:47:01 30.3 C 6.16 g/m*3 30.3 C 0 km/h
319 12-05-2008 15:59:01 30.4 C 6.2 g/m*3 30.4 C 0 km/h
320 12-05-2008 16:11:01 30.2 C 6.13 g/m*3 30.2 C 0 km/h
321 12-05-2008 16:23:02 30.1 C 6.1 g/m*3 30.1 C 0 km/h
322 12-05-2008 16:35:01 30.8 C 6.33 g/m*3 30.8 C 0 km/h
323 12-05-2008 16:47:02 31.4 C 6.54 g/m*3 31.4 C 0 km/h
324 12-05-2008 16:59:02 31 C 6.4 g/m*3 31 C 0 km/h
325 12-05-2008 17:11:02 29 C 5.74 g/m*3 29 C 0 km/h
Sensor: Nr:Datum:Temp:Abs-Feuchte:Windchill:Wind:
Aussen-T/F 326 12-05-2008 17:23:02 29.5 C 5.9 g/m*3 29.5 C 0 km/h
327 12-05-2008 17:35:01 30.9 C 6.37 g/m*3 30.9 C 0 km/h
328 12-05-2008 17:47:01 29.1 C 5.78 g/m*3 29.1 C 0 km/h
329 12-05-2008 17:59:01 30.3 C 6.16 g/m*3 30.3 C 0 km/h
330 12-05-2008 18:11:02 31 C 6.4 g/m*3 31 C 0 km/h
331 12-05-2008 18:23:02 31.5 C 6.57 g/m*3 31.5 C 0 km/h
332 12-05-2008 18:35:01 30.7 C 6.3 g/m*3 30.7 C 0 km/h
333 12-05-2008 18:47:01 30.7 C 6.3 g/m*3 30.7 C 0 km/h
334 12-05-2008 18:59:01 30.7 C 6.3 g/m*3 30.7 C 0 km/h
335 12-05-2008 19:11:02 30.7 C 6.3 g/m*3 30.7 C 0 km/h
336 12-05-2008 19:23:02 30.6 C 6.26 g/m*3 30.6 C 0 km/h
337 12-05-2008 19:35:02 29.5 C 5.9 g/m*3 29.5 C 0 km/h
338 12-05-2008 19:47:02 29.2 C 5.81 g/m*3 29.2 C 0 km/h
339 12-05-2008 19:59:02 28.8 C 5.68 g/m*3 28.8 C 0 km/h
340 12-05-2008 20:11:02 28.2 C 5.5 g/m*3 28.2 C 0 km/h
341 12-05-2008 20:23:01 27.4 C 5.26 g/m*3 27.4 C 0 km/h
342 12-05-2008 20:35:02 26.1 C 4.9 g/m*3 26.1 C 0 km/h
343 12-05-2008 20:47:02 24.9 C 4.81 g/m*3 24.9 C 0 km/h
344 12-05-2008 20:59:02 23.8 C 4.95 g/m*3 23.8 C 0 km/h
345 12-05-2008 21:11:02 22.9 C 5.11 g/m*3 22.9 C 0 km/h
346 12-05-2008 21:23:02 22.1 C 5.08 g/m*3 22.1 C 0 km/h
347 12-05-2008 21:35:02 21.9 C 5.4 g/m*3 21.9 C 0 km/h
348 12-05-2008 21:47:02 21.4 C 5.25 g/m*3 21.4 C 0 km/h
349 12-05-2008 21:59:03 21 C 5.5 g/m*3 21 C 0 km/h
350 12-05-2008 22:11:01 20.6 C 5.37 g/m*3 20.6 C 0 km/h
Sensor: Nr:Datum:Temp:Abs-Feuchte:Windchill:Wind:
Aussen-T/F 351 12-05-2008 22:23:02 20.4 C 5.48 g/m*3 20.4 C 0 km/h
352 12-05-2008 22:36:02 19.9 C 5.67 g/m*3 19.9 C 0 km/h
353 12-05-2008 22:48:02 19.6 C 5.74 g/m*3 19.6 C 0 km/h
354 12-05-2008 23:00:02 19.4 C 5.84 g/m*3 19.4 C 0 km/h
355 12-05-2008 23:12:02 19.1 C 5.74 g/m*3 19.1 C 0 km/h
356 12-05-2008 23:24:02 18.9 C 5.83 g/m*3 18.9 C 0 km/h
357 12-05-2008 23:36:02 18.7 C 5.92 g/m*3 18.7 C 0 km/h
358 12-05-2008 23:48:02 18.4 C 6.13 g/m*3 18.4 C 0 km/h
359 13-05-2008 00:00:02 18 C 6.14 g/m*3 18 C 0 km/h
360 13-05-2008 00:12:02 17.7 C 6.19 g/m*3 17.7 C 0 km/h
361 13-05-2008 00:24:02 17.4 C 6.22 g/m*3 17.4 C 0 km/h
362 13-05-2008 00:36:02 17.2 C 6.3 g/m*3 17.2 C 0 km/h
363 13-05-2008 00:48:02 16.9 C 6.47 g/m*3 16.9 C 0 km/h
364 13-05-2008 01:00:02 16.7 C 6.4 g/m*3 16.7 C 0 km/h
365 13-05-2008 01:12:02 16.4 C 6.42 g/m*3 16.4 C 0 km/h
366 13-05-2008 01:24:02 15.9 C 6.5 g/m*3 15.9 C 0 km/h
367 13-05-2008 01:36:02 15.8 C 6.6 g/m*3 15.8 C 0 km/h
368 13-05-2008 01:48:02 15.4 C 6.44 g/m*3 15.4 C 0 km/h
369 13-05-2008 02:00:02 15.5 C 6.34 g/m*3 15.5 C 0 km/h
370 13-05-2008 02:12:02 15.5 C 6.48 g/m*3 15.5 C 0 km/h
371 13-05-2008 02:24:02 15.1 C 6.32 g/m*3 15.1 C 0 km/h
372 13-05-2008 02:36:03 15 C 6.41 g/m*3 15 C 0 km/h
373 13-05-2008 02:48:03 14.9 C 6.5 g/m*3 14.9 C 0 km/h
374 13-05-2008 03:00:03 14.7 C 6.55 g/m*3 14.7 C 0 km/h
375 13-05-2008 03:12:03 14.5 C 6.34 g/m*3 14.5 C 0 km/h
Sensor: Nr:Datum:Temp:Abs-Feuchte:Windchill:Wind:
Aussen-T/F 376 13-05-2008 03:24:03 14.5 C 6.47 g/m*3 14.5 C 0 km/h
377 13-05-2008 03:36:03 14.2 C 6.35 g/m*3 14.2 C 0 km/h
378 13-05-2008 03:48:03 14.1 C 6.43 g/m*3 14.1 C 0 km/h
379 13-05-2008 04:00:03 13.8 C 6.55 g/m*3 13.8 C 0 km/h
380 13-05-2008 04:12:03 13.5 C 6.55 g/m*3 13.5 C 0 km/h
381 13-05-2008 04:24:03 13.2 C 6.66 g/m*3 13.2 C 0 km/h
382 13-05-2008 04:36:03 13 C 6.69 g/m*3 13 C 0 km/h
383 13-05-2008 04:48:03 13 C 6.58 g/m*3 13 C 0 km/h
384 13-05-2008 05:00:03 12.8 C 6.61 g/m*3 12.8 C 0 km/h
385 13-05-2008 05:12:03 12.6 C 6.64 g/m*3 12.6 C 0 km/h
386 13-05-2008 05:24:03 12.4 C 6.66 g/m*3 12.4 C 0 km/h
387 13-05-2008 05:36:03 12.3 C 6.62 g/m*3 12.3 C 0 km/h
388 13-05-2008 05:48:03 12.1 C 6.54 g/m*3 12.1 C 0 km/h
389 13-05-2008 06:00:03 12 C 6.71 g/m*3 12 C 0 km/h
390 13-05-2008 06:12:03 11.7 C 6.69 g/m*3 11.7 C 0 km/h
391 13-05-2008 06:24:03 11.8 C 6.84 g/m*3 11.8 C 0 km/h
392 13-05-2008 06:36:03 11.8 C 6.84 g/m*3 11.8 C 0 km/h
393 13-05-2008 06:48:02 12.2 C 7.01 g/m*3 12.2 C 0 km/h
394 13-05-2008 07:00:02 12.3 C 7.06 g/m*3 12.3 C 0 km/h
395 13-05-2008 07:12:01 12.4 C 7.1 g/m*3 12.4 C 0 km/h
396 13-05-2008 07:24:01 12.6 C 7.19 g/m*3 12.6 C 0 km/h
397 13-05-2008 07:36:02 12.3 C 7.28 g/m*3 12.3 C 0 km/h
398 13-05-2008 07:48:02 12.2 C 7.23 g/m*3 12.2 C 0 km/h
399 13-05-2008 08:00:02 12.6 C 7.19 g/m*3 12.6 C 0 km/h
400 13-05-2008 08:12:02 13 C 7.26 g/m*3 13 C 0 km/h
Sensor: Nr:Datum:Temp:Abs-Feuchte:Windchill:Wind:
Aussen-T/F 401 13-05-2008 08:24:02 13.2 C 7.35 g/m*3 13.2 C 0 km/h
402 13-05-2008 08:36:02 13.5 C 7.37 g/m*3 13.5 C 0 km/h
403 13-05-2008 08:48:02 14.2 C 7.45 g/m*3 14.2 C 0 km/h
404 13-05-2008 09:00:02 15 C 7.31 g/m*3 15 C 0 km/h
405 13-05-2008 09:12:02 15.6 C 7.58 g/m*3 15.6 C 0 km/h
406 13-05-2008 09:24:01 16.2 C 7.45 g/m*3 16.2 C 0 km/h
407 13-05-2008 09:36:01 17.1 C 7.42 g/m*3 17.1 C 0 km/h
408 13-05-2008 09:48:02 17.7 C 7.69 g/m*3 17.7 C 0 km/h
409 13-05-2008 10:00:02 18.3 C 7.82 g/m*3 18.3 C 0 km/h
410 13-05-2008 10:12:02 19 C 7.66 g/m*3 19 C 0 km/h
411 13-05-2008 10:24:02 19.8 C 7.86 g/m*3 19.8 C 0 km/h
412 13-05-2008 10:36:02 20.5 C 7.47 g/m*3 20.5 C 0 km/h
413 13-05-2008 10:48:02 21.3 C 7.46 g/m*3 21.3 C 0 km/h
414 13-05-2008 11:00:02 22.4 C 6.55 g/m*3 22.4 C 0 km/h
415 13-05-2008 11:12:02 22.8 C 6.5 g/m*3 22.8 C 0 km/h
416 13-05-2008 11:24:02 23.2 C 6.44 g/m*3 23.2 C 0 km/h
417 13-05-2008 11:36:02 23.7 C 6.63 g/m*3 23.7 C 0 km/h
418 13-05-2008 11:48:02 24.4 C 6.23 g/m*3 24.4 C 0 km/h
419 13-05-2008 12:00:02 25 C 6.22 g/m*3 25 C 0 km/h
420 13-05-2008 12:12:02 25.8 C 6.02 g/m*3 25.8 C 0 km/h
421 13-05-2008 12:24:02 26.5 C 5.26 g/m*3 26.5 C 0 km/h
422 13-05-2008 12:36:02 27.2 C 5.2 g/m*3 27.2 C 0 km/h
423 13-05-2008 12:48:02 27.8 C 5.38 g/m*3 27.8 C 0 km/h
424 13-05-2008 13:00:02 28.2 C 5.5 g/m*3 28.2 C 0 km/h
425 13-05-2008 13:12:02 28.9 C 5.71 g/m*3 28.9 C 0 km/h
Sensor: Nr:Datum:Temp:Abs-Feuchte:Windchill:Wind:
Aussen-T/F 426 13-05-2008 13:24:02 28.8 C 5.68 g/m*3 28.8 C 0 km/h
427 13-05-2008 13:36:02 29.3 C 5.84 g/m*3 29.3 C 0 km/h
428 13-05-2008 13:48:01 29.3 C 5.84 g/m*3 29.3 C 0 km/h
429 13-05-2008 14:00:01 28.3 C 5.53 g/m*3 28.3 C 0 km/h
430 13-05-2008 14:12:01 28 C 5.44 g/m*3 28 C 0 km/h
431 13-05-2008 14:24:02 28.3 C 5.53 g/m*3 28.3 C 0 km/h
432 13-05-2008 14:36:01 27.8 C 5.38 g/m*3 27.8 C 0 km/h
433 13-05-2008 14:48:01 29.4 C 5.87 g/m*3 29.4 C 0 km/h
434 13-05-2008 15:00:01 30.3 C 6.16 g/m*3 30.3 C 0 km/h
435 13-05-2008 15:12:02 30.3 C 6.16 g/m*3 30.3 C 0 km/h
436 13-05-2008 15:24:02 31 C 6.4 g/m*3 31 C 0 km/h
437 13-05-2008 15:36:01 31.1 C 6.43 g/m*3 31.1 C 0 km/h
438 13-05-2008 15:48:01 30.9 C 6.37 g/m*3 30.9 C 0 km/h
439 13-05-2008 16:00:01 30.1 C 6.1 g/m*3 30.1 C 0 km/h
440 13-05-2008 16:12:02 30 C 6.06 g/m*3 30 C 0 km/h
441 13-05-2008 16:24:02 29.6 C 5.94 g/m*3 29.6 C 0 km/h
442 13-05-2008 16:36:01 30.6 C 6.26 g/m*3 30.6 C 0 km/h
443 13-05-2008 16:48:01 30.3 C 6.16 g/m*3 30.3 C 0 km/h
444 13-05-2008 17:00:01 28.9 C 5.71 g/m*3 28.9 C 0 km/h
445 13-05-2008 17:12:02 30 C 6.06 g/m*3 30 C 0 km/h
446 13-05-2008 17:24:01 30.9 C 6.37 g/m*3 30.9 C 0 km/h
447 13-05-2008 17:36:02 31.2 C 6.47 g/m*3 31.2 C 0 km/h
448 13-05-2008 17:48:03 31.2 C 6.47 g/m*3 31.2 C 0 km/h
449 13-05-2008 18:00:03 31.4 C 6.54 g/m*3 31.4 C 0 km/h
450 13-05-2008 18:12:02 31.4 C 6.54 g/m*3 31.4 C 0 km/h
Sensor: Nr:Datum:Temp:Abs-Feuchte:Windchill:Wind:
Aussen-T/F 451 13-05-2008 18:24:02 31.2 C 6.47 g/m*3 31.2 C 0 km/h
452 13-05-2008 18:36:03 31.4 C 6.54 g/m*3 31.4 C 0 km/h
453 13-05-2008 18:48:02 31 C 6.4 g/m*3 31 C 0 km/h
454 13-05-2008 19:00:02 30.8 C 6.33 g/m*3 30.8 C 0 km/h
455 13-05-2008 19:12:02 30.2 C 6.13 g/m*3 30.2 C 0 km/h
456 13-05-2008 19:24:02 29.5 C 5.9 g/m*3 29.5 C 0 km/h
457 13-05-2008 19:36:02 29.4 C 5.87 g/m*3 29.4 C 0 km/h
458 13-05-2008 19:48:02 29 C 5.74 g/m*3 29 C 0 km/h
459 13-05-2008 20:00:02 28.3 C 5.53 g/m*3 28.3 C 0 km/h
460 13-05-2008 20:12:01 27.6 C 5.32 g/m*3 27.6 C 0 km/h
461 13-05-2008 20:24:01 26.6 C 5.29 g/m*3 26.6 C 0 km/h
462 13-05-2008 20:36:01 25.6 C 5.24 g/m*3 25.6 C 0 km/h
463 13-05-2008 20:48:02 24.5 C 5.15 g/m*3 24.5 C 0 km/h
464 13-05-2008 21:00:02 24 C 5 g/m*3 24 C 0 km/h
465 13-05-2008 21:12:02 23.1 C 5.17 g/m*3 23.1 C 0 km/h
466 13-05-2008 21:24:02 22.3 C 5.33 g/m*3 22.3 C 0 km/h
467 13-05-2008 21:36:02 21.9 C 5.79 g/m*3 21.9 C 0 km/h
468 13-05-2008 21:48:02 21.6 C 5.69 g/m*3 21.6 C 0 km/h
469 13-05-2008 22:00:02 21.4 C 5.62 g/m*3 21.4 C 0 km/h
470 13-05-2008 22:12:02 21.1 C 5.71 g/m*3 21.1 C 0 km/h
471 13-05-2008 22:24:01 20.8 C 5.79 g/m*3 20.8 C 0 km/h
472 13-05-2008 22:36:02 20.3 C 5.98 g/m*3 20.3 C 0 km/h
473 13-05-2008 22:49:02 20.1 C 5.91 g/m*3 20.1 C 0 km/h
474 13-05-2008 23:01:02 20 C 6.05 g/m*3 20 C 0 km/h
475 13-05-2008 23:13:03 20 C 6.05 g/m*3 20 C 0 km/h
Sensor: Nr:Datum:Temp:Abs-Feuchte:Windchill:Wind:
Aussen-T/F 476 13-05-2008 23:25:03 20.1 C 6.26 g/m*3 20.1 C 0 km/h
477 13-05-2008 23:37:03 19.8 C 6.32 g/m*3 19.8 C 0 km/h
478 13-05-2008 23:49:03 19.8 C 6.49 g/m*3 19.8 C 0 km/h
479 14-05-2008 00:01:03 19.6 C 6.58 g/m*3 19.6 C 0 km/h
480 14-05-2008 00:13:03 19.3 C 6.63 g/m*3 19.3 C 0 km/h
481 14-05-2008 00:25:03 19.2 C 6.76 g/m*3 19.2 C 0 km/h
482 14-05-2008 00:37:03 19.1 C 6.88 g/m*3 19.1 C 0 km/h
483 14-05-2008 00:49:03 18.8 C 7.09 g/m*3 18.8 C 0 km/h
484 14-05-2008 01:01:03 18.7 C 7.36 g/m*3 18.7 C 0 km/h
485 14-05-2008 01:13:03 18.5 C 7.44 g/m*3 18.5 C 0 km/h
486 14-05-2008 01:25:03 18.2 C 7.46 g/m*3 18.2 C 0 km/h
487 14-05-2008 01:37:03 17.9 C 7.63 g/m*3 17.9 C 0 km/h
488 14-05-2008 01:49:03 17.5 C 7.75 g/m*3 17.5 C 0 km/h
489 14-05-2008 02:01:03 17.5 C 7.75 g/m*3 17.5 C 0 km/h
490 14-05-2008 02:13:03 17.4 C 7.71 g/m*3 17.4 C 0 km/h
491 14-05-2008 02:25:03 17.2 C 7.76 g/m*3 17.2 C 0 km/h
492 14-05-2008 02:37:03 17.1 C 7.86 g/m*3 17.1 C 0 km/h
493 14-05-2008 02:49:03 16.8 C 7.86 g/m*3 16.8 C 0 km/h
494 14-05-2008 03:01:03 16.4 C 7.68 g/m*3 16.4 C 0 km/h
495 14-05-2008 03:13:04 16.2 C 7.86 g/m*3 16.2 C 0 km/h
496 14-05-2008 03:25:04 15.9 C 7.85 g/m*3 15.9 C 0 km/h
497 14-05-2008 03:37:04 15.6 C 7.85 g/m*3 15.6 C 0 km/h
498 14-05-2008 03:49:04 15.4 C 7.88 g/m*3 15.4 C 0 km/h
499 14-05-2008 04:01:04 15.1 C 7.87 g/m*3 15.1 C 0 km/h
500 14-05-2008 04:13:04 14.9 C 7.9 g/m*3 14.9 C 0 km/h
Sensor: Nr:Datum:Temp:Abs-Feuchte:Windchill:Wind:
Aussen-T/F 501 14-05-2008 04:25:04 14.6 C 7.88 g/m*3 14.6 C 0 km/h
502 14-05-2008 04:37:04 14.5 C 7.84 g/m*3 14.5 C 0 km/h
503 14-05-2008 04:49:04 14 C 7.84 g/m*3 14 C 0 km/h
504 14-05-2008 05:01:04 13.9 C 8.03 g/m*3 13.9 C 0 km/h
505 14-05-2008 05:13:04 13.8 C 7.86 g/m*3 13.8 C 0 km/h
506 14-05-2008 05:25:04 13.7 C 7.93 g/m*3 13.7 C 0 km/h
507 14-05-2008 05:37:04 13.4 C 7.79 g/m*3 13.4 C 0 km/h
508 14-05-2008 05:49:04 13.4 C 7.9 g/m*3 13.4 C 0 km/h
509 14-05-2008 06:01:04 13.1 C 7.76 g/m*3 13.1 C 0 km/h
510 14-05-2008 06:13:04 13.1 C 7.99 g/m*3 13.1 C 0 km/h
511 14-05-2008 06:25:04 13.1 C 7.99 g/m*3 13.1 C 0 km/h
512 14-05-2008 06:37:04 12.9 C 8.11 g/m*3 12.9 C 0 km/h
513 14-05-2008 06:49:04 13 C 8.05 g/m*3 13 C 0 km/h
514 14-05-2008 07:01:02 13.1 C 8.1 g/m*3 13.1 C 0 km/h
515 14-05-2008 07:13:02 13.1 C 8.1 g/m*3 13.1 C 0 km/h
516 14-05-2008 07:25:02 13.2 C 8.15 g/m*3 13.2 C 0 km/h
517 14-05-2008 07:37:03 13.3 C 8.2 g/m*3 13.3 C 0 km/h
518 14-05-2008 07:49:02 13.4 C 8.25 g/m*3 13.4 C 0 km/h
519 14-05-2008 08:01:02 13.9 C 8.39 g/m*3 13.9 C 0 km/h
520 14-05-2008 08:13:02 14 C 8.2 g/m*3 14 C 0 km/h
521 14-05-2008 08:25:02 14.3 C 8.35 g/m*3 14.3 C 0 km/h
522 14-05-2008 08:37:01 14.9 C 8.54 g/m*3 14.9 C 0 km/h
523 14-05-2008 08:49:01 15.4 C 8.54 g/m*3 15.4 C 0 km/h
524 14-05-2008 09:01:02 16.1 C 8.5 g/m*3 16.1 C 0 km/h
525 14-05-2008 09:13:02 16.9 C 8.63 g/m*3 16.9 C 0 km/h
Sensor: Nr:Datum:Temp:Abs-Feuchte:Windchill:Wind:
Aussen-T/F 526 14-05-2008 09:25:01 17.6 C 7.95 g/m*3 17.6 C 0 km/h
527 14-05-2008 09:37:01 18.4 C 7.86 g/m*3 18.4 C 0 km/h
528 14-05-2008 09:49:02 19.2 C 7.59 g/m*3 19.2 C 0 km/h
529 14-05-2008 10:01:01 19.6 C 7.6 g/m*3 19.6 C 0 km/h
530 14-05-2008 10:13:01 20.3 C 7.56 g/m*3 20.3 C 0 km/h
531 14-05-2008 10:25:01 20.9 C 7.65 g/m*3 20.9 C 0 km/h
532 14-05-2008 10:37:02 21.4 C 7.5 g/m*3 21.4 C 0 km/h
533 14-05-2008 10:49:02 22.1 C 7.42 g/m*3 22.1 C 0 km/h
534 14-05-2008 11:01:02 22.6 C 7.43 g/m*3 22.6 C 0 km/h
535 14-05-2008 11:13:02 23.4 C 7.36 g/m*3 23.4 C 0 km/h
536 14-05-2008 11:25:01 23.7 C 7.27 g/m*3 23.7 C 0 km/h
537 14-05-2008 11:37:02 24.1 C 7 g/m*3 24.1 C 0 km/h
538 14-05-2008 11:49:03 24.7 C 7.24 g/m*3 24.7 C 0 km/h
539 14-05-2008 12:01:02 24.9 C 7.1 g/m*3 24.9 C 0 km/h
540 14-05-2008 12:13:02 25.5 C 6.87 g/m*3 25.5 C 0 km/h
541 14-05-2008 12:25:02 26.3 C 7.18 g/m*3 26.3 C 0 km/h
542 14-05-2008 12:37:02 27 C 6.43 g/m*3 27 C 0 km/h
543 14-05-2008 12:49:02 27.2 C 6.25 g/m*3 27.2 C 0 km/h
544 14-05-2008 13:01:01 27.8 C 6.19 g/m*3 27.8 C 0 km/h
545 14-05-2008 13:13:01 28.5 C 6.15 g/m*3 28.5 C 0 km/h
546 14-05-2008 13:25:02 29.3 C 5.84 g/m*3 29.3 C 0 km/h
547 14-05-2008 13:37:02 29.1 C 5.78 g/m*3 29.1 C 0 km/h
548 14-05-2008 13:49:02 28.5 C 5.87 g/m*3 28.5 C 0 km/h
549 14-05-2008 14:01:01 28.9 C 6.28 g/m*3 28.9 C 0 km/h
550 14-05-2008 14:13:01 28.5 C 6.15 g/m*3 28.5 C 0 km/h
Sensor: Nr:Datum:Temp:Abs-Feuchte:Windchill:Wind:
Aussen-T/F 551 14-05-2008 14:25:02 27.8 C 6.19 g/m*3 27.8 C 0 km/h
552 14-05-2008 14:37:02 28.9 C 6.28 g/m*3 28.9 C 0 km/h
553 14-05-2008 14:49:02 29.9 C 6.03 g/m*3 29.9 C 0 km/h
554 14-05-2008 15:01:02 29.8 C 6 g/m*3 29.8 C 0 km/h
555 14-05-2008 15:13:02 30.3 C 6.16 g/m*3 30.3 C 0 km/h
556 14-05-2008 15:25:02 30.7 C 6.3 g/m*3 30.7 C 0 km/h
557 14-05-2008 15:37:02 31 C 6.4 g/m*3 31 C 0 km/h
558 14-05-2008 15:49:02 31.4 C 6.54 g/m*3 31.4 C 0 km/h
559 14-05-2008 16:01:02 31.5 C 6.57 g/m*3 31.5 C 0 km/h
560 14-05-2008 16:13:02 31.5 C 6.57 g/m*3 31.5 C 0 km/h
561 14-05-2008 16:25:02 30.6 C 6.26 g/m*3 30.6 C 0 km/h
562 14-05-2008 16:37:02 30.3 C 6.16 g/m*3 30.3 C 0 km/h
563 14-05-2008 16:49:01 29.6 C 5.94 g/m*3 29.6 C 0 km/h
564 14-05-2008 17:01:02 27.5 C 5.29 g/m*3 27.5 C 0 km/h
565 14-05-2008 17:13:02 27.2 C 5.72 g/m*3 27.2 C 0 km/h
566 14-05-2008 17:25:02 27.8 C 6.19 g/m*3 27.8 C 0 km/h
567 14-05-2008 17:37:02 28 C 5.71 g/m*3 28 C 0 km/h
568 14-05-2008 17:49:02 28.8 C 6.25 g/m*3 28.8 C 0 km/h
569 14-05-2008 18:01:02 29.2 C 5.81 g/m*3 29.2 C 0 km/h
570 14-05-2008 18:13:02 28.1 C 5.47 g/m*3 28.1 C 0 km/h
571 14-05-2008 18:25:01 26.2 C 5.17 g/m*3 26.2 C 0 km/h
572 14-05-2008 18:37:02 25.4 C 6.12 g/m*3 25.4 C 0 km/h
573 14-05-2008 18:49:02 27 C 6.18 g/m*3 27 C 0 km/h
574 14-05-2008 19:01:02 28.1 C 5.74 g/m*3 28.1 C 0 km/h
575 14-05-2008 19:13:02 28 C 5.71 g/m*3 28 C 0 km/h
Sensor: Nr:Datum:Temp:Abs-Feuchte:Windchill:Wind:
Aussen-T/F 576 14-05-2008 19:25:02 27.4 C 5.79 g/m*3 27.4 C 0 km/h
577 14-05-2008 19:37:02 26.4 C 5.73 g/m*3 26.4 C 0 km/h
578 14-05-2008 19:49:02 25.5 C 6.39 g/m*3 25.5 C 0 km/h
579 14-05-2008 20:01:03 24.6 C 6.75 g/m*3 24.6 C 0 km/h
580 14-05-2008 20:13:03 24.2 C 6.82 g/m*3 24.2 C 0 km/h
581 14-05-2008 20:25:02 23.9 C 6.71 g/m*3 23.9 C 0 km/h
582 14-05-2008 20:37:02 23.1 C 6.82 g/m*3 23.1 C 0 km/h
583 14-05-2008 20:49:01 22.2 C 6.68 g/m*3 22.2 C 0 km/h
584 14-05-2008 21:01:01 21.8 C 6.72 g/m*3 21.8 C 0 km/h
585 14-05-2008 21:13:01 21.3 C 6.71 g/m*3 21.3 C 0 km/h
586 14-05-2008 21:25:02 20.7 C 6.66 g/m*3 20.7 C 0 km/h
587 14-05-2008 21:37:01 20.4 C 6.9 g/m*3 20.4 C 0 km/h
588 14-05-2008 21:49:02 20 C 6.91 g/m*3 20 C 0 km/h
589 14-05-2008 22:01:07 19.7 C 6.62 g/m*3 19.7 C 0 km/h
590 14-05-2008 22:13:07 19.6 C 6.75 g/m*3 19.6 C 0 km/h
591 14-05-2008 22:26:02 19.4 C 6.84 g/m*3 19.4 C 0 km/h
592 14-05-2008 22:38:02 19.2 C 6.76 g/m*3 19.2 C 0 km/h
593 14-05-2008 22:50:03 18.9 C 6.97 g/m*3 18.9 C 0 km/h
594 14-05-2008 23:02:03 18.3 C 7.19 g/m*3 18.3 C 0 km/h
595 14-05-2008 23:14:03 17.9 C 7.33 g/m*3 17.9 C 0 km/h
596 14-05-2008 23:26:03 18 C 7.37 g/m*3 18 C 0 km/h
597 14-05-2008 23:38:03 17.8 C 7.59 g/m*3 17.8 C 0 km/h
598 14-05-2008 23:50:03 17.8 C 7.59 g/m*3 17.8 C 0 km/h
599 15-05-2008 00:02:03 17.9 C 7.63 g/m*3 17.9 C 0 km/h
600 15-05-2008 00:14:03 17.9 C 7.79 g/m*3 17.9 C 0 km/h
Sensor: Nr:Datum:Temp:Abs-Feuchte:Windchill:Wind:
Aussen-T/F 601 15-05-2008 00:26:03 17.7 C 7.69 g/m*3 17.7 C 0 km/h
602 15-05-2008 00:38:03 17.5 C 7.75 g/m*3 17.5 C 0 km/h
603 15-05-2008 00:50:03 17.3 C 7.66 g/m*3 17.3 C 0 km/h
604 15-05-2008 01:02:03 17.1 C 7.57 g/m*3 17.1 C 0 km/h
605 15-05-2008 01:14:03 16.9 C 7.77 g/m*3 16.9 C 0 km/h
606 15-05-2008 01:26:03 16.8 C 7.72 g/m*3 16.8 C 0 km/h
607 15-05-2008 01:38:03 16.9 C 7.91 g/m*3 16.9 C 0 km/h
608 15-05-2008 01:50:03 17 C 7.81 g/m*3 17 C 0 km/h
609 15-05-2008 02:02:03 17 C 7.81 g/m*3 17 C 0 km/h
610 15-05-2008 02:14:03 16.9 C 8.05 g/m*3 16.9 C 0 km/h
611 15-05-2008 02:26:03 16.8 C 8.01 g/m*3 16.8 C 0 km/h
612 15-05-2008 02:38:03 16.8 C 8.01 g/m*3 16.8 C 0 km/h
613 15-05-2008 02:50:04 16.8 C 8.01 g/m*3 16.8 C 0 km/h
614 15-05-2008 03:02:04 16.5 C 7.86 g/m*3 16.5 C 0 km/h
615 15-05-2008 03:14:04 16.3 C 7.91 g/m*3 16.3 C 0 km/h
616 15-05-2008 03:26:04 16.3 C 7.91 g/m*3 16.3 C 0 km/h
617 15-05-2008 03:38:04 16.3 C 8.05 g/m*3 16.3 C 0 km/h
618 15-05-2008 03:50:04 16.2 C 8.14 g/m*3 16.2 C 0 km/h
619 15-05-2008 04:02:04 15.8 C 8.21 g/m*3 15.8 C 0 km/h
620 15-05-2008 04:14:04 15.8 C 8.62 g/m*3 15.8 C 0 km/h
621 15-05-2008 04:26:04 15.6 C 8.25 g/m*3 15.6 C 0 km/h
622 15-05-2008 04:38:04 15.5 C 8.2 g/m*3 15.5 C 0 km/h
623 15-05-2008 04:50:04 15 C 8.33 g/m*3 15 C 0 km/h
624 15-05-2008 05:02:04 15 C 8.33 g/m*3 15 C 0 km/h
625 15-05-2008 05:14:04 15 C 8.21 g/m*3 15 C 0 km/h
Sensor: Nr:Datum:Temp:Abs-Feuchte:Windchill:Wind:
Aussen-T/F 626 15-05-2008 05:26:04 15 C 8.33 g/m*3 15 C 0 km/h
627 15-05-2008 05:38:04 14.8 C 8.23 g/m*3 14.8 C 0 km/h
628 15-05-2008 05:50:04 14.5 C 8.21 g/m*3 14.5 C 0 km/h
629 15-05-2008 06:02:04 14 C 8.08 g/m*3 14 C 0 km/h
630 15-05-2008 06:14:04 14 C 8.2 g/m*3 14 C 0 km/h
631 15-05-2008 06:26:04 14 C 8.2 g/m*3 14 C 0 km/h
632 15-05-2008 06:38:05 14.1 C 8.25 g/m*3 14.1 C 0 km/h
633 15-05-2008 06:50:05 14.7 C 8.56 g/m*3 14.7 C 0 km/h
634 15-05-2008 07:02:01 14.7 C 8.56 g/m*3 14.7 C 0 km/h
635 15-05-2008 07:14:01 14.7 C 8.69 g/m*3 14.7 C 0 km/h
636 15-05-2008 07:26:01 15 C 8.46 g/m*3 15 C 0 km/h
637 15-05-2008 07:38:02 15.3 C 8.62 g/m*3 15.3 C 0 km/h
638 15-05-2008 07:50:02 15.5 C 8.59 g/m*3 15.5 C 0 km/h
639 15-05-2008 08:02:01 15.6 C 8.51 g/m*3 15.6 C 0 km/h
640 15-05-2008 08:14:01 15.5 C 8.33 g/m*3 15.5 C 0 km/h
641 15-05-2008 08:26:02 15.7 C 8.43 g/m*3 15.7 C 0 km/h
642 15-05-2008 08:38:02 15.8 C 8.48 g/m*3 15.8 C 0 km/h
643 15-05-2008 08:50:02 16.2 C 8.41 g/m*3 16.2 C 0 km/h
644 15-05-2008 09:02:02 17 C 8.39 g/m*3 17 C 0 km/h
645 15-05-2008 09:14:02 17.6 C 8.1 g/m*3 17.6 C 0 km/h
646 15-05-2008 09:26:02 18.1 C 8.03 g/m*3 18.1 C 0 km/h
647 15-05-2008 09:38:02 18.4 C 7.86 g/m*3 18.4 C 0 km/h
648 15-05-2008 09:50:02 19.2 C 8.08 g/m*3 19.2 C 0 km/h
649 15-05-2008 10:02:02 20 C 7.6 g/m*3 20 C 0 km/h
650 15-05-2008 10:14:02 20.4 C 7.96 g/m*3 20.4 C 0 km/h
Sensor: Nr:Datum:Temp:Abs-Feuchte:Windchill:Wind:
Aussen-T/F 651 15-05-2008 10:26:02 20.5 C 7.65 g/m*3 20.5 C 0 km/h
652 15-05-2008 10:38:02 20.9 C 7.83 g/m*3 20.9 C 0 km/h
653 15-05-2008 10:50:02 21.3 C 7.64 g/m*3 21.3 C 0 km/h
654 15-05-2008 11:02:02 21.4 C 7.69 g/m*3 21.4 C 0 km/h
655 15-05-2008 11:14:02 21.6 C 7.59 g/m*3 21.6 C 0 km/h
656 15-05-2008 11:26:02 22.9 C 7.36 g/m*3 22.9 C 0 km/h
657 15-05-2008 11:38:02 24.1 C 7.44 g/m*3 24.1 C 0 km/h
658 15-05-2008 11:50:02 23.8 C 7.31 g/m*3 23.8 C 0 km/h
659 15-05-2008 12:02:02 22.7 C 7.68 g/m*3 22.7 C 0 km/h
660 15-05-2008 12:14:02 23.3 C 7.53 g/m*3 23.3 C 0 km/h
661 15-05-2008 12:26:02 23.3 C 6.69 g/m*3 23.3 C 0 km/h
662 15-05-2008 12:38:01 23.7 C 7.06 g/m*3 23.7 C 0 km/h
663 15-05-2008 12:50:01 24.2 C 6.82 g/m*3 24.2 C 0 km/h
664 15-05-2008 13:02:02 24.7 C 7.02 g/m*3 24.7 C 0 km/h
665 15-05-2008 13:14:02 25.2 C 6.52 g/m*3 25.2 C 0 km/h
666 15-05-2008 13:26:02 25.2 C 6.29 g/m*3 25.2 C 0 km/h
667 15-05-2008 13:38:02 25.4 C 6.36 g/m*3 25.4 C 0 km/h
668 15-05-2008 13:50:02 26 C 6.33 g/m*3 26 C 0 km/h
669 15-05-2008 14:02:01 25.7 C 6.46 g/m*3 25.7 C 0 km/h
670 15-05-2008 14:14:01 25.6 C 6.43 g/m*3 25.6 C 0 km/h
671 15-05-2008 14:26:01 26.1 C 6.37 g/m*3 26.1 C 0 km/h
672 15-05-2008 14:38:02 26.6 C 6.54 g/m*3 26.6 C 0 km/h
673 15-05-2008 14:50:02 26.9 C 6.4 g/m*3 26.9 C 0 km/h
674 15-05-2008 15:02:02 27.9 C 6.22 g/m*3 27.9 C 0 km/h
675 15-05-2008 15:14:02 28.1 C 6.02 g/m*3 28.1 C 0 km/h
Sensor: Nr:Datum:Temp:Abs-Feuchte:Windchill:Wind:
Aussen-T/F 676 15-05-2008 15:26:02 28 C 5.44 g/m*3 28 C 0 km/h
677 15-05-2008 15:38:02 28 C 5.71 g/m*3 28 C 0 km/h
678 15-05-2008 15:50:02 26.4 C 5.48 g/m*3 26.4 C 0 km/h
679 15-05-2008 16:02:01 23.6 C 6.59 g/m*3 23.6 C 0 km/h
680 15-05-2008 16:14:01 21.8 C 8.06 g/m*3 21.8 C 0 km/h
681 15-05-2008 16:26:02 20.4 C 8.85 g/m*3 20.4 C 0 km/h
682 15-05-2008 16:38:02 18.7 C 9.29 g/m*3 18.7 C 0 km/h
683 15-05-2008 16:50:02 19 C 9.45 g/m*3 19 C 0 km/h
684 15-05-2008 17:02:03 20 C 10.54 g/m*3 20 C 0 km/h
685 15-05-2008 17:14:03 19.8 C 11.27 g/m*3 19.8 C 0 km/h
686 15-05-2008 17:26:02 22.3 C 10.07 g/m*3 22.3 C 0 km/h
687 15-05-2008 17:38:02 22 C 10.09 g/m*3 22 C 0 km/h
688 15-05-2008 17:50:02 20.4 C 9.91 g/m*3 20.4 C 0 km/h
689 15-05-2008 18:02:01 20.8 C 9.42 g/m*3 20.8 C 0 km/h
690 15-05-2008 18:14:01 20.9 C 9.29 g/m*3 20.9 C 0 km/h
691 15-05-2008 18:26:02 21.6 C 9.29 g/m*3 21.6 C 0 km/h
692 15-05-2008 18:38:02 21.3 C 8.57 g/m*3 21.3 C 0 km/h
693 15-05-2008 18:50:02 22 C 8.93 g/m*3 22 C 0 km/h
694 15-05-2008 19:02:01 22.2 C 8.44 g/m*3 22.2 C 0 km/h
695 15-05-2008 19:14:01 21.3 C 9.32 g/m*3 21.3 C 0 km/h
696 15-05-2008 19:26:02 21 C 9.53 g/m*3 21 C 0 km/h
697 15-05-2008 19:38:02 20.6 C 9.49 g/m*3 20.6 C 0 km/h
698 15-05-2008 19:50:02 19.6 C 10.13 g/m*3 19.6 C 0 km/h
699 15-05-2008 20:02:02 17.6 C 11.55 g/m*3 17.6 C 0 km/h
700 15-05-2008 20:14:02 17.1 C 11.94 g/m*3 17.1 C 0 km/h
Sensor: Nr:Datum:Temp:Abs-Feuchte:Windchill:Wind:
Aussen-T/F 701 15-05-2008 20:26:02 16.5 C 11.8 g/m*3 16.5 C 0 km/h
702 15-05-2008 20:38:02 16.9 C 12.08 g/m*3 16.9 C 0 km/h
703 15-05-2008 20:50:02 16.8 C 11.72 g/m*3 16.8 C 0 km/h
704 15-05-2008 21:02:02 16.2 C 11.31 g/m*3 16.2 C 0 km/h
705 15-05-2008 21:14:02 16.1 C 11.38 g/m*3 16.1 C 0 km/h
706 15-05-2008 21:26:02 15.9 C 11.24 g/m*3 15.9 C 0 km/h
707 15-05-2008 21:38:02 15.5 C 10.97 g/m*3 15.5 C 0 km/h
708 15-05-2008 21:50:02 15.1 C 10.45 g/m*3 15.1 C 0 km/h
709 15-05-2008 22:02:02 14.9 C 10.58 g/m*3 14.9 C 0 km/h
710 15-05-2008 22:14:02 14.8 C 10.51 g/m*3 14.8 C 0 km/h
711 15-05-2008 22:26:02 15.1 C 10.58 g/m*3 15.1 C 0 km/h
712 15-05-2008 22:38:02 15.2 C 10.51 g/m*3 15.2 C 0 km/h
713 15-05-2008 22:51:04 15.4 C 10.64 g/m*3 15.4 C 0 km/h
714 15-05-2008 23:03:04 15.4 C 10.64 g/m*3 15.4 C 0 km/h
715 15-05-2008 23:15:04 15.6 C 10.77 g/m*3 15.6 C 0 km/h
716 15-05-2008 23:27:04 15.6 C 10.77 g/m*3 15.6 C 0 km/h
717 15-05-2008 23:39:05 15.7 C 10.84 g/m*3 15.7 C 0 km/h
718 15-05-2008 23:51:05 15.4 C 10.77 g/m*3 15.4 C 0 km/h
719 16-05-2008 00:03:05 15.1 C 10.71 g/m*3 15.1 C 0 km/h
720 16-05-2008 00:15:05 15.3 C 10.97 g/m*3 15.3 C 0 km/h
721 16-05-2008 00:27:05 15.4 C 11.04 g/m*3 15.4 C 0 km/h
722 16-05-2008 00:39:05 15.2 C 10.9 g/m*3 15.2 C 0 km/h
723 16-05-2008 00:51:05 15.1 C 10.84 g/m*3 15.1 C 0 km/h
724 16-05-2008 01:03:05 15.1 C 10.84 g/m*3 15.1 C 0 km/h
725 16-05-2008 01:15:05 14.9 C 10.58 g/m*3 14.9 C 0 km/h
Sensor: Nr:Datum:Temp:Abs-Feuchte:Windchill:Wind:
Aussen-T/F 726 16-05-2008 01:27:05 15.1 C 10.58 g/m*3 15.1 C 0 km/h
727 16-05-2008 01:39:05 15.3 C 10.58 g/m*3 15.3 C 0 km/h
728 16-05-2008 01:51:05 15.2 C 10.51 g/m*3 15.2 C 0 km/h
729 16-05-2008 02:03:05 15.1 C 10.32 g/m*3 15.1 C 0 km/h
730 16-05-2008 02:15:05 15 C 10.26 g/m*3 15 C 0 km/h
731 16-05-2008 02:27:05 15 C 10.26 g/m*3 15 C 0 km/h
732 16-05-2008 02:39:05 15 C 10.39 g/m*3 15 C 0 km/h
733 16-05-2008 02:51:05 15.1 C 10.45 g/m*3 15.1 C 0 km/h
734 16-05-2008 03:03:05 15.2 C 10.38 g/m*3 15.2 C 0 km/h
735 16-05-2008 03:15:05 15.2 C 10.25 g/m*3 15.2 C 0 km/h
736 16-05-2008 03:27:06 15.2 C 10.25 g/m*3 15.2 C 0 km/h
737 16-05-2008 03:39:06 15.1 C 10.19 g/m*3 15.1 C 0 km/h
738 16-05-2008 03:51:06 15 C 10.13 g/m*3 15 C 0 km/h
739 16-05-2008 04:03:06 15 C 10.13 g/m*3 15 C 0 km/h
740 16-05-2008 04:15:06 15 C 10.26 g/m*3 15 C 0 km/h
741 16-05-2008 04:27:06 14.8 C 10.26 g/m*3 14.8 C 0 km/h
742 16-05-2008 04:39:06 14.7 C 10.32 g/m*3 14.7 C 0 km/h
743 16-05-2008 04:51:06 14.8 C 10.39 g/m*3 14.8 C 0 km/h
744 16-05-2008 05:03:06 14.9 C 10.45 g/m*3 14.9 C 0 km/h
745 16-05-2008 05:15:06 14.9 C 10.45 g/m*3 14.9 C 0 km/h
746 16-05-2008 05:27:06 14.8 C 10.13 g/m*3 14.8 C 0 km/h
747 16-05-2008 05:39:06 14.7 C 9.95 g/m*3 14.7 C 0 km/h
748 16-05-2008 05:51:06 14.4 C 9.89 g/m*3 14.4 C 0 km/h
749 16-05-2008 06:03:06 14.3 C 10.07 g/m*3 14.3 C 0 km/h
750 16-05-2008 06:15:06 14.2 C 10.01 g/m*3 14.2 C 0 km/h
Sensor: Nr:Datum:Temp:Abs-Feuchte:Windchill:Wind:
Aussen-T/F 751 16-05-2008 06:27:06 14.2 C 10.01 g/m*3 14.2 C 0 km/h
752 16-05-2008 06:39:06 14.4 C 10.14 g/m*3 14.4 C 0 km/h
753 16-05-2008 06:51:06 14.7 C 10.2 g/m*3 14.7 C 0 km/h
754 16-05-2008 07:03:03 14.9 C 10.32 g/m*3 14.9 C 0 km/h
755 16-05-2008 07:15:04 15 C 10.13 g/m*3 15 C 0 km/h
756 16-05-2008 07:27:04 15.1 C 10.06 g/m*3 15.1 C 0 km/h
757 16-05-2008 07:39:04 15.3 C 10.19 g/m*3 15.3 C 0 km/h
758 16-05-2008 07:51:02 15.3 C 10.06 g/m*3 15.3 C 0 km/h
759 16-05-2008 08:03:02 15.3 C 9.92 g/m*3 15.3 C 0 km/h
760 16-05-2008 08:15:01 15.7 C 10.17 g/m*3 15.7 C 0 km/h
761 16-05-2008 08:27:01 16 C 10.08 g/m*3 16 C 0 km/h
762 16-05-2008 08:39:02 16.2 C 9.93 g/m*3 16.2 C 0 km/h
763 16-05-2008 08:51:02 16.7 C 9.95 g/m*3 16.7 C 0 km/h
764 16-05-2008 09:03:01 16.8 C 9.87 g/m*3 16.8 C 0 km/h
765 16-05-2008 09:15:02 17.4 C 9.78 g/m*3 17.4 C 0 km/h
766 16-05-2008 09:27:02 17.3 C 9.58 g/m*3 17.3 C 0 km/h
767 16-05-2008 09:39:01 17.4 C 9.63 g/m*3 17.4 C 0 km/h
768 16-05-2008 09:51:02 17.6 C 9.6 g/m*3 17.6 C 0 km/h
769 16-05-2008 10:03:01 17.5 C 9.54 g/m*3 17.5 C 0 km/h
770 16-05-2008 10:15:02 17.6 C 9.6 g/m*3 17.6 C 0 km/h
771 16-05-2008 10:27:02 18.8 C 9.34 g/m*3 18.8 C 0 km/h
772 16-05-2008 10:39:02 19 C 9.13 g/m*3 19 C 0 km/h
773 16-05-2008 10:51:02 18.9 C 8.75 g/m*3 18.9 C 0 km/h
774 16-05-2008 11:03:02 19.1 C 8.85 g/m*3 19.1 C 0 km/h
775 16-05-2008 11:15:02 19.4 C 8.68 g/m*3 19.4 C 0 km/h
Sensor: Nr:Datum:Temp:Abs-Feuchte:Windchill:Wind:
Aussen-T/F 776 16-05-2008 11:27:02 19.7 C 8.83 g/m*3 19.7 C 0 km/h
777 16-05-2008 11:39:02 19.9 C 8.59 g/m*3 19.9 C 0 km/h
778 16-05-2008 11:51:01 20 C 8.47 g/m*3 20 C 0 km/h
779 16-05-2008 12:03:02 21.2 C 8.71 g/m*3 21.2 C 0 km/h
780 16-05-2008 12:15:02 22 C 8.73 g/m*3 22 C 0 km/h
781 16-05-2008 12:27:02 21.9 C 8.3 g/m*3 21.9 C 0 km/h
782 16-05-2008 12:39:02 21.8 C 8.06 g/m*3 21.8 C 0 km/h
783 16-05-2008 12:51:02 22.6 C 8.24 g/m*3 22.6 C 0 km/h
784 16-05-2008 13:03:02 23.3 C 7.74 g/m*3 23.3 C 0 km/h
785 16-05-2008 13:15:01 23.8 C 7.31 g/m*3 23.8 C 0 km/h
786 16-05-2008 13:27:01 23.8 C 6.67 g/m*3 23.8 C 0 km/h
787 16-05-2008 13:39:02 24.3 C 6.64 g/m*3 24.3 C 0 km/h
788 16-05-2008 13:51:02 24.2 C 6.6 g/m*3 24.2 C 0 km/h
789 16-05-2008 14:03:02 24 C 6.53 g/m*3 24 C 0 km/h
790 16-05-2008 14:15:03 24 C 6.74 g/m*3 24 C 0 km/h
791 16-05-2008 14:27:03 24.8 C 7.28 g/m*3 24.8 C 0 km/h
792 16-05-2008 14:39:02 24.5 C 6.94 g/m*3 24.5 C 0 km/h
793 16-05-2008 14:51:02 24.4 C 6.68 g/m*3 24.4 C 0 km/h
794 16-05-2008 15:03:01 23.6 C 6.81 g/m*3 23.6 C 0 km/h
795 16-05-2008 15:15:01 23.8 C 7.1 g/m*3 23.8 C 0 km/h
796 16-05-2008 15:27:01 23.3 C 7.11 g/m*3 23.3 C 0 km/h
797 16-05-2008 15:39:02 23.8 C 6.88 g/m*3 23.8 C 0 km/h
798 16-05-2008 15:51:02 23.4 C 8.83 g/m*3 23.4 C 0 km/h
799 16-05-2008 16:03:02 22.9 C 8.38 g/m*3 22.9 C 0 km/h
800 16-05-2008 16:15:02 22.2 C 8.05 g/m*3 22.2 C 0 km/h
Sensor: Nr:Datum:Temp:Abs-Feuchte:Windchill:Wind:
Aussen-T/F 801 16-05-2008 16:27:02 21.3 C 8.76 g/m*3 21.3 C 0 km/h
802 16-05-2008 16:39:02 20.4 C 10.44 g/m*3 20.4 C 0 km/h
803 16-05-2008 16:51:01 19.6 C 8.78 g/m*3 19.6 C 0 km/h
804 16-05-2008 17:03:01 18.3 C 10.01 g/m*3 18.3 C 0 km/h
805 16-05-2008 17:15:02 18.3 C 10.16 g/m*3 18.3 C 0 km/h
806 16-05-2008 17:27:02 19 C 9.94 g/m*3 19 C 0 km/h
807 16-05-2008 17:39:01 19.7 C 9.68 g/m*3 19.7 C 0 km/h
808 16-05-2008 17:51:01 20.8 C 9.78 g/m*3 20.8 C 0 km/h
809 16-05-2008 18:03:02 21.5 C 9.62 g/m*3 21.5 C 0 km/h
810 16-05-2008 18:15:02 22.5 C 9.39 g/m*3 22.5 C 0 km/h
811 16-05-2008 18:27:03 22.7 C 9.5 g/m*3 22.7 C 0 km/h
812 16-05-2008 18:39:01 23.4 C 9.46 g/m*3 23.4 C 0 km/h
813 16-05-2008 18:51:01 24 C 8.7 g/m*3 24 C 0 km/h
814 16-05-2008 19:03:02 24 C 8.27 g/m*3 24 C 0 km/h
815 16-05-2008 19:15:01 23.2 C 8.52 g/m*3 23.2 C 0 km/h
816 16-05-2008 19:27:01 22.2 C 9.03 g/m*3 22.2 C 0 km/h
817 16-05-2008 19:39:01 22.1 C 9.17 g/m*3 22.1 C 0 km/h
818 16-05-2008 19:51:01 21.8 C 9.21 g/m*3 21.8 C 0 km/h
819 16-05-2008 20:03:02 21.8 C 9.02 g/m*3 21.8 C 0 km/h
820 16-05-2008 20:15:01 21.1 C 8.84 g/m*3 21.1 C 0 km/h
821 16-05-2008 20:27:01 20.3 C 8.79 g/m*3 20.3 C 0 km/h
822 16-05-2008 20:39:01 19.7 C 8.49 g/m*3 19.7 C 0 km/h
823 16-05-2008 20:51:01 18.7 C 8.49 g/m*3 18.7 C 0 km/h
824 16-05-2008 21:03:02 18.2 C 8.39 g/m*3 18.2 C 0 km/h
825 16-05-2008 21:15:01 17.8 C 8.35 g/m*3 17.8 C 0 km/h
Sensor: Nr:Datum:Temp:Abs-Feuchte:Windchill:Wind:
Aussen-T/F 826 16-05-2008 21:27:01 17.5 C 8.5 g/m*3 17.5 C 0 km/h
827 16-05-2008 21:39:02 17.2 C 8.64 g/m*3 17.2 C 0 km/h
828 16-05-2008 21:51:02 17.1 C 8.88 g/m*3 17.1 C 0 km/h
829 16-05-2008 22:03:02 16.8 C 9.15 g/m*3 16.8 C 0 km/h
830 16-05-2008 22:15:02 16.7 C 9.52 g/m*3 16.7 C 0 km/h
831 16-05-2008 22:27:02 16.5 C 9.41 g/m*3 16.5 C 0 km/h
832 16-05-2008 22:39:02 16.4 C 9.49 g/m*3 16.4 C 0 km/h
833 16-05-2008 22:51:02 16.3 C 9.43 g/m*3 16.3 C 0 km/h
834 16-05-2008 23:03:02 16.2 C 9.52 g/m*3 16.2 C 0 km/h
835 16-05-2008 23:15:02 16.1 C 9.46 g/m*3 16.1 C 0 km/h
836 16-05-2008 23:27:02 16 C 9.54 g/m*3 16 C 0 km/h
837 16-05-2008 23:39:02 15.9 C 9.62 g/m*3 15.9 C 0 km/h
838 16-05-2008 23:51:02 15.7 C 9.63 g/m*3 15.7 C 0 km/h
839 17-05-2008 00:03:02 15.8 C 9.69 g/m*3 15.8 C 0 km/h
840 17-05-2008 00:15:02 15.7 C 9.63 g/m*3 15.7 C 0 km/h
841 17-05-2008 00:27:02 15.6 C 9.71 g/m*3 15.6 C 0 km/h
842 17-05-2008 00:39:02 15.6 C 9.71 g/m*3 15.6 C 0 km/h
843 17-05-2008 00:51:02 15.6 C 9.71 g/m*3 15.6 C 0 km/h
844 17-05-2008 01:03:02 15.6 C 9.71 g/m*3 15.6 C 0 km/h
845 17-05-2008 01:15:02 15.5 C 9.78 g/m*3 15.5 C 0 km/h
846 17-05-2008 01:27:02 15.3 C 9.66 g/m*3 15.3 C 0 km/h
847 17-05-2008 01:39:02 15.4 C 9.72 g/m*3 15.4 C 0 km/h
848 17-05-2008 01:51:03 15.5 C 9.78 g/m*3 15.5 C 0 km/h
849 17-05-2008 02:03:03 15 C 9.87 g/m*3 15 C 0 km/h
850 17-05-2008 02:15:03 14.4 C 10.51 g/m*3 14.4 C 0 km/h
Sensor: Nr:Datum:Temp:Abs-Feuchte:Windchill:Wind:
Aussen-T/F 851 17-05-2008 02:27:03 14.4 C 10.75 g/m*3 14.4 C 0 km/h
852 17-05-2008 02:39:03 14.4 C 10.88 g/m*3 14.4 C 0 km/h
853 17-05-2008 02:51:03 14.3 C 10.81 g/m*3 14.3 C 0 km/h
854 17-05-2008 03:03:03 14.5 C 11.07 g/m*3 14.5 C 0 km/h
855 17-05-2008 03:15:03 14.5 C 11.07 g/m*3 14.5 C 0 km/h
856 17-05-2008 03:27:03 14.3 C 10.81 g/m*3 14.3 C 0 km/h
857 17-05-2008 03:39:03 14.3 C 10.81 g/m*3 14.3 C 0 km/h
858 17-05-2008 03:51:03 14.3 C 10.81 g/m*3 14.3 C 0 km/h
859 17-05-2008 04:03:03 14.3 C 10.81 g/m*3 14.3 C 0 km/h
860 17-05-2008 04:15:03 14.1 C 10.68 g/m*3 14.1 C 0 km/h
861 17-05-2008 04:27:03 14 C 10.61 g/m*3 14 C 0 km/h
862 17-05-2008 04:39:03 14.1 C 10.68 g/m*3 14.1 C 0 km/h
863 17-05-2008 04:51:03 14.1 C 10.68 g/m*3 14.1 C 0 km/h
864 17-05-2008 05:03:03 14.1 C 10.68 g/m*3 14.1 C 0 km/h
865 17-05-2008 05:15:03 14.1 C 10.68 g/m*3 14.1 C 0 km/h
866 17-05-2008 05:27:03 14 C 10.61 g/m*3 14 C 0 km/h
867 17-05-2008 05:39:03 14 C 10.61 g/m*3 14 C 0 km/h
868 17-05-2008 05:51:04 14.1 C 10.68 g/m*3 14.1 C 0 km/h
869 17-05-2008 06:03:04 14.1 C 10.68 g/m*3 14.1 C 0 km/h
870 17-05-2008 06:15:04 14.2 C 10.75 g/m*3 14.2 C 0 km/h
871 17-05-2008 06:27:04 14.3 C 10.81 g/m*3 14.3 C 0 km/h
872 17-05-2008 06:39:04 14.3 C 10.69 g/m*3 14.3 C 0 km/h
873 17-05-2008 06:51:04 14.6 C 10.89 g/m*3 14.6 C 0 km/h
874 17-05-2008 07:03:04 14.8 C 11.02 g/m*3 14.8 C 0 km/h
875 17-05-2008 07:15:04 15 C 10.9 g/m*3 15 C 0 km/h
Sensor: Nr:Datum:Temp:Abs-Feuchte:Windchill:Wind:
Aussen-T/F 876 17-05-2008 07:27:04 15.1 C 10.97 g/m*3 15.1 C 0 km/h
877 17-05-2008 07:39:04 15.1 C 10.97 g/m*3 15.1 C 0 km/h
878 17-05-2008 07:51:04 15.4 C 11.04 g/m*3 15.4 C 0 km/h
879 17-05-2008 08:03:01 15.6 C 11.04 g/m*3 15.6 C 0 km/h
880 17-05-2008 08:15:01 15.9 C 11.1 g/m*3 15.9 C 0 km/h
881 17-05-2008 08:27:01 16.4 C 11.03 g/m*3 16.4 C 0 km/h
882 17-05-2008 08:39:01 16.4 C 10.33 g/m*3 16.4 C 0 km/h
883 17-05-2008 08:51:01 16.3 C 9.85 g/m*3 16.3 C 0 km/h
884 17-05-2008 09:03:01 16.5 C 9.83 g/m*3 16.5 C 0 km/h
885 17-05-2008 09:15:01 16.7 C 9.81 g/m*3 16.7 C 0 km/h
886 17-05-2008 09:27:01 16.9 C 9.64 g/m*3 16.9 C 0 km/h
887 17-05-2008 09:39:01 17.5 C 9.84 g/m*3 17.5 C 0 km/h
888 17-05-2008 09:51:02 17.8 C 9.87 g/m*3 17.8 C 0 km/h
889 17-05-2008 10:03:01 18.3 C 9.69 g/m*3 18.3 C 0 km/h
890 17-05-2008 10:15:01 17.9 C 9.47 g/m*3 17.9 C 0 km/h
891 17-05-2008 10:27:01 17.9 C 9.47 g/m*3 17.9 C 0 km/h
892 17-05-2008 10:39:02 18.6 C 9.39 g/m*3 18.6 C 0 km/h
893 17-05-2008 10:51:02 18.3 C 9.07 g/m*3 18.3 C 0 km/h
894 17-05-2008 11:03:01 18.8 C 9.18 g/m*3 18.8 C 0 km/h
895 17-05-2008 11:15:01 19.2 C 9.07 g/m*3 19.2 C 0 km/h
896 17-05-2008 11:27:01 19 C 8.64 g/m*3 19 C 0 km/h
897 17-05-2008 11:39:02 19.1 C 9.02 g/m*3 19.1 C 0 km/h
898 17-05-2008 11:51:02 19.8 C 8.71 g/m*3 19.8 C 0 km/h
899 17-05-2008 12:03:01 19.4 C 8.34 g/m*3 19.4 C 0 km/h
900 17-05-2008 12:15:02 19.9 C 8.59 g/m*3 19.9 C 0 km/h
Sensor: Nr:Datum:Temp:Abs-Feuchte:Windchill:Wind:
Aussen-T/F 901 17-05-2008 12:27:02 20.6 C 8.23 g/m*3 20.6 C 0 km/h
902 17-05-2008 12:39:01 20.8 C 8.33 g/m*3 20.8 C 0 km/h
903 17-05-2008 12:51:01 21.2 C 7.97 g/m*3 21.2 C 0 km/h
904 17-05-2008 13:03:01 21.5 C 8.11 g/m*3 21.5 C 0 km/h
905 17-05-2008 13:15:02 21.6 C 7.97 g/m*3 21.6 C 0 km/h
906 17-05-2008 13:27:02 21.8 C 7.87 g/m*3 21.8 C 0 km/h
907 17-05-2008 13:39:01 21.9 C 7.53 g/m*3 21.9 C 0 km/h
908 17-05-2008 13:51:01 21.2 C 7.78 g/m*3 21.2 C 0 km/h
909 17-05-2008 14:03:01 21.5 C 7.54 g/m*3 21.5 C 0 km/h
910 17-05-2008 14:15:01 21 C 7.51 g/m*3 21 C 0 km/h
911 17-05-2008 14:27:01 20.6 C 8.05 g/m*3 20.6 C 0 km/h
912 17-05-2008 14:39:02 21.1 C 8.11 g/m*3 21.1 C 0 km/h
913 17-05-2008 14:51:02 20.4 C 7.96 g/m*3 20.4 C 0 km/h
914 17-05-2008 15:03:01 21 C 7.88 g/m*3 21 C 0 km/h
915 17-05-2008 15:15:01 21.2 C 7.78 g/m*3 21.2 C 0 km/h
916 17-05-2008 15:27:01 20.8 C 7.79 g/m*3 20.8 C 0 km/h
917 17-05-2008 15:39:01 21.4 C 7.87 g/m*3 21.4 C 0 km/h
918 17-05-2008 15:51:01 21.6 C 7.78 g/m*3 21.6 C 0 km/h
919 17-05-2008 16:03:02 21.5 C 7.73 g/m*3 21.5 C 0 km/h
920 17-05-2008 16:15:01 22.1 C 7.42 g/m*3 22.1 C 0 km/h
921 17-05-2008 16:27:01 21.9 C 7.72 g/m*3 21.9 C 0 km/h
922 17-05-2008 16:39:02 22 C 7.18 g/m*3 22 C 0 km/h
923 17-05-2008 16:51:02 20.7 C 8.64 g/m*3 20.7 C 0 km/h
924 17-05-2008 17:03:01 20.6 C 8.59 g/m*3 20.6 C 0 km/h
925 17-05-2008 17:15:02 21.6 C 8.53 g/m*3 21.6 C 0 km/h
Sensor: Nr:Datum:Temp:Abs-Feuchte:Windchill:Wind:
Aussen-T/F 926 17-05-2008 17:27:02 22.7 C 8.28 g/m*3 22.7 C 0 km/h
927 17-05-2008 17:39:01 21.2 C 7.97 g/m*3 21.2 C 0 km/h
928 17-05-2008 17:51:01 21.2 C 8.34 g/m*3 21.2 C 0 km/h
929 17-05-2008 18:03:01 20.2 C 8.22 g/m*3 20.2 C 0 km/h
930 17-05-2008 18:15:02 18.3 C 8.76 g/m*3 18.3 C 0 km/h
931 17-05-2008 18:27:02 16.4 C 10.89 g/m*3 16.4 C 0 km/h
932 17-05-2008 18:39:01 17.1 C 11.35 g/m*3 17.1 C 0 km/h
933 17-05-2008 18:51:01 17 C 10.85 g/m*3 17 C 0 km/h
934 17-05-2008 19:03:02 17.2 C 11.13 g/m*3 17.2 C 0 km/h
935 17-05-2008 19:15:01 18.5 C 11.23 g/m*3 18.5 C 0 km/h
936 17-05-2008 19:27:02 17.9 C 10.69 g/m*3 17.9 C 0 km/h
937 17-05-2008 19:39:01 17 C 9.98 g/m*3 17 C 0 km/h
938 17-05-2008 19:51:01 17.3 C 10.16 g/m*3 17.3 C 0 km/h
939 17-05-2008 20:03:02 17.2 C 9.96 g/m*3 17.2 C 0 km/h
940 17-05-2008 20:15:01 17.3 C 10.16 g/m*3 17.3 C 0 km/h
941 17-05-2008 20:27:01 16.7 C 10.09 g/m*3 16.7 C 0 km/h
942 17-05-2008 20:39:01 16.7 C 10.37 g/m*3 16.7 C 0 km/h
943 17-05-2008 20:51:01 16.4 C 10.33 g/m*3 16.4 C 0 km/h
944 17-05-2008 21:03:02 16.2 C 10.34 g/m*3 16.2 C 0 km/h
945 17-05-2008 21:15:01 15.9 C 10.16 g/m*3 15.9 C 0 km/h
946 17-05-2008 21:27:01 15.1 C 10.45 g/m*3 15.1 C 0 km/h
947 17-05-2008 21:39:01 14.9 C 10.71 g/m*3 14.9 C 0 km/h
948 17-05-2008 21:51:01 14.7 C 10.83 g/m*3 14.7 C 0 km/h
949 17-05-2008 22:03:02 14.7 C 10.95 g/m*3 14.7 C 0 km/h
950 17-05-2008 22:15:01 14.6 C 11.01 g/m*3 14.6 C 0 km/h
Sensor: Nr:Datum:Temp:Abs-Feuchte:Windchill:Wind:
Aussen-T/F 951 17-05-2008 22:27:01 14.3 C 10.81 g/m*3 14.3 C 0 km/h
952 17-05-2008 22:39:02 14.1 C 10.68 g/m*3 14.1 C 0 km/h
953 17-05-2008 22:51:02 14 C 10.74 g/m*3 14 C 0 km/h
954 17-05-2008 23:04:06 13.9 C 10.67 g/m*3 13.9 C 0 km/h
955 17-05-2008 23:16:06 13.7 C 10.54 g/m*3 13.7 C 0 km/h
956 17-05-2008 23:28:06 13.5 C 10.41 g/m*3 13.5 C 0 km/h
957 17-05-2008 23:40:06 13.1 C 10.04 g/m*3 13.1 C 0 km/h
958 17-05-2008 23:52:06 12.8 C 9.97 g/m*3 12.8 C 0 km/h
959 18-05-2008 00:04:06 12.6 C 9.85 g/m*3 12.6 C 0 km/h
960 18-05-2008 00:16:06 12.5 C 9.78 g/m*3 12.5 C 0 km/h
961 18-05-2008 00:28:06 12.6 C 9.85 g/m*3 12.6 C 0 km/h
962 18-05-2008 00:40:06 13 C 10.09 g/m*3 13 C 0 km/h
963 18-05-2008 00:52:06 13.2 C 10.22 g/m*3 13.2 C 0 km/h
964 18-05-2008 01:04:06 13.3 C 10.28 g/m*3 13.3 C 0 km/h
965 18-05-2008 01:16:06 13.4 C 10.35 g/m*3 13.4 C 0 km/h
966 18-05-2008 01:28:06 13.4 C 10.23 g/m*3 13.4 C 0 km/h
967 18-05-2008 01:40:06 13.4 C 10.11 g/m*3 13.4 C 0 km/h
968 18-05-2008 01:52:06 13.4 C 10.11 g/m*3 13.4 C 0 km/h
969 18-05-2008 02:04:06 13.5 C 10.06 g/m*3 13.5 C 0 km/h
970 18-05-2008 02:16:06 13.5 C 10.06 g/m*3 13.5 C 0 km/h
971 18-05-2008 02:28:06 13.4 C 10 g/m*3 13.4 C 0 km/h
972 18-05-2008 02:40:07 13.2 C 9.87 g/m*3 13.2 C 0 km/h
973 18-05-2008 02:52:07 13.2 C 9.87 g/m*3 13.2 C 0 km/h
974 18-05-2008 03:04:07 13.1 C 9.81 g/m*3 13.1 C 0 km/h
975 18-05-2008 03:16:07 13.2 C 9.87 g/m*3 13.2 C 0 km/h
Sensor: Nr:Datum:Temp:Abs-Feuchte:Windchill:Wind:
Aussen-T/F 976 18-05-2008 03:28:07 13.2 C 9.87 g/m*3 13.2 C 0 km/h
977 18-05-2008 03:40:07 13.2 C 9.87 g/m*3 13.2 C 0 km/h
978 18-05-2008 03:52:07 13.1 C 9.81 g/m*3 13.1 C 0 km/h
979 18-05-2008 04:04:07 13.1 C 9.81 g/m*3 13.1 C 0 km/h
980 18-05-2008 04:16:07 13.2 C 9.87 g/m*3 13.2 C 0 km/h
981 18-05-2008 04:28:07 13.3 C 9.94 g/m*3 13.3 C 0 km/h
982 18-05-2008 04:40:07 13.3 C 9.94 g/m*3 13.3 C 0 km/h
983 18-05-2008 04:52:07 13.3 C 9.82 g/m*3 13.3 C 0 km/h
984 18-05-2008 05:04:07 13.1 C 9.7 g/m*3 13.1 C 0 km/h
985 18-05-2008 05:16:07 13.1 C 9.7 g/m*3 13.1 C 0 km/h
986 18-05-2008 05:28:07 13 C 9.53 g/m*3 13 C 0 km/h
987 18-05-2008 05:40:07 13.1 C 9.59 g/m*3 13.1 C 0 km/h
988 18-05-2008 05:52:07 12.8 C 9.41 g/m*3 12.8 C 0 km/h
989 18-05-2008 06:04:07 12.6 C 9.4 g/m*3 12.6 C 0 km/h
990 18-05-2008 06:16:07 12.6 C 9.62 g/m*3 12.6 C 0 km/h
991 18-05-2008 06:28:07 12.2 C 9.39 g/m*3 12.2 C 0 km/h
992 18-05-2008 06:40:05 12.2 C 9.5 g/m*3 12.2 C 0 km/h
993 18-05-2008 06:52:02 12.4 C 9.72 g/m*3 12.4 C 0 km/h
994 18-05-2008 07:04:02 12.6 C 9.96 g/m*3 12.6 C 0 km/h
995 18-05-2008 07:16:02 12.7 C 10.02 g/m*3 12.7 C 0 km/h
996 18-05-2008 07:28:03 13 C 10.09 g/m*3 13 C 0 km/h
997 18-05-2008 07:40:02 13.2 C 10.22 g/m*3 13.2 C 0 km/h
998 18-05-2008 07:52:02 13.1 C 10.04 g/m*3 13.1 C 0 km/h
999 18-05-2008 08:04:02 13.3 C 9.94 g/m*3 13.3 C 0 km/h
1000 18-05-2008 08:16:03 13.6 C 9.89 g/m*3 13.6 C 0 km/h
Sensor: Nr:Datum:Temp:Abs-Feuchte:Windchill:Wind:
Aussen-T/F 1001 18-05-2008 08:28:03 13.7 C 9.71 g/m*3 13.7 C 0 km/h
1002 18-05-2008 08:40:02 13.8 C 9.53 g/m*3 13.8 C 0 km/h
1003 18-05-2008 08:52:01 13.8 C 9.29 g/m*3 13.8 C 0 km/h
1004 18-05-2008 09:04:02 14.3 C 9.46 g/m*3 14.3 C 0 km/h
1005 18-05-2008 09:16:02 14.7 C 9.19 g/m*3 14.7 C 0 km/h
1006 18-05-2008 09:28:02 14.4 C 9.15 g/m*3 14.4 C 0 km/h
1007 18-05-2008 09:40:01 14.4 C 9.15 g/m*3 14.4 C 0 km/h
1008 18-05-2008 09:52:02 14.9 C 9.56 g/m*3 14.9 C 0 km/h
1009 18-05-2008 10:04:02 15.1 C 9.16 g/m*3 15.1 C 0 km/h
1010 18-05-2008 10:16:02 15.5 C 9.39 g/m*3 15.5 C 0 km/h
1011 18-05-2008 10:28:02 15 C 8.85 g/m*3 15 C 0 km/h
1012 18-05-2008 10:40:02 14.4 C 8.9 g/m*3 14.4 C 0 km/h
1013 18-05-2008 10:52:01 13.8 C 8.7 g/m*3 13.8 C 0 km/h
1014 18-05-2008 11:04:02 13.8 C 8.82 g/m*3 13.8 C 0 km/h
1015 18-05-2008 11:16:02 13.8 C 8.82 g/m*3 13.8 C 0 km/h
1016 18-05-2008 11:28:02 13.8 C 8.58 g/m*3 13.8 C 0 km/h
1017 18-05-2008 11:40:02 14.4 C 8.53 g/m*3 14.4 C 0 km/h
1018 18-05-2008 11:52:02 14.8 C 8.36 g/m*3 14.8 C 0 km/h
1019 18-05-2008 12:04:01 14.3 C 8.35 g/m*3 14.3 C 0 km/h
1020 18-05-2008 12:16:02 15 C 8.46 g/m*3 15 C 0 km/h
1021 18-05-2008 12:28:02 15.1 C 8.39 g/m*3 15.1 C 0 km/h
1022 18-05-2008 12:40:02 14.6 C 8.13 g/m*3 14.6 C 0 km/h
1023 18-05-2008 12:52:02 14.9 C 8.28 g/m*3 14.9 C 0 km/h
1024 18-05-2008 13:04:02 15.2 C 8.18 g/m*3 15.2 C 0 km/h
1025 18-05-2008 13:16:02 15.1 C 8.13 g/m*3 15.1 C 0 km/h
Sensor: Nr:Datum:Temp:Abs-Feuchte:Windchill:Wind:
Aussen-T/F 1026 18-05-2008 13:28:02 15.2 C 8.05 g/m*3 15.2 C 0 km/h
1027 18-05-2008 13:40:02 15.6 C 7.98 g/m*3 15.6 C 0 km/h
1028 18-05-2008 13:52:02 15.6 C 7.85 g/m*3 15.6 C 0 km/h
1029 18-05-2008 14:04:01 16 C 7.9 g/m*3 16 C 0 km/h
1030 18-05-2008 14:16:01 16 C 7.63 g/m*3 16 C 0 km/h
1031 18-05-2008 14:28:01 16.2 C 7.72 g/m*3 16.2 C 0 km/h
1032 18-05-2008 14:40:02 16 C 7.63 g/m*3 16 C 0 km/h
1033 18-05-2008 14:52:02 15.9 C 7.72 g/m*3 15.9 C 0 km/h
1034 18-05-2008 15:04:02 15.7 C 7.63 g/m*3 15.7 C 0 km/h
1035 18-05-2008 15:16:02 15.6 C 7.45 g/m*3 15.6 C 0 km/h
1036 18-05-2008 15:28:02 15.5 C 7.27 g/m*3 15.5 C 0 km/h
1037 18-05-2008 15:40:02 15.6 C 7.31 g/m*3 15.6 C 0 km/h
1038 18-05-2008 15:52:02 15.2 C 7.27 g/m*3 15.2 C 0 km/h
1039 18-05-2008 16:04:03 15.6 C 7.31 g/m*3 15.6 C 0 km/h
1040 18-05-2008 16:16:02 15.8 C 7.27 g/m*3 15.8 C 0 km/h
1041 18-05-2008 16:28:02 15.6 C 6.92 g/m*3 15.6 C 0 km/h
1042 18-05-2008 16:40:02 16.1 C 7.13 g/m*3 16.1 C 0 km/h
1043 18-05-2008 16:52:01 15.9 C 6.91 g/m*3 15.9 C 0 km/h
1044 18-05-2008 17:04:02 15.8 C 6.87 g/m*3 15.8 C 0 km/h
1045 18-05-2008 17:16:01 15.3 C 6.79 g/m*3 15.3 C 0 km/h
1046 18-05-2008 17:28:01 15.2 C 7.01 g/m*3 15.2 C 0 km/h
1047 18-05-2008 17:40:01 15 C 6.67 g/m*3 15 C 0 km/h
1048 18-05-2008 17:52:01 15 C 6.8 g/m*3 15 C 0 km/h
1049 18-05-2008 18:04:02 14.9 C 6.63 g/m*3 14.9 C 0 km/h
1050 18-05-2008 18:16:01 14.7 C 6.67 g/m*3 14.7 C 0 km/h
Sensor: Nr:Datum:Temp:Abs-Feuchte:Windchill:Wind:
Aussen-T/F 1051 18-05-2008 18:28:01 14.6 C 6.63 g/m*3 14.6 C 0 km/h
1052 18-05-2008 18:40:02 14.9 C 6.75 g/m*3 14.9 C 0 km/h
1053 18-05-2008 18:52:03 15.2 C 6.62 g/m*3 15.2 C 0 km/h
1054 18-05-2008 19:04:02 15.2 C 6.49 g/m*3 15.2 C 0 km/h
1055 18-05-2008 19:16:02 14.8 C 6.46 g/m*3 14.8 C 0 km/h
1056 18-05-2008 19:28:02 14.9 C 6.63 g/m*3 14.9 C 0 km/h
1057 18-05-2008 19:40:02 14.8 C 6.33 g/m*3 14.8 C 0 km/h
1058 18-05-2008 19:52:03 14.8 C 6.21 g/m*3 14.8 C 0 km/h
1059 18-05-2008 20:04:02 14.8 C 6.08 g/m*3 14.8 C 0 km/h
1060 18-05-2008 20:16:02 14.7 C 6.17 g/m*3 14.7 C 0 km/h
1061 18-05-2008 20:28:02 14.6 C 6.13 g/m*3 14.6 C 0 km/h
1062 18-05-2008 20:40:02 14.4 C 6.3 g/m*3 14.4 C 0 km/h
1063 18-05-2008 20:52:02 14.1 C 6.19 g/m*3 14.1 C 0 km/h
1064 18-05-2008 21:04:02 14.1 C 6.31 g/m*3 14.1 C 0 km/h
1065 18-05-2008 21:16:02 13.9 C 6.35 g/m*3 13.9 C 0 km/h
1066 18-05-2008 21:28:02 13.8 C 6.31 g/m*3 13.8 C 0 km/h
1067 18-05-2008 21:40:02 13.6 C 6.12 g/m*3 13.6 C 0 km/h
1068 18-05-2008 21:52:02 13.5 C 6.2 g/m*3 13.5 C 0 km/h
1069 18-05-2008 22:04:02 13.4 C 6.16 g/m*3 13.4 C 0 km/h
1070 18-05-2008 22:16:02 13.4 C 6.28 g/m*3 13.4 C 0 km/h
1071 18-05-2008 22:28:02 13.4 C 6.39 g/m*3 13.4 C 0 km/h
1072 18-05-2008 22:40:01 13.2 C 6.43 g/m*3 13.2 C 0 km/h
1073 18-05-2008 22:53:02 13.2 C 6.43 g/m*3 13.2 C 0 km/h
1074 18-05-2008 23:05:02 13.1 C 6.5 g/m*3 13.1 C 0 km/h
1075 18-05-2008 23:17:02 13 C 6.58 g/m*3 13 C 0 km/h
Sensor: Nr:Datum:Temp:Abs-Feuchte:Windchill:Wind:
Aussen-T/F 1076 18-05-2008 23:29:02 12.8 C 6.72 g/m*3 12.8 C 0 km/h
1077 18-05-2008 23:41:02 12.8 C 6.83 g/m*3 12.8 C 0 km/h
1078 18-05-2008 23:53:02 12.7 C 6.68 g/m*3 12.7 C 0 km/h
1079 19-05-2008 00:05:02 12.7 C 6.57 g/m*3 12.7 C 0 km/h
1080 19-05-2008 00:17:02 12.6 C 6.64 g/m*3 12.6 C 0 km/h
1081 19-05-2008 00:29:02 12.4 C 6.66 g/m*3 12.4 C 0 km/h
1082 19-05-2008 00:41:02 12.2 C 6.58 g/m*3 12.2 C 0 km/h
1083 19-05-2008 00:53:02 12.2 C 6.69 g/m*3 12.2 C 0 km/h
1084 19-05-2008 01:05:02 12.2 C 6.8 g/m*3 12.2 C 0 km/h
1085 19-05-2008 01:17:02 11.9 C 6.67 g/m*3 11.9 C 0 km/h
1086 19-05-2008 01:29:02 11.8 C 6.74 g/m*3 11.8 C 0 km/h
1087 19-05-2008 01:41:03 11.8 C 6.74 g/m*3 11.8 C 0 km/h
1088 19-05-2008 01:53:03 11.8 C 6.74 g/m*3 11.8 C 0 km/h
1089 19-05-2008 02:05:03 11.7 C 6.69 g/m*3 11.7 C 0 km/h
1090 19-05-2008 02:17:03 11.5 C 6.61 g/m*3 11.5 C 0 km/h
1091 19-05-2008 02:29:03 11.5 C 6.71 g/m*3 11.5 C 0 km/h
1092 19-05-2008 02:41:03 11.5 C 6.82 g/m*3 11.5 C 0 km/h
1093 19-05-2008 02:53:03 11.4 C 6.67 g/m*3 11.4 C 0 km/h
1094 19-05-2008 03:05:03 11.5 C 6.71 g/m*3 11.5 C 0 km/h
1095 19-05-2008 03:17:03 11.4 C 6.77 g/m*3 11.4 C 0 km/h
1096 19-05-2008 03:29:03 11.3 C 6.73 g/m*3 11.3 C 0 km/h
1097 19-05-2008 03:41:03 11.2 C 6.79 g/m*3 11.2 C 0 km/h
1098 19-05-2008 03:53:03 11.1 C 6.75 g/m*3 11.1 C 0 km/h
1099 19-05-2008 04:05:03 10.9 C 6.66 g/m*3 10.9 C 0 km/h
1100 19-05-2008 04:17:03 10.7 C 6.68 g/m*3 10.7 C 0 km/h
Sensor: Nr:Datum:Temp:Abs-Feuchte:Windchill:Wind:
Aussen-T/F 1101 19-05-2008 04:29:03 10.6 C 6.64 g/m*3 10.6 C 0 km/h
1102 19-05-2008 04:41:03 10.4 C 6.55 g/m*3 10.4 C 0 km/h
1103 19-05-2008 04:53:03 10.2 C 6.57 g/m*3 10.2 C 0 km/h
1104 19-05-2008 05:05:03 10 C 6.48 g/m*3 10 C 0 km/h
1105 19-05-2008 05:17:03 10.1 C 6.43 g/m*3 10.1 C 0 km/h
1106 19-05-2008 05:29:03 10.1 C 6.52 g/m*3 10.1 C 0 km/h
1107 19-05-2008 05:41:04 10.1 C 6.52 g/m*3 10.1 C 0 km/h
1108 19-05-2008 05:53:04 10.1 C 6.43 g/m*3 10.1 C 0 km/h
1109 19-05-2008 06:05:04 10.1 C 6.43 g/m*3 10.1 C 0 km/h
1110 19-05-2008 06:17:04 10.1 C 6.52 g/m*3 10.1 C 0 km/h
1111 19-05-2008 06:29:04 10.3 C 6.51 g/m*3 10.3 C 0 km/h
1112 19-05-2008 06:41:04 10.5 C 6.6 g/m*3 10.5 C 0 km/h
1113 19-05-2008 06:53:04 10.5 C 6.6 g/m*3 10.5 C 0 km/h
1114 19-05-2008 07:05:04 11 C 6.71 g/m*3 11 C 0 km/h
1115 19-05-2008 07:17:04 11.3 C 6.43 g/m*3 11.3 C 0 km/h
1116 19-05-2008 07:29:04 11.5 C 6.4 g/m*3 11.5 C 0 km/h
1117 19-05-2008 07:41:02 11.8 C 6.53 g/m*3 11.8 C 0 km/h
1118 19-05-2008 07:53:02 11.8 C 6.42 g/m*3 11.8 C 0 km/h
1119 19-05-2008 08:05:02 11.6 C 6.24 g/m*3 11.6 C 0 km/h
1120 19-05-2008 08:17:02 11.4 C 6.16 g/m*3 11.4 C 0 km/h
1121 19-05-2008 08:29:02 11.5 C 5.78 g/m*3 11.5 C 0 km/h
1122 19-05-2008 08:41:01 11.8 C 5.68 g/m*3 11.8 C 0 km/h
1123 19-05-2008 08:53:01 12.1 C 5.79 g/m*3 12.1 C 0 km/h
1124 19-05-2008 09:05:02 12.4 C 5.68 g/m*3 12.4 C 0 km/h
1125 19-05-2008 09:17:02 12.6 C 5.53 g/m*3 12.6 C 0 km/h
Sensor: Nr:Datum:Temp:Abs-Feuchte:Windchill:Wind:
Aussen-T/F 1126 19-05-2008 09:29:02 13 C 5.67 g/m*3 13 C 0 km/h
1127 19-05-2008 09:41:01 12.9 C 5.64 g/m*3 12.9 C 0 km/h
1128 19-05-2008 09:53:01 13.8 C 5.72 g/m*3 13.8 C 0 km/h
1129 19-05-2008 10:05:02 14.2 C 5.49 g/m*3 14.2 C 0 km/h
1130 19-05-2008 10:17:02 14.6 C 5.38 g/m*3 14.6 C 0 km/h
1131 19-05-2008 10:29:02 15.2 C 5.58 g/m*3 15.2 C 0 km/h
1132 19-05-2008 10:41:01 14.7 C 5.16 g/m*3 14.7 C 0 km/h
1133 19-05-2008 10:53:02 15.4 C 5.39 g/m*3 15.4 C 0 km/h
1134 19-05-2008 11:05:03 16.5 C 5.34 g/m*3 16.5 C 0 km/h
1135 19-05-2008 11:17:02 15.7 C 5.35 g/m*3 15.7 C 0 km/h
1136 19-05-2008 11:29:02 15.4 C 5.26 g/m*3 15.4 C 0 km/h
1137 19-05-2008 11:41:03 15.9 C 5.42 g/m*3 15.9 C 0 km/h
1138 19-05-2008 11:53:02 16.5 C 4.91 g/m*3 16.5 C 0 km/h
1139 19-05-2008 12:05:01 16.4 C 4.89 g/m*3 16.4 C 0 km/h
1140 19-05-2008 12:17:01 17.2 C 4.69 g/m*3 17.2 C 0 km/h
1141 19-05-2008 12:29:01 17.4 C 4.74 g/m*3 17.4 C 0 km/h
1142 19-05-2008 12:41:02 18.4 C 4.72 g/m*3 18.4 C 0 km/h
1143 19-05-2008 12:53:02 18.5 C 4.75 g/m*3 18.5 C 0 km/h
1144 19-05-2008 13:05:02 17.8 C 5.01 g/m*3 17.8 C 0 km/h
1145 19-05-2008 13:17:03 18 C 4.45 g/m*3 18 C 0 km/h
1146 19-05-2008 13:29:03 18.2 C 4.82 g/m*3 18.2 C 0 km/h
1147 19-05-2008 13:41:02 19 C 4.4 g/m*3 19 C 0 km/h
1148 19-05-2008 13:53:02 18.8 C 4.19 g/m*3 18.8 C 0 km/h
1149 19-05-2008 14:05:01 19.9 C 4.47 g/m*3 19.9 C 0 km/h
1150 19-05-2008 14:17:02 18.4 C 4.25 g/m*3 18.4 C 0 km/h
Sensor: Nr:Datum:Temp:Abs-Feuchte:Windchill:Wind:
Aussen-T/F 1151 19-05-2008 14:29:02 17.4 C 4.15 g/m*3 17.4 C 0 km/h
1152 19-05-2008 14:41:02 17.6 C 4.5 g/m*3 17.6 C 0 km/h
1153 19-05-2008 14:53:03 18 C 4.3 g/m*3 18 C 0 km/h
1154 19-05-2008 15:05:02 18.9 C 4.37 g/m*3 18.9 C 0 km/h
1155 19-05-2008 15:17:02 18.4 C 3.93 g/m*3 18.4 C 0 km/h
1156 19-05-2008 15:29:02 20.4 C 4.42 g/m*3 20.4 C 0 km/h
1157 19-05-2008 15:41:03 20.3 C 3.87 g/m*3 20.3 C 0 km/h
1158 19-05-2008 15:53:02 20.2 C 4.37 g/m*3 20.2 C 0 km/h
1159 19-05-2008 16:05:02 19.6 C 3.88 g/m*3 19.6 C 0 km/h
1160 19-05-2008 16:17:02 19.6 C 4.22 g/m*3 19.6 C 0 km/h
1161 19-05-2008 16:29:02 19.9 C 4.3 g/m*3 19.9 C 0 km/h
1162 19-05-2008 16:41:02 19.3 C 3.81 g/m*3 19.3 C 0 km/h
1163 19-05-2008 16:53:02 18.9 C 4.05 g/m*3 18.9 C 0 km/h
1164 19-05-2008 17:05:02 19.2 C 4.12 g/m*3 19.2 C 0 km/h
1165 19-05-2008 17:17:01 19.1 C 3.93 g/m*3 19.1 C 0 km/h
1166 19-05-2008 17:29:01 19.4 C 4.17 g/m*3 19.4 C 0 km/h
1167 19-05-2008 17:41:02 18.3 C 3.91 g/m*3 18.3 C 0 km/h
1168 19-05-2008 17:53:02 19 C 4.07 g/m*3 19 C 0 km/h
1169 19-05-2008 18:05:02 19.5 C 3.86 g/m*3 19.5 C 0 km/h
1170 19-05-2008 18:17:02 18.4 C 3.93 g/m*3 18.4 C 0 km/h
1171 19-05-2008 18:29:02 17.5 C 4.17 g/m*3 17.5 C 0 km/h
1172 19-05-2008 18:41:02 17.2 C 4.39 g/m*3 17.2 C 0 km/h
1173 19-05-2008 18:53:01 17.3 C 4.42 g/m*3 17.3 C 0 km/h
1174 19-05-2008 19:05:02 17.3 C 4.42 g/m*3 17.3 C 0 km/h
1175 19-05-2008 19:17:02 17.3 C 4.27 g/m*3 17.3 C 0 km/h
Sensor: Nr:Datum:Temp:Abs-Feuchte:Windchill:Wind:
Aussen-T/F 1176 19-05-2008 19:29:02 17.2 C 4.39 g/m*3 17.2 C 0 km/h
1177 19-05-2008 19:41:02 16.6 C 4.38 g/m*3 16.6 C 0 km/h
1178 19-05-2008 19:53:02 16.5 C 4.49 g/m*3 16.5 C 0 km/h
1179 19-05-2008 20:05:02 16.2 C 4.41 g/m*3 16.2 C 0 km/h
1180 19-05-2008 20:17:03 15.9 C 4.33 g/m*3 15.9 C 0 km/h
1181 19-05-2008 20:29:03 15.8 C 4.44 g/m*3 15.8 C 0 km/h
1182 19-05-2008 20:41:02 15.5 C 4.49 g/m*3 15.5 C 0 km/h
1183 19-05-2008 20:53:02 15.4 C 4.47 g/m*3 15.4 C 0 km/h
1184 19-05-2008 21:05:01 15.2 C 4.54 g/m*3 15.2 C 0 km/h
1185 19-05-2008 21:17:02 15 C 4.62 g/m*3 15 C 0 km/h
1186 19-05-2008 21:29:02 14.9 C 4.72 g/m*3 14.9 C 0 km/h
1187 19-05-2008 21:41:01 14.7 C 4.66 g/m*3 14.7 C 0 km/h
1188 19-05-2008 21:53:02 14.6 C 4.63 g/m*3 14.6 C 0 km/h
1189 19-05-2008 22:05:02 14.5 C 4.48 g/m*3 14.5 C 0 km/h
1190 19-05-2008 22:17:02 14.5 C 4.6 g/m*3 14.5 C 0 km/h
1191 19-05-2008 22:29:03 14.4 C 4.7 g/m*3 14.4 C 0 km/h
1192 19-05-2008 22:41:02 14.2 C 4.52 g/m*3 14.2 C 0 km/h
1193 19-05-2008 22:54:03 13.9 C 4.44 g/m*3 13.9 C 0 km/h
1194 19-05-2008 23:06:03 14 C 4.34 g/m*3 14 C 0 km/h
1195 19-05-2008 23:18:03 13.8 C 4.41 g/m*3 13.8 C 0 km/h
1196 19-05-2008 23:30:03 13.6 C 4.47 g/m*3 13.6 C 0 km/h
1197 19-05-2008 23:42:03 13.5 C 4.44 g/m*3 13.5 C 0 km/h
1198 19-05-2008 23:54:03 13.3 C 4.51 g/m*3 13.3 C 0 km/h
1199 20-05-2008 00:06:04 13.2 C 4.48 g/m*3 13.2 C 0 km/h
1200 20-05-2008 00:18:04 13.1 C 4.45 g/m*3 13.1 C 0 km/h
Sensor: Nr:Datum:Temp:Abs-Feuchte:Windchill:Wind:
Aussen-T/F 1201 20-05-2008 00:30:04 13 C 4.54 g/m*3 13 C 0 km/h
1202 20-05-2008 00:42:04 12.8 C 4.7 g/m*3 12.8 C 0 km/h
1203 20-05-2008 00:54:04 12.6 C 4.65 g/m*3 12.6 C 0 km/h
1204 20-05-2008 01:06:04 12.4 C 4.7 g/m*3 12.4 C 0 km/h
1205 20-05-2008 01:18:04 12 C 4.8 g/m*3 12 C 0 km/h
1206 20-05-2008 01:30:04 11.5 C 4.75 g/m*3 11.5 C 0 km/h
1207 20-05-2008 01:42:04 11 C 4.7 g/m*3 11 C 0 km/h
1208 20-05-2008 01:54:04 10.5 C 4.85 g/m*3 10.5 C 0 km/h
1209 20-05-2008 02:06:04 10.3 C 4.88 g/m*3 10.3 C 0 km/h
1210 20-05-2008 02:18:04 10.3 C 4.88 g/m*3 10.3 C 0 km/h
1211 20-05-2008 02:30:04 10.4 C 4.92 g/m*3 10.4 C 0 km/h
1212 20-05-2008 02:42:04 10.3 C 4.88 g/m*3 10.3 C 0 km/h
1213 20-05-2008 02:54:04 10.3 C 4.88 g/m*3 10.3 C 0 km/h
1214 20-05-2008 03:06:04 10.3 C 4.88 g/m*3 10.3 C 0 km/h
1215 20-05-2008 03:18:04 10.4 C 5.01 g/m*3 10.4 C 0 km/h
1216 20-05-2008 03:30:04 10.4 C 4.92 g/m*3 10.4 C 0 km/h
1217 20-05-2008 03:42:04 10.4 C 5.01 g/m*3 10.4 C 0 km/h
1218 20-05-2008 03:54:04 10.4 C 5.01 g/m*3 10.4 C 0 km/h
1219 20-05-2008 04:06:05 10.4 C 5.01 g/m*3 10.4 C 0 km/h
1220 20-05-2008 04:18:05 10.5 C 5.04 g/m*3 10.5 C 0 km/h
1221 20-05-2008 04:30:05 10.6 C 5.17 g/m*3 10.6 C 0 km/h
1222 20-05-2008 04:42:05 10.5 C 5.14 g/m*3 10.5 C 0 km/h
1223 20-05-2008 04:54:05 10.4 C 5.2 g/m*3 10.4 C 0 km/h
1224 20-05-2008 05:06:05 10.4 C 5.2 g/m*3 10.4 C 0 km/h
1225 20-05-2008 05:18:05 10.4 C 5.2 g/m*3 10.4 C 0 km/h
Sensor: Nr:Datum:Temp:Abs-Feuchte:Windchill:Wind:
Aussen-T/F 1226 20-05-2008 05:30:05 10.3 C 5.27 g/m*3 10.3 C 0 km/h
1227 20-05-2008 05:42:05 10.1 C 5.2 g/m*3 10.1 C 0 km/h
1228 20-05-2008 05:54:05 10.1 C 5.3 g/m*3 10.1 C 0 km/h
1229 20-05-2008 06:06:05 10.1 C 5.39 g/m*3 10.1 C 0 km/h
1230 20-05-2008 06:18:05 10.2 C 5.33 g/m*3 10.2 C 0 km/h
1231 20-05-2008 06:30:05 10.5 C 5.43 g/m*3 10.5 C 0 km/h
1232 20-05-2008 06:42:03 10.5 C 5.33 g/m*3 10.5 C 0 km/h
1233 20-05-2008 06:54:02 10.8 C 5.44 g/m*3 10.8 C 0 km/h
1234 20-05-2008 07:06:01 10.8 C 5.44 g/m*3 10.8 C 0 km/h
1235 20-05-2008 07:18:02 11.1 C 5.44 g/m*3 11.1 C 0 km/h
1236 20-05-2008 07:30:02 11.2 C 5.47 g/m*3 11.2 C 0 km/h
1237 20-05-2008 07:42:01 11.6 C 5.61 g/m*3 11.6 C 0 km/h
1238 20-05-2008 07:54:02 11.9 C 5.51 g/m*3 11.9 C 0 km/h
1239 20-05-2008 08:06:02 12.1 C 5.58 g/m*3 12.1 C 0 km/h
1240 20-05-2008 08:18:02 12.4 C 5.57 g/m*3 12.4 C 0 km/h
1241 20-05-2008 08:30:02 12.9 C 5.64 g/m*3 12.9 C 0 km/h
1242 20-05-2008 08:42:02 13.1 C 5.48 g/m*3 13.1 C 0 km/h
1243 20-05-2008 08:54:01 13.5 C 5.5 g/m*3 13.5 C 0 km/h
1244 20-05-2008 09:06:02 13.7 C 5.33 g/m*3 13.7 C 0 km/h
1245 20-05-2008 09:18:01 14.1 C 5.22 g/m*3 14.1 C 0 km/h
1246 20-05-2008 09:30:01 14.4 C 5.19 g/m*3 14.4 C 0 km/h
1247 20-05-2008 09:42:02 14.7 C 5.29 g/m*3 14.7 C 0 km/h
1248 20-05-2008 09:54:02 14.7 C 5.16 g/m*3 14.7 C 0 km/h
1249 20-05-2008 10:06:02 15.6 C 5.32 g/m*3 15.6 C 0 km/h
1250 20-05-2008 10:18:02 15.9 C 5.01 g/m*3 15.9 C 0 km/h
Sensor: Nr:Datum:Temp:Abs-Feuchte:Windchill:Wind:
Aussen-T/F 1251 20-05-2008 10:30:02 15.9 C 5.01 g/m*3 15.9 C 0 km/h
1252 20-05-2008 10:42:02 16.2 C 5.1 g/m*3 16.2 C 0 km/h
1253 20-05-2008 10:54:02 16.9 C 5.18 g/m*3 16.9 C 0 km/h
1254 20-05-2008 11:06:01 17.4 C 5.04 g/m*3 17.4 C 0 km/h
1255 20-05-2008 11:18:02 17.6 C 5.1 g/m*3 17.6 C 0 km/h
1256 20-05-2008 11:30:02 17.1 C 5.09 g/m*3 17.1 C 0 km/h
1257 20-05-2008 11:42:01 17.8 C 5.16 g/m*3 17.8 C 0 km/h
1258 20-05-2008 11:54:02 18.3 C 5 g/m*3 18.3 C 0 km/h
1259 20-05-2008 12:06:02 19.6 C 5.06 g/m*3 19.6 C 0 km/h
1260 20-05-2008 12:18:02 18.1 C 4.94 g/m*3 18.1 C 0 km/h
1261 20-05-2008 12:30:02 20.3 C 4.75 g/m*3 20.3 C 0 km/h
1262 20-05-2008 12:42:02 20.4 C 3.71 g/m*3 20.4 C 0 km/h
1263 20-05-2008 12:54:02 20 C 3.46 g/m*3 20 C 0 km/h
1264 20-05-2008 13:06:02 20.2 C 3.85 g/m*3 20.2 C 0 km/h
1265 20-05-2008 13:18:02 20.1 C 4.52 g/m*3 20.1 C 0 km/h
1266 20-05-2008 13:30:03 19.6 C 3.88 g/m*3 19.6 C 0 km/h
1267 20-05-2008 13:42:02 19.6 C 4.22 g/m*3 19.6 C 0 km/h
1268 20-05-2008 13:54:02 20.2 C 3.67 g/m*3 20.2 C 0 km/h
1269 20-05-2008 14:06:02 20.4 C 3.71 g/m*3 20.4 C 0 km/h
1270 20-05-2008 14:18:02 20.3 C 3.87 g/m*3 20.3 C 0 km/h
1271 20-05-2008 14:30:02 20.7 C 3.78 g/m*3 20.7 C 0 km/h
1272 20-05-2008 14:42:01 21.2 C 3.71 g/m*3 21.2 C 0 km/h
1273 20-05-2008 14:54:02 20.6 C 3.58 g/m*3 20.6 C 0 km/h
1274 20-05-2008 15:06:02 20.4 C 3.54 g/m*3 20.4 C 0 km/h
1275 20-05-2008 15:18:01 20.9 C 3.64 g/m*3 20.9 C 0 km/h
Sensor: Nr:Datum:Temp:Abs-Feuchte:Windchill:Wind:
Aussen-T/F 1276 20-05-2008 15:30:01 21.1 C 3.69 g/m*3 21.1 C 0 km/h
1277 20-05-2008 15:42:02 22.9 C 4.09 g/m*3 22.9 C 0 km/h
1278 20-05-2008 15:54:02 21.8 C 3.84 g/m*3 21.8 C 0 km/h
1279 20-05-2008 16:06:01 22.6 C 4.02 g/m*3 22.6 C 0 km/h
1280 20-05-2008 16:18:01 23.5 C 4.23 g/m*3 23.5 C 0 km/h
1281 20-05-2008 16:30:01 21.8 C 3.84 g/m*3 21.8 C 0 km/h
1282 20-05-2008 16:42:01 22.8 C 4.06 g/m*3 22.8 C 0 km/h
1283 20-05-2008 16:54:02 20.9 C 3.64 g/m*3 20.9 C 0 km/h
1284 20-05-2008 17:06:02 22.2 C 3.93 g/m*3 22.2 C 0 km/h
1285 20-05-2008 17:18:02 22.8 C 4.06 g/m*3 22.8 C 0 km/h
1286 20-05-2008 17:30:02 21 C 3.66 g/m*3 21 C 0 km/h
1287 20-05-2008 17:42:02 21.1 C 3.69 g/m*3 21.1 C 0 km/h
1288 20-05-2008 17:54:02 20.1 C 3.48 g/m*3 20.1 C 0 km/h
1289 20-05-2008 18:06:02 20 C 3.63 g/m*3 20 C 0 km/h
1290 20-05-2008 18:18:01 19.7 C 3.91 g/m*3 19.7 C 0 km/h
1291 20-05-2008 18:30:01 19.7 C 3.91 g/m*3 19.7 C 0 km/h
1292 20-05-2008 18:42:01 19.8 C 3.76 g/m*3 19.8 C 0 km/h
1293 20-05-2008 18:54:02 19.2 C 3.96 g/m*3 19.2 C 0 km/h
1294 20-05-2008 19:06:02 19.4 C 3.84 g/m*3 19.4 C 0 km/h
1295 20-05-2008 19:18:02 19 C 3.91 g/m*3 19 C 0 km/h
1296 20-05-2008 19:30:02 18.5 C 4.11 g/m*3 18.5 C 0 km/h
1297 20-05-2008 19:42:03 18.3 C 4.07 g/m*3 18.3 C 0 km/h
1298 20-05-2008 19:54:02 18.1 C 4.17 g/m*3 18.1 C 0 km/h
1299 20-05-2008 20:06:02 17.7 C 4.38 g/m*3 17.7 C 0 km/h
1300 20-05-2008 20:18:02 17.4 C 4.45 g/m*3 17.4 C 0 km/h
Sensor: Nr:Datum:Temp:Abs-Feuchte:Windchill:Wind:
Aussen-T/F 1301 20-05-2008 20:30:02 17.2 C 4.54 g/m*3 17.2 C 0 km/h
1302 20-05-2008 20:42:02 16.9 C 4.46 g/m*3 16.9 C 0 km/h
1303 20-05-2008 20:54:02 16.8 C 4.43 g/m*3 16.8 C 0 km/h
1304 20-05-2008 21:06:01 16.5 C 4.63 g/m*3 16.5 C 0 km/h
1305 20-05-2008 21:18:02 16.3 C 4.58 g/m*3 16.3 C 0 km/h
1306 20-05-2008 21:30:02 16.2 C 4.69 g/m*3 16.2 C 0 km/h
1307 20-05-2008 21:42:02 15.7 C 4.68 g/m*3 15.7 C 0 km/h
1308 20-05-2008 21:54:02 15.4 C 4.6 g/m*3 15.4 C 0 km/h
1309 20-05-2008 22:06:01 15.2 C 4.54 g/m*3 15.2 C 0 km/h
1310 20-05-2008 22:18:02 15 C 4.62 g/m*3 15 C 0 km/h
1311 20-05-2008 22:30:02 14.7 C 4.66 g/m*3 14.7 C 0 km/h
1312 20-05-2008 22:42:02 14.5 C 4.73 g/m*3 14.5 C 0 km/h
1313 20-05-2008 22:54:02 14.6 C 4.76 g/m*3 14.6 C 0 km/h
1314 20-05-2008 23:07:01 14.4 C 4.7 g/m*3 14.4 C 0 km/h
1315 20-05-2008 23:19:01 14.4 C 4.82 g/m*3 14.4 C 0 km/h
1316 20-05-2008 23:31:02 14 C 4.82 g/m*3 14 C 0 km/h
1317 20-05-2008 23:43:02 13.7 C 4.86 g/m*3 13.7 C 0 km/h
1318 20-05-2008 23:55:02 13.5 C 4.8 g/m*3 13.5 C 0 km/h
1319 21-05-2008 00:07:02 13.2 C 4.82 g/m*3 13.2 C 0 km/h
1320 21-05-2008 00:19:02 12.9 C 4.85 g/m*3 12.9 C 0 km/h
1321 21-05-2008 00:31:02 12.7 C 4.9 g/m*3 12.7 C 0 km/h
1322 21-05-2008 00:43:02 12.3 C 4.89 g/m*3 12.3 C 0 km/h
1323 21-05-2008 00:55:02 12.1 C 4.93 g/m*3 12.1 C 0 km/h
1324 21-05-2008 01:07:02 12 C 5.01 g/m*3 12 C 0 km/h
1325 21-05-2008 01:19:02 11.9 C 5.08 g/m*3 11.9 C 0 km/h
Sensor: Nr:Datum:Temp:Abs-Feuchte:Windchill:Wind:
Aussen-T/F 1326 21-05-2008 01:31:02 11.9 C 5.08 g/m*3 11.9 C 0 km/h
1327 21-05-2008 01:43:02 11.9 C 5.19 g/m*3 11.9 C 0 km/h
1328 21-05-2008 01:55:02 11.8 C 5.26 g/m*3 11.8 C 0 km/h
1329 21-05-2008 02:07:02 11.6 C 5.2 g/m*3 11.6 C 0 km/h
1330 21-05-2008 02:19:02 11.6 C 5.2 g/m*3 11.6 C 0 km/h
1331 21-05-2008 02:31:02 11.6 C 5.3 g/m*3 11.6 C 0 km/h
1332 21-05-2008 02:43:02 11.6 C 5.3 g/m*3 11.6 C 0 km/h
1333 21-05-2008 02:55:02 11.4 C 5.23 g/m*3 11.4 C 0 km/h
1334 21-05-2008 03:07:02 11.5 C 5.27 g/m*3 11.5 C 0 km/h
1335 21-05-2008 03:19:02 11.5 C 5.27 g/m*3 11.5 C 0 km/h
1336 21-05-2008 03:31:03 11.5 C 5.27 g/m*3 11.5 C 0 km/h
1337 21-05-2008 03:43:03 11.7 C 5.23 g/m*3 11.7 C 0 km/h
1338 21-05-2008 03:55:03 11.8 C 5.16 g/m*3 11.8 C 0 km/h
1339 21-05-2008 04:07:03 12.1 C 4.83 g/m*3 12.1 C 0 km/h
1340 21-05-2008 04:19:03 12.1 C 5.04 g/m*3 12.1 C 0 km/h
1341 21-05-2008 04:31:03 12.1 C 4.83 g/m*3 12.1 C 0 km/h
1342 21-05-2008 04:43:03 12.1 C 4.72 g/m*3 12.1 C 0 km/h
1343 21-05-2008 04:55:03 12.2 C 4.75 g/m*3 12.2 C 0 km/h
1344 21-05-2008 05:07:03 12.3 C 4.67 g/m*3 12.3 C 0 km/h
1345 21-05-2008 05:19:03 12.4 C 4.7 g/m*3 12.4 C 0 km/h
1346 21-05-2008 05:31:03 12.2 C 4.75 g/m*3 12.2 C 0 km/h
1347 21-05-2008 05:43:03 12.3 C 4.78 g/m*3 12.3 C 0 km/h
1348 21-05-2008 05:55:03 12.3 C 4.78 g/m*3 12.3 C 0 km/h
1349 21-05-2008 06:07:03 12.3 C 4.78 g/m*3 12.3 C 0 km/h
1350 21-05-2008 06:19:03 12.4 C 4.81 g/m*3 12.4 C 0 km/h
Sensor: Nr:Datum:Temp:Abs-Feuchte:Windchill:Wind:
Aussen-T/F 1351 21-05-2008 06:31:03 12.5 C 4.73 g/m*3 12.5 C 0 km/h
1352 21-05-2008 06:43:03 12.6 C 4.76 g/m*3 12.6 C 0 km/h
1353 21-05-2008 06:55:03 12.8 C 4.82 g/m*3 12.8 C 0 km/h
1354 21-05-2008 07:07:01 13 C 4.54 g/m*3 13 C 0 km/h
1355 21-05-2008 07:19:02 13.1 C 4.79 g/m*3 13.1 C 0 km/h
1356 21-05-2008 07:31:01 13.3 C 4.74 g/m*3 13.3 C 0 km/h
1357 21-05-2008 07:43:01 13.5 C 4.68 g/m*3 13.5 C 0 km/h
1358 21-05-2008 07:55:02 13.6 C 4.71 g/m*3 13.6 C 0 km/h
1359 21-05-2008 08:07:01 13.9 C 4.68 g/m*3 13.9 C 0 km/h
1360 21-05-2008 08:19:02 14 C 4.58 g/m*3 14 C 0 km/h
1361 21-05-2008 08:31:01 14.2 C 4.64 g/m*3 14.2 C 0 km/h
1362 21-05-2008 08:43:01 14.4 C 4.57 g/m*3 14.4 C 0 km/h
1363 21-05-2008 08:55:02 14.6 C 4.63 g/m*3 14.6 C 0 km/h
1364 21-05-2008 09:07:02 15.2 C 4.67 g/m*3 15.2 C 0 km/h
1365 21-05-2008 09:19:02 15.6 C 4.79 g/m*3 15.6 C 0 km/h
1366 21-05-2008 09:31:01 15.8 C 4.71 g/m*3 15.8 C 0 km/h
1367 21-05-2008 09:43:01 16.1 C 4.66 g/m*3 16.1 C 0 km/h
1368 21-05-2008 09:55:01 16.6 C 4.8 g/m*3 16.6 C 0 km/h
1369 21-05-2008 10:07:02 17.3 C 4.86 g/m*3 17.3 C 0 km/h
1370 21-05-2008 10:19:01 17.5 C 4.77 g/m*3 17.5 C 0 km/h
1371 21-05-2008 10:31:02 17.9 C 4.73 g/m*3 17.9 C 0 km/h
1372 21-05-2008 10:43:02 18.3 C 4.69 g/m*3 18.3 C 0 km/h
1373 21-05-2008 10:55:02 18.3 C 4.53 g/m*3 18.3 C 0 km/h
1374 21-05-2008 11:07:01 18.2 C 4.51 g/m*3 18.2 C 0 km/h
1375 21-05-2008 11:19:01 18.7 C 4.64 g/m*3 18.7 C 0 km/h
Sensor: Nr:Datum:Temp:Abs-Feuchte:Windchill:Wind:
Aussen-T/F 1376 21-05-2008 11:31:01 19.6 C 4.56 g/m*3 19.6 C 0 km/h
1377 21-05-2008 11:43:01 19.5 C 4.7 g/m*3 19.5 C 0 km/h
1378 21-05-2008 11:55:02 19.6 C 4.22 g/m*3 19.6 C 0 km/h
1379 21-05-2008 12:07:02 20.6 C 4.47 g/m*3 20.6 C 0 km/h
1380 21-05-2008 12:19:02 19.9 C 3.78 g/m*3 19.9 C 0 km/h
1381 21-05-2008 12:31:02 19.6 C 3.55 g/m*3 19.6 C 0 km/h
1382 21-05-2008 12:43:02 20.4 C 3.71 g/m*3 20.4 C 0 km/h
1383 21-05-2008 12:55:02 20.7 C 3.6 g/m*3 20.7 C 0 km/h
1384 21-05-2008 13:07:02 21.8 C 3.84 g/m*3 21.8 C 0 km/h
1385 21-05-2008 13:19:02 21.5 C 3.77 g/m*3 21.5 C 0 km/h
1386 21-05-2008 13:31:02 21 C 3.66 g/m*3 21 C 0 km/h
1387 21-05-2008 13:43:02 21.1 C 3.87 g/m*3 21.1 C 0 km/h
1388 21-05-2008 13:55:02 21.9 C 3.86 g/m*3 21.9 C 0 km/h
1389 21-05-2008 14:07:03 22.7 C 4.04 g/m*3 22.7 C 0 km/h
1390 21-05-2008 14:19:02 22.4 C 3.97 g/m*3 22.4 C 0 km/h
1391 21-05-2008 14:31:02 21.8 C 4.03 g/m*3 21.8 C 0 km/h
1392 21-05-2008 14:43:02 22.9 C 4.09 g/m*3 22.9 C 0 km/h
1393 21-05-2008 14:55:02 23.2 C 4.16 g/m*3 23.2 C 0 km/h
1394 21-05-2008 15:07:02 22.4 C 3.97 g/m*3 22.4 C 0 km/h
1395 21-05-2008 15:19:02 22.1 C 3.9 g/m*3 22.1 C 0 km/h
1396 21-05-2008 15:31:03 21.8 C 3.84 g/m*3 21.8 C 0 km/h
1397 21-05-2008 15:43:03 23.1 C 4.13 g/m*3 23.1 C 0 km/h
1398 21-05-2008 15:55:02 22.1 C 3.9 g/m*3 22.1 C 0 km/h
1399 21-05-2008 16:07:02 22.3 C 3.95 g/m*3 22.3 C 0 km/h
1400 21-05-2008 16:19:02 22.7 C 4.04 g/m*3 22.7 C 0 km/h
Sensor: Nr:Datum:Temp:Abs-Feuchte:Windchill:Wind:
Aussen-T/F 1401 21-05-2008 16:31:02 22.3 C 3.95 g/m*3 22.3 C 0 km/h
1402 21-05-2008 16:43:02 22.8 C 4.06 g/m*3 22.8 C 0 km/h
1403 21-05-2008 16:55:02 22.2 C 3.93 g/m*3 22.2 C 0 km/h
1404 21-05-2008 17:07:01 22.5 C 3.99 g/m*3 22.5 C 0 km/h
1405 21-05-2008 17:19:01 22.8 C 4.06 g/m*3 22.8 C 0 km/h
1406 21-05-2008 17:31:02 22.6 C 4.02 g/m*3 22.6 C 0 km/h
1407 21-05-2008 17:43:02 22.1 C 3.9 g/m*3 22.1 C 0 km/h
1408 21-05-2008 17:55:02 22 C 3.88 g/m*3 22 C 0 km/h
1409 21-05-2008 18:07:02 21.6 C 3.79 g/m*3 21.6 C 0 km/h
1410 21-05-2008 18:19:02 23 C 4.11 g/m*3 23 C 0 km/h
1411 21-05-2008 18:31:02 22 C 3.88 g/m*3 22 C 0 km/h
1412 21-05-2008 18:43:02 21.3 C 3.73 g/m*3 21.3 C 0 km/h
1413 21-05-2008 18:55:02 20.9 C 3.82 g/m*3 20.9 C 0 km/h
1414 21-05-2008 19:07:01 20.5 C 3.74 g/m*3 20.5 C 0 km/h
1415 21-05-2008 19:19:02 20.6 C 3.76 g/m*3 20.6 C 0 km/h
1416 21-05-2008 19:31:02 20.5 C 3.56 g/m*3 20.5 C 0 km/h
1417 21-05-2008 19:43:02 19.7 C 3.91 g/m*3 19.7 C 0 km/h
1418 21-05-2008 19:55:02 19.5 C 4.36 g/m*3 19.5 C 0 km/h
1419 21-05-2008 20:07:01 19.2 C 4.29 g/m*3 19.2 C 0 km/h
1420 21-05-2008 20:19:01 18.7 C 4.16 g/m*3 18.7 C 0 km/h
1421 21-05-2008 20:31:02 18.4 C 4.09 g/m*3 18.4 C 0 km/h
1422 21-05-2008 20:43:02 18 C 4.3 g/m*3 18 C 0 km/h
1423 21-05-2008 20:55:02 17.8 C 4.55 g/m*3 17.8 C 0 km/h
1424 21-05-2008 21:07:02 17.6 C 4.5 g/m*3 17.6 C 0 km/h
1425 21-05-2008 21:19:02 17.5 C 4.62 g/m*3 17.5 C 0 km/h
Sensor: Nr:Datum:Temp:Abs-Feuchte:Windchill:Wind:
Aussen-T/F 1426 21-05-2008 21:31:02 17.3 C 4.42 g/m*3 17.3 C 0 km/h
1427 21-05-2008 21:43:02 17.2 C 4.54 g/m*3 17.2 C 0 km/h
1428 21-05-2008 21:55:02 17.2 C 4.54 g/m*3 17.2 C 0 km/h
1429 21-05-2008 22:07:02 16.8 C 4.58 g/m*3 16.8 C 0 km/h
1430 21-05-2008 22:19:01 16.7 C 4.55 g/m*3 16.7 C 0 km/h
1431 21-05-2008 22:31:02 16.5 C 4.63 g/m*3 16.5 C 0 km/h
1432 21-05-2008 22:43:02 16.3 C 4.72 g/m*3 16.3 C 0 km/h
1433 21-05-2008 22:55:02 16.2 C 4.83 g/m*3 16.2 C 0 km/h
1434 21-05-2008 23:07:01 16.1 C 4.8 g/m*3 16.1 C 0 km/h
1435 21-05-2008 23:19:01 15.9 C 4.88 g/m*3 15.9 C 0 km/h
1436 21-05-2008 23:31:02 15.7 C 4.95 g/m*3 15.7 C 0 km/h
1437 21-05-2008 23:43:02 15.8 C 4.85 g/m*3 15.8 C 0 km/h
1438 21-05-2008 23:56:26 15.8 C 4.98 g/m*3 15.8 C 0 km/h
1439 22-05-2008 00:08:26 15.6 C 4.92 g/m*3 15.6 C 0 km/h
1440 22-05-2008 00:20:26 15.5 C 4.89 g/m*3 15.5 C 0 km/h
1441 22-05-2008 00:32:26 15.5 C 4.89 g/m*3 15.5 C 0 km/h
1442 22-05-2008 00:44:26 15.4 C 4.86 g/m*3 15.4 C 0 km/h
1443 22-05-2008 00:56:26 15.3 C 4.83 g/m*3 15.3 C 0 km/h
1444 22-05-2008 01:08:26 15 C 4.87 g/m*3 15 C 0 km/h
1445 22-05-2008 01:20:26 15 C 4.87 g/m*3 15 C 0 km/h
1446 22-05-2008 01:32:26 15 C 5 g/m*3 15 C 0 km/h
1447 22-05-2008 01:44:26 14.8 C 5.07 g/m*3 14.8 C 0 km/h
1448 22-05-2008 01:56:26 14.8 C 5.07 g/m*3 14.8 C 0 km/h
1449 22-05-2008 02:08:26 14.7 C 5.16 g/m*3 14.7 C 0 km/h
1450 22-05-2008 02:20:27 14.7 C 5.29 g/m*3 14.7 C 0 km/h
Sensor: Nr:Datum:Temp:Abs-Feuchte:Windchill:Wind:
Aussen-T/F 1451 22-05-2008 02:32:27 14.7 C 5.29 g/m*3 14.7 C 0 km/h
1452 22-05-2008 02:44:27 14.5 C 5.22 g/m*3 14.5 C 0 km/h
1453 22-05-2008 02:56:27 14.4 C 5.19 g/m*3 14.4 C 0 km/h
1454 22-05-2008 03:08:27 14.2 C 5.37 g/m*3 14.2 C 0 km/h
1455 22-05-2008 03:20:27 14.1 C 5.34 g/m*3 14.1 C 0 km/h
1456 22-05-2008 03:32:27 14.1 C 5.34 g/m*3 14.1 C 0 km/h
1457 22-05-2008 03:44:27 14 C 5.31 g/m*3 14 C 0 km/h
1458 22-05-2008 03:56:27 14 C 5.43 g/m*3 14 C 0 km/h
1459 22-05-2008 04:08:27 14 C 5.43 g/m*3 14 C 0 km/h
1460 22-05-2008 04:20:27 14 C 5.43 g/m*3 14 C 0 km/h
1461 22-05-2008 04:32:27 13.9 C 5.39 g/m*3 13.9 C 0 km/h
1462 22-05-2008 04:44:27 13.8 C 5.36 g/m*3 13.8 C 0 km/h
1463 22-05-2008 04:56:27 13.8 C 5.48 g/m*3 13.8 C 0 km/h
1464 22-05-2008 05:08:27 13.7 C 5.45 g/m*3 13.7 C 0 km/h
1465 22-05-2008 05:20:27 13.6 C 5.53 g/m*3 13.6 C 0 km/h
1466 22-05-2008 05:32:27 13.7 C 5.57 g/m*3 13.7 C 0 km/h
1467 22-05-2008 05:44:27 13.7 C 5.57 g/m*3 13.7 C 0 km/h
1468 22-05-2008 05:56:27 13.6 C 5.53 g/m*3 13.6 C 0 km/h
1469 22-05-2008 06:08:27 13.5 C 5.5 g/m*3 13.5 C 0 km/h
1470 22-05-2008 06:20:27 13.5 C 5.5 g/m*3 13.5 C 0 km/h
1471 22-05-2008 06:32:28 13.5 C 5.61 g/m*3 13.5 C 0 km/h
1472 22-05-2008 06:44:28 13.7 C 5.8 g/m*3 13.7 C 0 km/h
1473 22-05-2008 06:56:28 13.8 C 5.84 g/m*3 13.8 C 0 km/h
1474 22-05-2008 07:08:03 13.7 C 5.57 g/m*3 13.7 C 0 km/h
1475 22-05-2008 07:20:03 13.8 C 5.72 g/m*3 13.8 C 0 km/h
Sensor: Nr:Datum:Temp:Abs-Feuchte:Windchill:Wind:
Aussen-T/F 1476 22-05-2008 07:32:03 14.1 C 5.83 g/m*3 14.1 C 0 km/h
1477 22-05-2008 07:44:03 14.2 C 5.86 g/m*3 14.2 C 0 km/h
1478 22-05-2008 07:56:02 14.8 C 6.08 g/m*3 14.8 C 0 km/h
1479 22-05-2008 08:08:03 15.2 C 5.71 g/m*3 15.2 C 0 km/h
1480 22-05-2008 08:20:03 15.6 C 5.59 g/m*3 15.6 C 0 km/h
1481 22-05-2008 08:32:03 15.9 C 5.69 g/m*3 15.9 C 0 km/h
1482 22-05-2008 08:44:03 16.2 C 5.65 g/m*3 16.2 C 0 km/h
1483 22-05-2008 08:56:02 16.8 C 5.72 g/m*3 16.8 C 0 km/h
1484 22-05-2008 09:08:03 17.2 C 5.56 g/m*3 17.2 C 0 km/h
1485 22-05-2008 09:20:02 17.7 C 5.73 g/m*3 17.7 C 0 km/h
1486 22-05-2008 09:32:02 17.9 C 5.65 g/m*3 17.9 C 0 km/h
1487 22-05-2008 09:44:02 18.3 C 5.63 g/m*3 18.3 C 0 km/h
1488 22-05-2008 09:56:02 18.7 C 5.76 g/m*3 18.7 C 0 km/h
1489 22-05-2008 10:08:02 18.7 C 5.6 g/m*3 18.7 C 0 km/h
1490 22-05-2008 10:20:03 19.3 C 5.47 g/m*3 19.3 C 0 km/h
1491 22-05-2008 10:32:02 19.7 C 5.43 g/m*3 19.7 C 0 km/h
1492 22-05-2008 10:44:02 20 C 5.36 g/m*3 20 C 0 km/h
1493 22-05-2008 10:56:02 20.2 C 5.42 g/m*3 20.2 C 0 km/h
1494 22-05-2008 11:08:02 20.7 C 5.4 g/m*3 20.7 C 0 km/h
1495 22-05-2008 11:20:01 20.7 C 5.4 g/m*3 20.7 C 0 km/h
1496 22-05-2008 11:32:02 20.3 C 5.28 g/m*3 20.3 C 0 km/h
1497 22-05-2008 11:44:02 20.5 C 5.34 g/m*3 20.5 C 0 km/h
1498 22-05-2008 11:56:02 21.3 C 5.59 g/m*3 21.3 C 0 km/h
1499 22-05-2008 12:08:02 20.8 C 5.43 g/m*3 20.8 C 0 km/h
1500 22-05-2008 12:20:01 20.6 C 5.37 g/m*3 20.6 C 0 km/h
Sensor: Nr:Datum:Temp:Abs-Feuchte:Windchill:Wind:
Aussen-T/F 1501 22-05-2008 12:32:02 20.1 C 5.39 g/m*3 20.1 C 0 km/h
1502 22-05-2008 12:44:02 20.1 C 5.56 g/m*3 20.1 C 0 km/h
1503 22-05-2008 12:56:02 21.6 C 5.12 g/m*3 21.6 C 0 km/h
1504 22-05-2008 13:08:02 21.7 C 5.34 g/m*3 21.7 C 0 km/h
1505 22-05-2008 13:20:02 21.6 C 4.93 g/m*3 21.6 C 0 km/h
1506 22-05-2008 13:32:02 21.7 C 5.15 g/m*3 21.7 C 0 km/h
1507 22-05-2008 13:44:02 22 C 4.85 g/m*3 22 C 0 km/h
1508 22-05-2008 13:56:02 21.9 C 5.02 g/m*3 21.9 C 0 km/h
1509 22-05-2008 14:08:02 22 C 5.05 g/m*3 22 C 0 km/h
1510 22-05-2008 14:20:01 22.8 C 5.08 g/m*3 22.8 C 0 km/h
1511 22-05-2008 14:32:02 22.1 C 4.88 g/m*3 22.1 C 0 km/h
1512 22-05-2008 14:44:02 22.4 C 4.96 g/m*3 22.4 C 0 km/h
1513 22-05-2008 14:56:02 22.7 C 5.05 g/m*3 22.7 C 0 km/h
1514 22-05-2008 15:08:01 23.2 C 4.99 g/m*3 23.2 C 0 km/h
1515 22-05-2008 15:20:01 23.3 C 4.81 g/m*3 23.3 C 0 km/h
1516 22-05-2008 15:32:02 22.4 C 4.96 g/m*3 22.4 C 0 km/h
1517 22-05-2008 15:44:02 21.3 C 4.85 g/m*3 21.3 C 0 km/h
1518 22-05-2008 15:56:02 21.5 C 5.09 g/m*3 21.5 C 0 km/h
1519 22-05-2008 16:08:02 21.9 C 5.21 g/m*3 21.9 C 0 km/h
1520 22-05-2008 16:20:01 22 C 4.85 g/m*3 22 C 0 km/h
1521 22-05-2008 16:32:02 22.8 C 5.08 g/m*3 22.8 C 0 km/h
1522 22-05-2008 16:44:02 23.2 C 4.78 g/m*3 23.2 C 0 km/h
1523 22-05-2008 16:56:02 23 C 4.73 g/m*3 23 C 0 km/h
1524 22-05-2008 17:08:01 23.2 C 4.57 g/m*3 23.2 C 0 km/h
1525 22-05-2008 17:20:01 24.7 C 4.53 g/m*3 24.7 C 0 km/h
Sensor: Nr:Datum:Temp:Abs-Feuchte:Windchill:Wind:
Aussen-T/F 1526 22-05-2008 17:32:01 26.2 C 4.92 g/m*3 26.2 C 0 km/h
1527 22-05-2008 17:44:01 24.8 C 4.78 g/m*3 24.8 C 0 km/h
1528 22-05-2008 17:56:02 24.6 C 4.5 g/m*3 24.6 C 0 km/h
1529 22-05-2008 18:08:02 26.4 C 4.98 g/m*3 26.4 C 0 km/h
1530 22-05-2008 18:20:01 24.8 C 4.55 g/m*3 24.8 C 0 km/h
1531 22-05-2008 18:32:02 23.5 C 4.65 g/m*3 23.5 C 0 km/h
1532 22-05-2008 18:44:03 22.6 C 5.02 g/m*3 22.6 C 0 km/h
1533 22-05-2008 18:56:02 22.2 C 4.91 g/m*3 22.2 C 0 km/h
1534 22-05-2008 19:08:02 21.8 C 5.18 g/m*3 21.8 C 0 km/h
1535 22-05-2008 19:20:03 21.2 C 4.63 g/m*3 21.2 C 0 km/h
1536 22-05-2008 19:32:02 20.8 C 4.71 g/m*3 20.8 C 0 km/h
1537 22-05-2008 19:44:02 20.7 C 4.86 g/m*3 20.7 C 0 km/h
1538 22-05-2008 19:56:02 20.5 C 5.16 g/m*3 20.5 C 0 km/h
1539 22-05-2008 20:08:01 20.3 C 5.28 g/m*3 20.3 C 0 km/h
1540 22-05-2008 20:20:02 20 C 5.36 g/m*3 20 C 0 km/h
1541 22-05-2008 20:32:01 19.6 C 5.4 g/m*3 19.6 C 0 km/h
1542 22-05-2008 20:44:01 19.1 C 5.57 g/m*3 19.1 C 0 km/h
1543 22-05-2008 20:56:02 18.6 C 5.57 g/m*3 18.6 C 0 km/h
1544 22-05-2008 21:08:01 18.5 C 5.54 g/m*3 18.5 C 0 km/h
1545 22-05-2008 21:20:02 18.2 C 5.44 g/m*3 18.2 C 0 km/h
1546 22-05-2008 21:32:02 18.1 C 5.87 g/m*3 18.1 C 0 km/h
1547 22-05-2008 21:44:02 18 C 5.68 g/m*3 18 C 0 km/h
1548 22-05-2008 21:56:02 17.8 C 5.62 g/m*3 17.8 C 0 km/h
1549 22-05-2008 22:08:02 17.5 C 5.67 g/m*3 17.5 C 0 km/h
1550 22-05-2008 22:20:02 17.5 C 5.81 g/m*3 17.5 C 0 km/h
Sensor: Nr:Datum:Temp:Abs-Feuchte:Windchill:Wind:
Aussen-T/F 1551 22-05-2008 22:32:02 17.5 C 5.67 g/m*3 17.5 C 0 km/h
1552 22-05-2008 22:44:02 17.4 C 5.78 g/m*3 17.4 C 0 km/h
1553 22-05-2008 22:57:03 17.2 C 5.86 g/m*3 17.2 C 0 km/h
1554 22-05-2008 23:09:03 17.2 C 5.86 g/m*3 17.2 C 0 km/h
1555 22-05-2008 23:21:03 17 C 5.79 g/m*3 17 C 0 km/h
1556 22-05-2008 23:33:03 16.8 C 5.86 g/m*3 16.8 C 0 km/h
1557 22-05-2008 23:45:03 16.7 C 5.97 g/m*3 16.7 C 0 km/h
1558 22-05-2008 23:57:03 16.6 C 6.07 g/m*3 16.6 C 0 km/h
1559 23-05-2008 00:09:03 16.4 C 6 g/m*3 16.4 C 0 km/h
1560 23-05-2008 00:21:03 16.1 C 5.89 g/m*3 16.1 C 0 km/h
1561 23-05-2008 00:33:03 16 C 5.86 g/m*3 16 C 0 km/h
1562 23-05-2008 00:45:03 16 C 5.86 g/m*3 16 C 0 km/h
1563 23-05-2008 00:57:03 15.8 C 5.92 g/m*3 15.8 C 0 km/h
1564 23-05-2008 01:09:03 15.8 C 5.92 g/m*3 15.8 C 0 km/h
1565 23-05-2008 01:21:03 15.8 C 6.06 g/m*3 15.8 C 0 km/h
1566 23-05-2008 01:33:03 15.6 C 5.98 g/m*3 15.6 C 0 km/h
1567 23-05-2008 01:45:04 15.5 C 5.95 g/m*3 15.5 C 0 km/h
1568 23-05-2008 01:57:04 15.4 C 6.04 g/m*3 15.4 C 0 km/h
1569 23-05-2008 02:09:04 15.1 C 6.19 g/m*3 15.1 C 0 km/h
1570 23-05-2008 02:21:04 14.8 C 6.08 g/m*3 14.8 C 0 km/h
1571 23-05-2008 02:33:04 14.7 C 6.17 g/m*3 14.7 C 0 km/h
1572 23-05-2008 02:45:04 14.6 C 6.26 g/m*3 14.6 C 0 km/h
1573 23-05-2008 02:57:04 14.6 C 6.26 g/m*3 14.6 C 0 km/h
1574 23-05-2008 03:09:04 14.5 C 6.34 g/m*3 14.5 C 0 km/h
1575 23-05-2008 03:21:04 14.4 C 6.43 g/m*3 14.4 C 0 km/h
Sensor: Nr:Datum:Temp:Abs-Feuchte:Windchill:Wind:
Aussen-T/F 1576 23-05-2008 03:33:04 14.4 C 6.43 g/m*3 14.4 C 0 km/h
1577 23-05-2008 03:45:04 14.3 C 6.51 g/m*3 14.3 C 0 km/h
1578 23-05-2008 03:57:04 14.2 C 6.47 g/m*3 14.2 C 0 km/h
1579 23-05-2008 04:09:04 14.1 C 6.55 g/m*3 14.1 C 0 km/h
1580 23-05-2008 04:21:04 14.1 C 6.55 g/m*3 14.1 C 0 km/h
1581 23-05-2008 04:33:04 14.2 C 6.59 g/m*3 14.2 C 0 km/h
1582 23-05-2008 04:45:04 14.1 C 6.67 g/m*3 14.1 C 0 km/h
1583 23-05-2008 04:57:04 14 C 6.75 g/m*3 14 C 0 km/h
1584 23-05-2008 05:09:04 14 C 6.75 g/m*3 14 C 0 km/h
1585 23-05-2008 05:21:04 13.9 C 7.07 g/m*3 13.9 C 0 km/h
1586 23-05-2008 05:33:05 13.8 C 6.91 g/m*3 13.8 C 0 km/h
1587 23-05-2008 05:45:05 13.5 C 7.02 g/m*3 13.5 C 0 km/h
1588 23-05-2008 05:57:05 13.6 C 7.06 g/m*3 13.6 C 0 km/h
1589 23-05-2008 06:09:05 13.8 C 7.15 g/m*3 13.8 C 0 km/h
1590 23-05-2008 06:21:05 13.8 C 7.03 g/m*3 13.8 C 0 km/h
1591 23-05-2008 06:33:05 14.1 C 6.92 g/m*3 14.1 C 0 km/h
1592 23-05-2008 06:45:03 14.4 C 7.05 g/m*3 14.4 C 0 km/h
1593 23-05-2008 06:57:03 14.6 C 6.88 g/m*3 14.6 C 0 km/h
1594 23-05-2008 07:09:02 15 C 6.92 g/m*3 15 C 0 km/h
1595 23-05-2008 07:21:02 15.4 C 6.7 g/m*3 15.4 C 0 km/h
1596 23-05-2008 07:33:02 15.4 C 6.44 g/m*3 15.4 C 0 km/h
1597 23-05-2008 07:45:02 15.2 C 6.49 g/m*3 15.2 C 0 km/h
1598 23-05-2008 07:57:02 15.1 C 6.45 g/m*3 15.1 C 0 km/h
1599 23-05-2008 08:09:02 15 C 6.41 g/m*3 15 C 0 km/h
1600 23-05-2008 08:21:02 15.1 C 6.58 g/m*3 15.1 C 0 km/h
Sensor: Nr:Datum:Temp:Abs-Feuchte:Windchill:Wind:
Aussen-T/F 1601 23-05-2008 08:33:02 15.2 C 6.75 g/m*3 15.2 C 0 km/h
1602 23-05-2008 08:45:02 15.4 C 6.7 g/m*3 15.4 C 0 km/h
1603 23-05-2008 08:57:03 15.8 C 6.87 g/m*3 15.8 C 0 km/h
1604 23-05-2008 09:09:01 16.1 C 6.85 g/m*3 16.1 C 0 km/h
1605 23-05-2008 09:21:02 16.8 C 6.72 g/m*3 16.8 C 0 km/h
1606 23-05-2008 09:33:01 17.2 C 6.74 g/m*3 17.2 C 0 km/h
1607 23-05-2008 09:45:02 17.8 C 6.68 g/m*3 17.8 C 0 km/h
1608 23-05-2008 09:57:02 18.3 C 6.41 g/m*3 18.3 C 0 km/h
1609 23-05-2008 10:09:02 18.5 C 6.33 g/m*3 18.5 C 0 km/h
1610 23-05-2008 10:21:01 19 C 6.52 g/m*3 19 C 0 km/h
1611 23-05-2008 10:33:02 19.3 C 6.3 g/m*3 19.3 C 0 km/h
1612 23-05-2008 10:45:01 19.4 C 6.17 g/m*3 19.4 C 0 km/h
1613 23-05-2008 10:57:01 20 C 6.05 g/m*3 20 C 0 km/h
1614 23-05-2008 11:09:01 20 C 6.05 g/m*3 20 C 0 km/h
1615 23-05-2008 11:21:02 20.8 C 6.16 g/m*3 20.8 C 0 km/h
1616 23-05-2008 11:33:01 20.9 C 5.83 g/m*3 20.9 C 0 km/h
1617 23-05-2008 11:45:02 21.5 C 5.66 g/m*3 21.5 C 0 km/h
1618 23-05-2008 11:57:02 21.5 C 5.47 g/m*3 21.5 C 0 km/h
1619 23-05-2008 12:09:01 22.1 C 5.47 g/m*3 22.1 C 0 km/h
1620 23-05-2008 12:21:02 23.3 C 5.44 g/m*3 23.3 C 0 km/h
1621 23-05-2008 12:33:02 23.7 C 5.35 g/m*3 23.7 C 0 km/h
1622 23-05-2008 12:45:02 23.6 C 5.32 g/m*3 23.6 C 0 km/h
1623 23-05-2008 12:57:02 24.2 C 4.84 g/m*3 24.2 C 0 km/h
1624 23-05-2008 13:09:02 24.2 C 4.62 g/m*3 24.2 C 0 km/h
1625 23-05-2008 13:21:02 24.7 C 4.75 g/m*3 24.7 C 0 km/h
Sensor: Nr:Datum:Temp:Abs-Feuchte:Windchill:Wind:
Aussen-T/F 1626 23-05-2008 13:33:02 23.6 C 4.25 g/m*3 23.6 C 0 km/h
1627 23-05-2008 13:45:02 22.9 C 5.11 g/m*3 22.9 C 0 km/h
1628 23-05-2008 13:57:02 22.9 C 5.11 g/m*3 22.9 C 0 km/h
1629 23-05-2008 14:09:03 24.3 C 4.87 g/m*3 24.3 C 0 km/h
1630 23-05-2008 14:21:02 24.6 C 4.73 g/m*3 24.6 C 0 km/h
1631 23-05-2008 14:33:02 24.8 C 5.01 g/m*3 24.8 C 0 km/h
1632 23-05-2008 14:45:01 24.3 C 5.09 g/m*3 24.3 C 0 km/h
1633 23-05-2008 14:57:01 25 C 5.06 g/m*3 25 C 0 km/h
1634 23-05-2008 15:09:01 25.3 C 4.92 g/m*3 25.3 C 0 km/h
1635 23-05-2008 15:21:01 24.8 C 5.01 g/m*3 24.8 C 0 km/h
1636 23-05-2008 15:33:02 25.7 C 4.79 g/m*3 25.7 C 0 km/h
1637 23-05-2008 15:45:02 24.6 C 5.18 g/m*3 24.6 C 0 km/h
1638 23-05-2008 15:57:02 23.8 C 5.59 g/m*3 23.8 C 0 km/h
1639 23-05-2008 16:09:02 22.8 C 5.49 g/m*3 22.8 C 0 km/h
1640 23-05-2008 16:21:02 22.9 C 5.52 g/m*3 22.9 C 0 km/h
1641 23-05-2008 16:33:02 23.4 C 5.47 g/m*3 23.4 C 0 km/h
1642 23-05-2008 16:45:02 24.8 C 5.69 g/m*3 24.8 C 0 km/h
1643 23-05-2008 16:57:02 26.1 C 5.39 g/m*3 26.1 C 0 km/h
1644 23-05-2008 17:09:02 25.4 C 5.41 g/m*3 25.4 C 0 km/h
1645 23-05-2008 17:21:02 25.2 C 5.35 g/m*3 25.2 C 0 km/h
1646 23-05-2008 17:33:01 25 C 5.75 g/m*3 25 C 0 km/h
1647 23-05-2008 17:45:01 25.8 C 5.78 g/m*3 25.8 C 0 km/h
1648 23-05-2008 17:57:01 27 C 5.4 g/m*3 27 C 0 km/h
1649 23-05-2008 18:09:02 26.9 C 5.89 g/m*3 26.9 C 0 km/h
1650 23-05-2008 18:21:02 26 C 5.36 g/m*3 26 C 0 km/h
Sensor: Nr:Datum:Temp:Abs-Feuchte:Windchill:Wind:
Aussen-T/F 1651 23-05-2008 18:33:01 26 C 5.6 g/m*3 26 C 0 km/h
1652 23-05-2008 18:45:02 25.2 C 5.82 g/m*3 25.2 C 0 km/h
1653 23-05-2008 18:57:02 25.4 C 5.41 g/m*3 25.4 C 0 km/h
1654 23-05-2008 19:09:01 24.3 C 5.53 g/m*3 24.3 C 0 km/h
1655 23-05-2008 19:21:02 23.4 C 5.68 g/m*3 23.4 C 0 km/h
1656 23-05-2008 19:33:02 22.8 C 6.1 g/m*3 22.8 C 0 km/h
1657 23-05-2008 19:45:02 22.5 C 6.19 g/m*3 22.5 C 0 km/h
1658 23-05-2008 19:57:02 21.8 C 6.33 g/m*3 21.8 C 0 km/h
1659 23-05-2008 20:09:02 21.6 C 6.45 g/m*3 21.6 C 0 km/h
1660 23-05-2008 20:21:02 21.1 C 6.45 g/m*3 21.1 C 0 km/h
1661 23-05-2008 20:33:02 20.8 C 6.7 g/m*3 20.8 C 0 km/h
1662 23-05-2008 20:45:02 20.2 C 6.64 g/m*3 20.2 C 0 km/h
1663 23-05-2008 20:57:03 19.8 C 6.66 g/m*3 19.8 C 0 km/h
1664 23-05-2008 21:09:01 19.3 C 6.63 g/m*3 19.3 C 0 km/h
1665 23-05-2008 21:21:01 18.7 C 6.56 g/m*3 18.7 C 0 km/h
1666 23-05-2008 21:33:02 18.1 C 6.49 g/m*3 18.1 C 0 km/h
1667 23-05-2008 21:45:02 17.9 C 6.72 g/m*3 17.9 C 0 km/h
1668 23-05-2008 21:57:02 17.6 C 6.75 g/m*3 17.6 C 0 km/h
1669 23-05-2008 22:09:02 17.3 C 6.63 g/m*3 17.3 C 0 km/h
1670 23-05-2008 22:21:02 17 C 6.8 g/m*3 17 C 0 km/h
1671 23-05-2008 22:33:02 16.6 C 6.78 g/m*3 16.6 C 0 km/h
1672 23-05-2008 22:45:02 16.4 C 6.7 g/m*3 16.4 C 0 km/h
1673 23-05-2008 22:57:02 16.2 C 6.76 g/m*3 16.2 C 0 km/h
1674 23-05-2008 23:09:02 16 C 6.81 g/m*3 16 C 0 km/h
1675 23-05-2008 23:22:03 15.8 C 6.87 g/m*3 15.8 C 0 km/h
Sensor: Nr:Datum:Temp:Abs-Feuchte:Windchill:Wind:
Aussen-T/F 1676 23-05-2008 23:34:03 15.6 C 6.92 g/m*3 15.6 C 0 km/h
1677 23-05-2008 23:46:03 15.4 C 6.96 g/m*3 15.4 C 0 km/h
1678 23-05-2008 23:58:03 15.2 C 7.01 g/m*3 15.2 C 0 km/h
1679 24-05-2008 00:10:03 15.2 C 7.14 g/m*3 15.2 C 0 km/h
1680 24-05-2008 00:22:03 14.8 C 7.09 g/m*3 14.8 C 0 km/h
1681 24-05-2008 00:34:03 14.5 C 7.09 g/m*3 14.5 C 0 km/h
1682 24-05-2008 00:46:03 14.2 C 7.2 g/m*3 14.2 C 0 km/h
1683 24-05-2008 00:58:03 13.9 C 7.31 g/m*3 13.9 C 0 km/h
1684 24-05-2008 01:10:03 13.7 C 7.34 g/m*3 13.7 C 0 km/h
1685 24-05-2008 01:22:03 13.8 C 7.39 g/m*3 13.8 C 0 km/h
1686 24-05-2008 01:34:03 13.8 C 7.51 g/m*3 13.8 C 0 km/h
1687 24-05-2008 01:46:03 13.5 C 7.49 g/m*3 13.5 C 0 km/h
1688 24-05-2008 01:58:03 13.4 C 7.44 g/m*3 13.4 C 0 km/h
1689 24-05-2008 02:10:03 13.2 C 7.58 g/m*3 13.2 C 0 km/h
1690 24-05-2008 02:22:03 13.1 C 7.65 g/m*3 13.1 C 0 km/h
1691 24-05-2008 02:34:03 13.1 C 7.65 g/m*3 13.1 C 0 km/h
1692 24-05-2008 02:46:04 12.9 C 7.66 g/m*3 12.9 C 0 km/h
1693 24-05-2008 02:58:04 12.5 C 7.48 g/m*3 12.5 C 0 km/h
1694 24-05-2008 03:10:04 12.5 C 7.59 g/m*3 12.5 C 0 km/h
1695 24-05-2008 03:22:04 12.2 C 7.45 g/m*3 12.2 C 0 km/h
1696 24-05-2008 03:34:04 12.2 C 7.55 g/m*3 12.2 C 0 km/h
1697 24-05-2008 03:46:04 12.1 C 7.61 g/m*3 12.1 C 0 km/h
1698 24-05-2008 03:58:04 12 C 7.57 g/m*3 12 C 0 km/h
1699 24-05-2008 04:10:04 12.1 C 7.72 g/m*3 12.1 C 0 km/h
1700 24-05-2008 04:22:04 11.8 C 7.68 g/m*3 11.8 C 0 km/h
Sensor: Nr:Datum:Temp:Abs-Feuchte:Windchill:Wind:
Aussen-T/F 1701 24-05-2008 04:34:04 11.6 C 7.59 g/m*3 11.6 C 0 km/h
1702 24-05-2008 04:46:04 11.5 C 7.64 g/m*3 11.5 C 0 km/h
1703 24-05-2008 04:58:04 11.4 C 7.6 g/m*3 11.4 C 0 km/h
1704 24-05-2008 05:10:04 11.2 C 7.5 g/m*3 11.2 C 0 km/h
1705 24-05-2008 05:22:04 11.1 C 7.45 g/m*3 11.1 C 0 km/h
1706 24-05-2008 05:34:04 10.8 C 7.51 g/m*3 10.8 C 0 km/h
1707 24-05-2008 05:46:04 10.8 C 7.61 g/m*3 10.8 C 0 km/h
1708 24-05-2008 05:58:04 10.6 C 7.71 g/m*3 10.6 C 0 km/h
1709 24-05-2008 06:10:04 10.8 C 7.81 g/m*3 10.8 C 0 km/h
1710 24-05-2008 06:22:04 10.9 C 7.86 g/m*3 10.9 C 0 km/h
1711 24-05-2008 06:34:05 11.1 C 7.86 g/m*3 11.1 C 0 km/h
1712 24-05-2008 06:46:05 11.4 C 8.01 g/m*3 11.4 C 0 km/h
1713 24-05-2008 06:58:05 11.7 C 8.05 g/m*3 11.7 C 0 km/h
1714 24-05-2008 07:10:05 11.9 C 8.05 g/m*3 11.9 C 0 km/h
1715 24-05-2008 07:22:05 12.1 C 8.04 g/m*3 12.1 C 0 km/h
1716 24-05-2008 07:34:05 12.5 C 8.25 g/m*3 12.5 C 0 km/h
1717 24-05-2008 07:46:01 13.3 C 8.32 g/m*3 13.3 C 0 km/h
1718 24-05-2008 07:58:01 14.1 C 8.25 g/m*3 14.1 C 0 km/h
1719 24-05-2008 08:10:02 14.2 C 8.18 g/m*3 14.2 C 0 km/h
1720 24-05-2008 08:22:02 14.7 C 8.18 g/m*3 14.7 C 0 km/h
1721 24-05-2008 08:34:02 14.8 C 7.98 g/m*3 14.8 C 0 km/h
1722 24-05-2008 08:46:02 14.9 C 7.77 g/m*3 14.9 C 0 km/h
1723 24-05-2008 08:58:02 15.2 C 7.66 g/m*3 15.2 C 0 km/h
1724 24-05-2008 09:10:02 15.8 C 7.54 g/m*3 15.8 C 0 km/h
1725 24-05-2008 09:22:02 16.9 C 7.48 g/m*3 16.9 C 0 km/h
Sensor: Nr:Datum:Temp:Abs-Feuchte:Windchill:Wind:
Aussen-T/F 1726 24-05-2008 09:34:02 17.2 C 7.32 g/m*3 17.2 C 0 km/h
1727 24-05-2008 09:46:02 17.3 C 7.22 g/m*3 17.3 C 0 km/h
1728 24-05-2008 09:58:02 17.5 C 7.31 g/m*3 17.5 C 0 km/h
1729 24-05-2008 10:10:02 18.1 C 7.42 g/m*3 18.1 C 0 km/h
1730 24-05-2008 10:22:03 19 C 7.5 g/m*3 19 C 0 km/h
1731 24-05-2008 10:34:02 19.4 C 7.34 g/m*3 19.4 C 0 km/h
1732 24-05-2008 10:46:02 19.6 C 7.26 g/m*3 19.6 C 0 km/h
1733 24-05-2008 10:58:02 20 C 7.26 g/m*3 20 C 0 km/h
1734 24-05-2008 11:10:01 20.5 C 7.3 g/m*3 20.5 C 0 km/h
1735 24-05-2008 11:22:02 20.9 C 7.47 g/m*3 20.9 C 0 km/h
1736 24-05-2008 11:34:01 21.7 C 7.44 g/m*3 21.7 C 0 km/h
1737 24-05-2008 11:46:01 22 C 7.18 g/m*3 22 C 0 km/h
1738 24-05-2008 11:58:01 21.6 C 7.21 g/m*3 21.6 C 0 km/h
1739 24-05-2008 12:10:02 21.7 C 7.44 g/m*3 21.7 C 0 km/h
1740 24-05-2008 12:22:02 21.7 C 7.44 g/m*3 21.7 C 0 km/h
1741 24-05-2008 12:34:01 21.9 C 7.53 g/m*3 21.9 C 0 km/h
1742 24-05-2008 12:46:01 22.4 C 7.15 g/m*3 22.4 C 0 km/h
1743 24-05-2008 12:58:01 22.6 C 7.03 g/m*3 22.6 C 0 km/h
1744 24-05-2008 13:10:02 22.6 C 7.03 g/m*3 22.6 C 0 km/h
1745 24-05-2008 13:22:01 23.3 C 7.11 g/m*3 23.3 C 0 km/h
1746 24-05-2008 13:34:02 24.2 C 6.6 g/m*3 24.2 C 0 km/h
1747 24-05-2008 13:46:03 24.7 C 6.79 g/m*3 24.7 C 0 km/h
1748 24-05-2008 13:58:03 26.1 C 6.12 g/m*3 26.1 C 0 km/h
1749 24-05-2008 14:10:02 25.2 C 6.05 g/m*3 25.2 C 0 km/h
1750 24-05-2008 14:22:02 25 C 5.99 g/m*3 25 C 0 km/h
Sensor: Nr:Datum:Temp:Abs-Feuchte:Windchill:Wind:
Aussen-T/F 1751 24-05-2008 14:34:03 24.5 C 6.27 g/m*3 24.5 C 0 km/h
1752 24-05-2008 14:46:02 25.4 C 6.12 g/m*3 25.4 C 0 km/h
1753 24-05-2008 14:58:02 26.1 C 5.63 g/m*3 26.1 C 0 km/h
1754 24-05-2008 15:10:02 25.2 C 5.82 g/m*3 25.2 C 0 km/h
1755 24-05-2008 15:22:01 24.9 C 6.18 g/m*3 24.9 C 0 km/h
1756 24-05-2008 15:34:02 24.5 C 6.04 g/m*3 24.5 C 0 km/h
1757 24-05-2008 15:46:02 24 C 6.31 g/m*3 24 C 0 km/h
1758 24-05-2008 15:58:02 23.9 C 6.49 g/m*3 23.9 C 0 km/h
1759 24-05-2008 16:10:01 22.7 C 7.27 g/m*3 22.7 C 0 km/h
1760 24-05-2008 16:22:01 24.2 C 7.04 g/m*3 24.2 C 0 km/h
1761 24-05-2008 16:34:02 25.6 C 6.43 g/m*3 25.6 C 0 km/h
1762 24-05-2008 16:46:02 25.9 C 6.05 g/m*3 25.9 C 0 km/h
1763 24-05-2008 16:58:03 26.2 C 6.15 g/m*3 26.2 C 0 km/h
1764 24-05-2008 17:10:02 25.1 C 6.02 g/m*3 25.1 C 0 km/h
1765 24-05-2008 17:22:02 24.5 C 6.27 g/m*3 24.5 C 0 km/h
1766 24-05-2008 17:34:02 24.5 C 6.27 g/m*3 24.5 C 0 km/h
1767 24-05-2008 17:46:02 24.5 C 6.27 g/m*3 24.5 C 0 km/h
1768 24-05-2008 17:58:02 24.6 C 6.3 g/m*3 24.6 C 0 km/h
1769 24-05-2008 18:10:02 24.2 C 6.16 g/m*3 24.2 C 0 km/h
1770 24-05-2008 18:22:02 23.6 C 7.23 g/m*3 23.6 C 0 km/h
1771 24-05-2008 18:34:02 22.9 C 7.36 g/m*3 22.9 C 0 km/h
1772 24-05-2008 18:46:02 22.4 C 7.15 g/m*3 22.4 C 0 km/h
1773 24-05-2008 18:58:02 22.1 C 7.03 g/m*3 22.1 C 0 km/h
1774 24-05-2008 19:10:03 21.8 C 7.1 g/m*3 21.8 C 0 km/h
1775 24-05-2008 19:22:02 21.6 C 7.02 g/m*3 21.6 C 0 km/h
Sensor: Nr:Datum:Temp:Abs-Feuchte:Windchill:Wind:
Aussen-T/F 1776 24-05-2008 19:34:02 21.3 C 7.08 g/m*3 21.3 C 0 km/h
1777 24-05-2008 19:46:01 21.1 C 7 g/m*3 21.1 C 0 km/h
1778 24-05-2008 19:58:01 20.9 C 7.29 g/m*3 20.9 C 0 km/h
1779 24-05-2008 20:10:01 20.7 C 7.2 g/m*3 20.7 C 0 km/h
1780 24-05-2008 20:22:02 20.5 C 7.3 g/m*3 20.5 C 0 km/h
1781 24-05-2008 20:34:01 20.3 C 7.03 g/m*3 20.3 C 0 km/h
1782 24-05-2008 20:46:01 20.2 C 6.99 g/m*3 20.2 C 0 km/h
1783 24-05-2008 20:58:01 20.1 C 7.13 g/m*3 20.1 C 0 km/h
1784 24-05-2008 21:10:02 19.9 C 7.39 g/m*3 19.9 C 0 km/h
1785 24-05-2008 21:22:02 18.1 C 8.81 g/m*3 18.1 C 0 km/h
1786 24-05-2008 21:34:01 17.7 C 9.2 g/m*3 17.7 C 0 km/h
1787 24-05-2008 21:46:01 18.3 C 9.22 g/m*3 18.3 C 0 km/h
1788 24-05-2008 21:58:01 18.5 C 8.86 g/m*3 18.5 C 0 km/h
1789 24-05-2008 22:10:02 18.5 C 8.39 g/m*3 18.5 C 0 km/h
1790 24-05-2008 22:22:01 18.8 C 8.05 g/m*3 18.8 C 0 km/h
1791 24-05-2008 22:34:01 18.9 C 7.94 g/m*3 18.9 C 0 km/h
1792 24-05-2008 22:47:04 18.9 C 7.78 g/m*3 18.9 C 0 km/h
1793 24-05-2008 22:59:04 18.8 C 8.05 g/m*3 18.8 C 0 km/h
1794 24-05-2008 23:11:04 18.4 C 7.86 g/m*3 18.4 C 0 km/h
1795 24-05-2008 23:23:04 18.1 C 7.88 g/m*3 18.1 C 0 km/h
1796 24-05-2008 23:35:04 17.7 C 8.3 g/m*3 17.7 C 0 km/h
1797 24-05-2008 23:47:04 18.2 C 7.77 g/m*3 18.2 C 0 km/h
1798 24-05-2008 23:59:04 16.8 C 8.86 g/m*3 16.8 C 0 km/h
1799 25-05-2008 00:11:04 16.8 C 9.29 g/m*3 16.8 C 0 km/h
1800 25-05-2008 00:23:04 17.1 C 9.03 g/m*3 17.1 C 0 km/h
Sensor: Nr:Datum:Temp:Abs-Feuchte:Windchill:Wind:
Aussen-T/F 1801 25-05-2008 00:35:04 17.3 C 8.69 g/m*3 17.3 C 0 km/h
1802 25-05-2008 00:47:04 17.3 C 8.54 g/m*3 17.3 C 0 km/h
1803 25-05-2008 00:59:04 17.4 C 8.45 g/m*3 17.4 C 0 km/h
1804 25-05-2008 01:11:04 17.3 C 8.4 g/m*3 17.3 C 0 km/h
1805 25-05-2008 01:23:04 17.2 C 8.35 g/m*3 17.2 C 0 km/h
1806 25-05-2008 01:35:04 17.1 C 8.3 g/m*3 17.1 C 0 km/h
1807 25-05-2008 01:47:04 16.6 C 8.33 g/m*3 16.6 C 0 km/h
1808 25-05-2008 01:59:05 16.5 C 8.28 g/m*3 16.5 C 0 km/h
1809 25-05-2008 02:11:05 16.4 C 8.23 g/m*3 16.4 C 0 km/h
1810 25-05-2008 02:23:05 16.4 C 8.37 g/m*3 16.4 C 0 km/h
1811 25-05-2008 02:35:05 16.6 C 8.48 g/m*3 16.6 C 0 km/h
1812 25-05-2008 02:47:05 16.8 C 8.29 g/m*3 16.8 C 0 km/h
1813 25-05-2008 02:59:05 17 C 8.25 g/m*3 17 C 0 km/h
1814 25-05-2008 03:11:05 17 C 8.25 g/m*3 17 C 0 km/h
1815 25-05-2008 03:23:05 17 C 8.25 g/m*3 17 C 0 km/h
1816 25-05-2008 03:35:05 16.7 C 8.95 g/m*3 16.7 C 0 km/h
1817 25-05-2008 03:47:05 16.6 C 9.32 g/m*3 16.6 C 0 km/h
1818 25-05-2008 03:59:05 16.5 C 8.71 g/m*3 16.5 C 0 km/h
1819 25-05-2008 04:11:05 16.5 C 8.85 g/m*3 16.5 C 0 km/h
1820 25-05-2008 04:23:05 16.5 C 8.85 g/m*3 16.5 C 0 km/h
1821 25-05-2008 04:35:05 16.4 C 8.79 g/m*3 16.4 C 0 km/h
1822 25-05-2008 04:47:05 16.4 C 8.79 g/m*3 16.4 C 0 km/h
1823 25-05-2008 04:59:05 16.1 C 8.91 g/m*3 16.1 C 0 km/h
1824 25-05-2008 05:11:05 16.2 C 9.24 g/m*3 16.2 C 0 km/h
1825 25-05-2008 05:23:05 16.2 C 8.96 g/m*3 16.2 C 0 km/h
Sensor: Nr:Datum:Temp:Abs-Feuchte:Windchill:Wind:
Aussen-T/F 1826 25-05-2008 05:35:05 16.2 C 8.83 g/m*3 16.2 C 0 km/h
1827 25-05-2008 05:47:06 16.1 C 8.77 g/m*3 16.1 C 0 km/h
1828 25-05-2008 05:59:06 16 C 8.86 g/m*3 16 C 0 km/h
1829 25-05-2008 06:11:06 15.8 C 9.02 g/m*3 15.8 C 0 km/h
1830 25-05-2008 06:23:06 15.6 C 8.91 g/m*3 15.6 C 0 km/h
1831 25-05-2008 06:35:06 15.8 C 9.02 g/m*3 15.8 C 0 km/h
1832 25-05-2008 06:47:06 16 C 8.99 g/m*3 16 C 0 km/h
1833 25-05-2008 06:59:06 16.5 C 9.13 g/m*3 16.5 C 0 km/h
1834 25-05-2008 07:11:06 16.8 C 9.15 g/m*3 16.8 C 0 km/h
1835 25-05-2008 07:23:06 16.8 C 9.15 g/m*3 16.8 C 0 km/h
1836 25-05-2008 07:35:06 16.6 C 9.18 g/m*3 16.6 C 0 km/h
1837 25-05-2008 07:47:06 16.9 C 9.35 g/m*3 16.9 C 0 km/h
1838 25-05-2008 07:59:06 17.4 C 9.34 g/m*3 17.4 C 0 km/h
1839 25-05-2008 08:11:06 17.6 C 9.15 g/m*3 17.6 C 0 km/h
1840 25-05-2008 08:23:06 18 C 9.22 g/m*3 18 C 0 km/h
1841 25-05-2008 08:35:03 18.5 C 9.18 g/m*3 18.5 C 0 km/h
1842 25-05-2008 08:47:02 18.7 C 9.45 g/m*3 18.7 C 0 km/h
1843 25-05-2008 08:59:02 18.7 C 9.13 g/m*3 18.7 C 0 km/h
1844 25-05-2008 09:11:02 19.1 C 9.02 g/m*3 19.1 C 0 km/h
1845 25-05-2008 09:23:02 19.5 C 9.23 g/m*3 19.5 C 0 km/h
1846 25-05-2008 09:35:02 19.9 C 9.45 g/m*3 19.9 C 0 km/h
1847 25-05-2008 09:47:02 20.4 C 9.2 g/m*3 20.4 C 0 km/h
1848 25-05-2008 09:59:02 20.1 C 9.04 g/m*3 20.1 C 0 km/h
1849 25-05-2008 10:11:02 20.8 C 9.05 g/m*3 20.8 C 0 km/h
1850 25-05-2008 10:23:02 21.1 C 9.03 g/m*3 21.1 C 0 km/h
Sensor: Nr:Datum:Temp:Abs-Feuchte:Windchill:Wind:
Aussen-T/F 1851 25-05-2008 10:35:02 21.8 C 9.21 g/m*3 21.8 C 0 km/h
1852 25-05-2008 10:47:02 22.1 C 8.98 g/m*3 22.1 C 0 km/h
1853 25-05-2008 10:59:02 22.4 C 9.14 g/m*3 22.4 C 0 km/h
1854 25-05-2008 11:11:02 22.7 C 8.89 g/m*3 22.7 C 0 km/h
1855 25-05-2008 11:23:02 23.4 C 8.83 g/m*3 23.4 C 0 km/h
1856 25-05-2008 11:35:02 24 C 8.49 g/m*3 24 C 0 km/h
1857 25-05-2008 11:47:02 24 C 8.27 g/m*3 24 C 0 km/h
1858 25-05-2008 11:59:02 24.1 C 8.31 g/m*3 24.1 C 0 km/h
1859 25-05-2008 12:11:02 24.2 C 8.14 g/m*3 24.2 C 0 km/h
1860 25-05-2008 12:23:03 25.2 C 8.15 g/m*3 25.2 C 0 km/h
1861 25-05-2008 12:35:02 26.2 C 7.88 g/m*3 26.2 C 0 km/h
1862 25-05-2008 12:47:01 27 C 7.98 g/m*3 27 C 0 km/h
1863 25-05-2008 12:59:01 28.7 C 7.63 g/m*3 28.7 C 0 km/h
1864 25-05-2008 13:11:01 26.8 C 7.64 g/m*3 26.8 C 0 km/h
1865 25-05-2008 13:23:02 26 C 7.55 g/m*3 26 C 0 km/h
1866 25-05-2008 13:35:01 27.1 C 6.99 g/m*3 27.1 C 0 km/h
1867 25-05-2008 13:47:01 27 C 7.46 g/m*3 27 C 0 km/h
1868 25-05-2008 13:59:01 26.6 C 7.8 g/m*3 26.6 C 0 km/h
1869 25-05-2008 14:11:02 27.2 C 7.55 g/m*3 27.2 C 0 km/h
1870 25-05-2008 14:23:02 27.9 C 7.84 g/m*3 27.9 C 0 km/h
1871 25-05-2008 14:35:01 27.5 C 7.41 g/m*3 27.5 C 0 km/h
1872 25-05-2008 14:47:01 27 C 7.72 g/m*3 27 C 0 km/h
1873 25-05-2008 14:59:01 27.9 C 7.57 g/m*3 27.9 C 0 km/h
1874 25-05-2008 15:11:02 28.6 C 7.59 g/m*3 28.6 C 0 km/h
1875 25-05-2008 15:23:01 27.8 C 7.26 g/m*3 27.8 C 0 km/h
Sensor: Nr:Datum:Temp:Abs-Feuchte:Windchill:Wind:
Aussen-T/F 1876 25-05-2008 15:35:01 27.4 C 7.37 g/m*3 27.4 C 0 km/h
1877 25-05-2008 15:47:02 23.9 C 8.44 g/m*3 23.9 C 0 km/h
1878 25-05-2008 15:59:02 20.9 C 13.11 g/m*3 20.9 C 0 km/h
1879 25-05-2008 16:11:02 23.4 C 14.93 g/m*3 23.4 C 0 km/h
1880 25-05-2008 16:23:02 24.4 C 14.02 g/m*3 24.4 C 0 km/h
1881 25-05-2008 16:35:03 25.6 C 12.38 g/m*3 25.6 C 0 km/h
1882 25-05-2008 16:47:02 27.1 C 10.35 g/m*3 27.1 C 0 km/h
1883 25-05-2008 16:59:02 28.4 C 9.17 g/m*3 28.4 C 0 km/h
1884 25-05-2008 17:11:03 29.9 C 9.35 g/m*3 29.9 C 0 km/h
1885 25-05-2008 17:23:02 30.2 C 8.28 g/m*3 30.2 C 0 km/h
1886 25-05-2008 17:35:02 30.2 C 8.28 g/m*3 30.2 C 0 km/h
1887 25-05-2008 17:47:02 29.1 C 8.66 g/m*3 29.1 C 0 km/h
1888 25-05-2008 17:59:02 28.7 C 10.17 g/m*3 28.7 C 0 km/h
1889 25-05-2008 18:11:01 29.7 C 9.55 g/m*3 29.7 C 0 km/h
1890 25-05-2008 18:23:02 28.1 C 8.2 g/m*3 28.1 C 0 km/h
1891 25-05-2008 18:35:01 28.7 C 8.19 g/m*3 28.7 C 0 km/h
1892 25-05-2008 18:47:01 28.7 C 9.04 g/m*3 28.7 C 0 km/h
1893 25-05-2008 18:59:01 28.4 C 8.06 g/m*3 28.4 C 0 km/h
1894 25-05-2008 19:11:03 27.7 C 9.63 g/m*3 27.7 C 0 km/h
1895 25-05-2008 19:23:02 27.2 C 9.11 g/m*3 27.2 C 0 km/h
1896 25-05-2008 19:35:02 27.3 C 9.42 g/m*3 27.3 C 0 km/h
1897 25-05-2008 19:47:02 27.3 C 9.68 g/m*3 27.3 C 0 km/h
1898 25-05-2008 19:59:02 26.3 C 9.9 g/m*3 26.3 C 0 km/h
1899 25-05-2008 20:11:02 25.4 C 10.12 g/m*3 25.4 C 0 km/h
1900 25-05-2008 20:23:02 24.6 C 10.13 g/m*3 24.6 C 0 km/h
Sensor: Nr:Datum:Temp:Abs-Feuchte:Windchill:Wind:
Aussen-T/F 1901 25-05-2008 20:35:02 23.9 C 10.17 g/m*3 23.9 C 0 km/h
1902 25-05-2008 20:47:02 23.2 C 9.98 g/m*3 23.2 C 0 km/h
1903 25-05-2008 20:59:02 22.5 C 9.99 g/m*3 22.5 C 0 km/h
1904 25-05-2008 21:11:02 21.9 C 10.03 g/m*3 21.9 C 0 km/h
1905 25-05-2008 21:23:02 21.6 C 9.86 g/m*3 21.6 C 0 km/h
1906 25-05-2008 21:35:02 21.3 C 9.69 g/m*3 21.3 C 0 km/h
1907 25-05-2008 21:47:02 21 C 9.53 g/m*3 21 C 0 km/h
1908 25-05-2008 21:59:02 20.8 C 9.6 g/m*3 20.8 C 0 km/h
1909 25-05-2008 22:11:02 20.5 C 9.61 g/m*3 20.5 C 0 km/h
1910 25-05-2008 22:23:02 20.4 C 9.73 g/m*3 20.4 C 0 km/h
1911 25-05-2008 22:35:02 20.3 C 9.5 g/m*3 20.3 C 0 km/h
1912 25-05-2008 22:47:02 20.3 C 9.67 g/m*3 20.3 C 0 km/h
1913 25-05-2008 22:59:02 20.3 C 9.67 g/m*3 20.3 C 0 km/h
1914 25-05-2008 23:12:02 20.2 C 9.62 g/m*3 20.2 C 0 km/h
1915 25-05-2008 23:24:02 20.2 C 9.62 g/m*3 20.2 C 0 km/h
1916 25-05-2008 23:36:02 20 C 9.51 g/m*3 20 C 0 km/h
1917 25-05-2008 23:48:02 19.9 C 9.79 g/m*3 19.9 C 0 km/h
1918 26-05-2008 00:00:03 19.7 C 9.68 g/m*3 19.7 C 0 km/h
1919 26-05-2008 00:12:03 20 C 9.68 g/m*3 20 C 0 km/h
1920 26-05-2008 00:24:03 19.3 C 9.62 g/m*3 19.3 C 0 km/h
1921 26-05-2008 00:36:03 19.3 C 9.62 g/m*3 19.3 C 0 km/h
1922 26-05-2008 00:48:03 19.3 C 9.79 g/m*3 19.3 C 0 km/h
1923 26-05-2008 01:00:03 19.5 C 9.73 g/m*3 19.5 C 0 km/h
1924 26-05-2008 01:12:03 19.5 C 9.73 g/m*3 19.5 C 0 km/h
1925 26-05-2008 01:24:03 19.4 C 9.84 g/m*3 19.4 C 0 km/h
Sensor: Nr:Datum:Temp:Abs-Feuchte:Windchill:Wind:
Aussen-T/F 1926 26-05-2008 01:36:03 19.3 C 9.79 g/m*3 19.3 C 0 km/h
1927 26-05-2008 01:48:03 19.3 C 9.79 g/m*3 19.3 C 0 km/h
1928 26-05-2008 02:00:03 19.3 C 9.95 g/m*3 19.3 C 0 km/h
1929 26-05-2008 02:12:03 19.1 C 10 g/m*3 19.1 C 0 km/h
1930 26-05-2008 02:24:03 19 C 9.94 g/m*3 19 C 0 km/h
1931 26-05-2008 02:36:03 18.9 C 10.04 g/m*3 18.9 C 0 km/h
1932 26-05-2008 02:48:03 18.9 C 10.21 g/m*3 18.9 C 0 km/h
1933 26-05-2008 03:00:03 18.9 C 10.21 g/m*3 18.9 C 0 km/h
1934 26-05-2008 03:12:03 18.9 C 10.21 g/m*3 18.9 C 0 km/h
1935 26-05-2008 03:24:03 18.9 C 10.21 g/m*3 18.9 C 0 km/h
1936 26-05-2008 03:36:03 18.8 C 10.31 g/m*3 18.8 C 0 km/h
1937 26-05-2008 03:48:03 18.8 C 10.31 g/m*3 18.8 C 0 km/h
1938 26-05-2008 04:00:04 18.2 C 10.72 g/m*3 18.2 C 0 km/h
1939 26-05-2008 04:12:04 17.6 C 11.55 g/m*3 17.6 C 0 km/h
1940 26-05-2008 04:24:04 17.3 C 11.79 g/m*3 17.3 C 0 km/h
1941 26-05-2008 04:36:04 17 C 11.87 g/m*3 17 C 0 km/h
1942 26-05-2008 04:48:04 17 C 12.15 g/m*3 17 C 0 km/h
1943 26-05-2008 05:00:04 17.1 C 12.23 g/m*3 17.1 C 0 km/h
1944 26-05-2008 05:12:04 17 C 12.3 g/m*3 17 C 0 km/h
1945 26-05-2008 05:24:04 17.3 C 12.52 g/m*3 17.3 C 0 km/h
1946 26-05-2008 05:36:04 16.8 C 12.44 g/m*3 16.8 C 0 km/h
1947 26-05-2008 05:48:04 17 C 12.44 g/m*3 17 C 0 km/h
1948 26-05-2008 06:00:04 17.1 C 12.52 g/m*3 17.1 C 0 km/h
1949 26-05-2008 06:12:04 17.2 C 12.45 g/m*3 17.2 C 0 km/h
1950 26-05-2008 06:24:04 17.2 C 12.3 g/m*3 17.2 C 0 km/h
Sensor: Nr:Datum:Temp:Abs-Feuchte:Windchill:Wind:
Aussen-T/F 1951 26-05-2008 06:36:04 17.2 C 12.3 g/m*3 17.2 C 0 km/h
1952 26-05-2008 06:48:02 17.1 C 12.08 g/m*3 17.1 C 0 km/h
1953 26-05-2008 07:00:02 17.2 C 12.01 g/m*3 17.2 C 0 km/h
1954 26-05-2008 07:12:02 17.3 C 12.08 g/m*3 17.3 C 0 km/h
1955 26-05-2008 07:24:02 17.2 C 12.01 g/m*3 17.2 C 0 km/h
1956 26-05-2008 07:36:02 17.3 C 12.08 g/m*3 17.3 C 0 km/h
1957 26-05-2008 07:48:02 17.6 C 12.15 g/m*3 17.6 C 0 km/h
1958 26-05-2008 08:00:02 17.8 C 12.29 g/m*3 17.8 C 0 km/h
1959 26-05-2008 08:12:02 17.9 C 12.21 g/m*3 17.9 C 0 km/h
1960 26-05-2008 08:24:03 17.8 C 12.14 g/m*3 17.8 C 0 km/h
1961 26-05-2008 08:36:03 17.9 C 12.21 g/m*3 17.9 C 0 km/h
1962 26-05-2008 08:48:02 17.8 C 12.14 g/m*3 17.8 C 0 km/h
1963 26-05-2008 09:00:02 17.7 C 12.07 g/m*3 17.7 C 0 km/h
1964 26-05-2008 09:12:03 17.8 C 12.29 g/m*3 17.8 C 0 km/h
1965 26-05-2008 09:24:02 17.9 C 12.37 g/m*3 17.9 C 0 km/h
1966 26-05-2008 09:36:02 18.1 C 12.21 g/m*3 18.1 C 0 km/h
1967 26-05-2008 09:48:02 18.2 C 12.28 g/m*3 18.2 C 0 km/h
1968 26-05-2008 10:00:02 18.1 C 12.36 g/m*3 18.1 C 0 km/h
1969 26-05-2008 10:12:03 18.2 C 12.59 g/m*3 18.2 C 0 km/h
1970 26-05-2008 10:24:02 18.5 C 12.82 g/m*3 18.5 C 0 km/h
1971 26-05-2008 10:36:02 19 C 12.87 g/m*3 19 C 0 km/h
1972 26-05-2008 10:48:02 19.7 C 12.74 g/m*3 19.7 C 0 km/h
1973 26-05-2008 11:00:02 20.1 C 12.52 g/m*3 20.1 C 0 km/h
1974 26-05-2008 11:12:02 20.4 C 12.38 g/m*3 20.4 C 0 km/h
1975 26-05-2008 11:24:02 20.5 C 12.28 g/m*3 20.5 C 0 km/h
Sensor: Nr:Datum:Temp:Abs-Feuchte:Windchill:Wind:
Aussen-T/F 1976 26-05-2008 11:36:02 20.4 C 12.21 g/m*3 20.4 C 0 km/h
1977 26-05-2008 11:48:02 20.5 C 12.28 g/m*3 20.5 C 0 km/h
1978 26-05-2008 12:00:02 21 C 11.91 g/m*3 21 C 0 km/h
1979 26-05-2008 12:12:02 22.1 C 12.1 g/m*3 22.1 C 0 km/h
1980 26-05-2008 12:24:02 22.1 C 11.52 g/m*3 22.1 C 0 km/h
1981 26-05-2008 12:36:02 21.9 C 11.96 g/m*3 21.9 C 0 km/h
1982 26-05-2008 12:48:02 21.3 C 11.93 g/m*3 21.3 C 0 km/h
1983 26-05-2008 13:00:02 21.2 C 11.86 g/m*3 21.2 C 0 km/h
1984 26-05-2008 13:12:02 21.7 C 12.21 g/m*3 21.7 C 0 km/h
1985 26-05-2008 13:24:02 22.8 C 11.99 g/m*3 22.8 C 0 km/h
1986 26-05-2008 13:36:02 22.9 C 11.65 g/m*3 22.9 C 0 km/h
1987 26-05-2008 13:48:01 22.8 C 11.99 g/m*3 22.8 C 0 km/h
1988 26-05-2008 14:00:01 22.9 C 11.85 g/m*3 22.9 C 0 km/h
1989 26-05-2008 14:12:02 23.2 C 11.43 g/m*3 23.2 C 0 km/h
1990 26-05-2008 14:24:02 23.8 C 11.4 g/m*3 23.8 C 0 km/h
1991 26-05-2008 14:36:02 25 C 10.82 g/m*3 25 C 0 km/h
1992 26-05-2008 14:48:02 25.1 C 9.95 g/m*3 25.1 C 0 km/h
1993 26-05-2008 15:00:02 25.3 C 9.36 g/m*3 25.3 C 0 km/h
1994 26-05-2008 15:12:02 26.5 C 9.01 g/m*3 26.5 C 0 km/h
1995 26-05-2008 15:24:01 27.6 C 9.04 g/m*3 27.6 C 0 km/h
1996 26-05-2008 15:36:02 27.3 C 9.16 g/m*3 27.3 C 0 km/h
1997 26-05-2008 15:48:02 27.6 C 9.04 g/m*3 27.6 C 0 km/h
1998 26-05-2008 16:00:02 28.2 C 8.52 g/m*3 28.2 C 0 km/h
1999 26-05-2008 16:12:01 28.2 C 8.52 g/m*3 28.2 C 0 km/h
2000 26-05-2008 16:24:01 28 C 8.43 g/m*3 28 C 0 km/h
Sensor: Nr:Datum:Temp:Abs-Feuchte:Windchill:Wind:
Aussen-T/F 2001 26-05-2008 16:36:02 28 C 8.7 g/m*3 28 C 0 km/h
2002 26-05-2008 16:48:02 27.7 C 9.36 g/m*3 27.7 C 0 km/h
2003 26-05-2008 17:00:02 27.7 C 8.83 g/m*3 27.7 C 0 km/h
2004 26-05-2008 17:12:02 27.5 C 9 g/m*3 27.5 C 0 km/h
2005 26-05-2008 17:24:02 27.1 C 9.06 g/m*3 27.1 C 0 km/h
2006 26-05-2008 17:36:03 27 C 9.26 g/m*3 27 C 0 km/h
2007 26-05-2008 17:48:02 27.8 C 9.41 g/m*3 27.8 C 0 km/h
2008 26-05-2008 18:00:02 27.6 C 9.04 g/m*3 27.6 C 0 km/h
2009 26-05-2008 18:12:02 26.9 C 9.47 g/m*3 26.9 C 0 km/h
2010 26-05-2008 18:24:02 26.3 C 9.41 g/m*3 26.3 C 0 km/h
2011 26-05-2008 18:36:02 26.9 C 9.47 g/m*3 26.9 C 0 km/h
2012 26-05-2008 18:48:02 26.8 C 9.42 g/m*3 26.8 C 0 km/h
2013 26-05-2008 19:00:02 26.4 C 9.46 g/m*3 26.4 C 0 km/h
2014 26-05-2008 19:12:02 26.2 C 9.6 g/m*3 26.2 C 0 km/h
2015 26-05-2008 19:24:02 25.8 C 9.63 g/m*3 25.8 C 0 km/h
2016 26-05-2008 19:36:02 25.8 C 9.39 g/m*3 25.8 C 0 km/h
2017 26-05-2008 19:48:01 25.4 C 9.18 g/m*3 25.4 C 0 km/h
2018 26-05-2008 20:00:01 24.7 C 9.28 g/m*3 24.7 C 0 km/h
2019 26-05-2008 20:12:02 24.1 C 9.85 g/m*3 24.1 C 0 km/h
2020 26-05-2008 20:24:02 23.7 C 10.27 g/m*3 23.7 C 0 km/h
2021 26-05-2008 20:36:01 23.5 C 10.36 g/m*3 23.5 C 0 km/h
2022 26-05-2008 20:48:01 23.1 C 10.34 g/m*3 23.1 C 0 km/h
2023 26-05-2008 21:00:01 22.7 C 10.51 g/m*3 22.7 C 0 km/h
2024 26-05-2008 21:12:02 22.5 C 10.39 g/m*3 22.5 C 0 km/h
2025 26-05-2008 21:24:02 22.3 C 10.47 g/m*3 22.3 C 0 km/h
Sensor: Nr:Datum:Temp:Abs-Feuchte:Windchill:Wind:
Aussen-T/F 2026 26-05-2008 21:36:01 22.1 C 10.54 g/m*3 22.1 C 0 km/h
2027 26-05-2008 21:48:01 21.4 C 10.69 g/m*3 21.4 C 0 km/h
2028 26-05-2008 22:00:01 21.1 C 10.69 g/m*3 21.1 C 0 km/h
2029 26-05-2008 22:13:03 20.9 C 10.75 g/m*3 20.9 C 0 km/h
2030 26-05-2008 22:25:03 20.9 C 10.75 g/m*3 20.9 C 0 km/h
2031 26-05-2008 22:37:03 21 C 10.62 g/m*3 21 C 0 km/h
2032 26-05-2008 22:49:04 20.8 C 10.68 g/m*3 20.8 C 0 km/h
2033 26-05-2008 23:01:04 20.6 C 10.74 g/m*3 20.6 C 0 km/h
2034 26-05-2008 23:13:04 20.2 C 10.49 g/m*3 20.2 C 0 km/h
2035 26-05-2008 23:25:04 19.9 C 10.82 g/m*3 19.9 C 0 km/h
2036 26-05-2008 23:37:04 19.7 C 10.7 g/m*3 19.7 C 0 km/h
2037 26-05-2008 23:49:04 19.6 C 10.64 g/m*3 19.6 C 0 km/h
2038 27-05-2008 00:01:04 19.4 C 10.51 g/m*3 19.4 C 0 km/h
2039 27-05-2008 00:13:04 19.3 C 10.62 g/m*3 19.3 C 0 km/h
2040 27-05-2008 00:25:04 19.4 C 10.68 g/m*3 19.4 C 0 km/h
2041 27-05-2008 00:37:04 19.3 C 10.62 g/m*3 19.3 C 0 km/h
2042 27-05-2008 00:49:04 19.1 C 10.49 g/m*3 19.1 C 0 km/h
2043 27-05-2008 01:01:04 19 C 10.59 g/m*3 19 C 0 km/h
2044 27-05-2008 01:13:04 18.9 C 10.69 g/m*3 18.9 C 0 km/h
2045 27-05-2008 01:25:04 18.8 C 10.79 g/m*3 18.8 C 0 km/h
2046 27-05-2008 01:37:04 18.7 C 10.73 g/m*3 18.7 C 0 km/h
2047 27-05-2008 01:49:04 18.7 C 10.89 g/m*3 18.7 C 0 km/h
2048 27-05-2008 02:01:04 18.7 C 10.89 g/m*3 18.7 C 0 km/h
2049 27-05-2008 02:13:04 18.6 C 10.82 g/m*3 18.6 C 0 km/h
2050 27-05-2008 02:25:04 18.6 C 10.98 g/m*3 18.6 C 0 km/h
Sensor: Nr:Datum:Temp:Abs-Feuchte:Windchill:Wind:
Aussen-T/F 2051 27-05-2008 02:37:04 18.3 C 11.26 g/m*3 18.3 C 0 km/h
2052 27-05-2008 02:49:05 17.8 C 11.38 g/m*3 17.8 C 0 km/h
2053 27-05-2008 03:01:05 17.7 C 11.62 g/m*3 17.7 C 0 km/h
2054 27-05-2008 03:13:05 17.7 C 11.77 g/m*3 17.7 C 0 km/h
2055 27-05-2008 03:25:05 17.7 C 11.77 g/m*3 17.7 C 0 km/h
2056 27-05-2008 03:37:05 17.5 C 11.63 g/m*3 17.5 C 0 km/h
2057 27-05-2008 03:49:05 17.5 C 11.63 g/m*3 17.5 C 0 km/h
2058 27-05-2008 04:01:05 17.3 C 11.79 g/m*3 17.3 C 0 km/h
2059 27-05-2008 04:13:05 17.1 C 11.94 g/m*3 17.1 C 0 km/h
2060 27-05-2008 04:25:05 17 C 11.87 g/m*3 17 C 0 km/h
2061 27-05-2008 04:37:05 17.1 C 12.08 g/m*3 17.1 C 0 km/h
2062 27-05-2008 04:49:05 17.1 C 12.08 g/m*3 17.1 C 0 km/h
2063 27-05-2008 05:01:05 17.2 C 12.15 g/m*3 17.2 C 0 km/h
2064 27-05-2008 05:13:05 17.1 C 11.94 g/m*3 17.1 C 0 km/h
2065 27-05-2008 05:25:05 16.8 C 12.01 g/m*3 16.8 C 0 km/h
2066 27-05-2008 05:37:05 16.6 C 12.15 g/m*3 16.6 C 0 km/h
2067 27-05-2008 05:49:05 16.5 C 12.36 g/m*3 16.5 C 0 km/h
2068 27-05-2008 06:01:05 16.4 C 12.42 g/m*3 16.4 C 0 km/h
2069 27-05-2008 06:13:05 16.5 C 12.64 g/m*3 16.5 C 0 km/h
2070 27-05-2008 06:25:05 16.4 C 12.7 g/m*3 16.4 C 0 km/h
2071 27-05-2008 06:37:05 16.3 C 12.62 g/m*3 16.3 C 0 km/h
2072 27-05-2008 06:49:02 16.2 C 12.69 g/m*3 16.2 C 0 km/h
2073 27-05-2008 07:01:01 16.4 C 12.84 g/m*3 16.4 C 0 km/h
2074 27-05-2008 07:13:01 16.6 C 13 g/m*3 16.6 C 0 km/h
2075 27-05-2008 07:25:01 16.6 C 13 g/m*3 16.6 C 0 km/h
Sensor: Nr:Datum:Temp:Abs-Feuchte:Windchill:Wind:
Aussen-T/F 2076 27-05-2008 07:37:02 16.7 C 13.22 g/m*3 16.7 C 0 km/h
2077 27-05-2008 07:49:02 17 C 13.31 g/m*3 17 C 0 km/h
2078 27-05-2008 08:01:02 17.4 C 13.63 g/m*3 17.4 C 0 km/h
2079 27-05-2008 08:13:02 17.6 C 13.95 g/m*3 17.6 C 0 km/h
2080 27-05-2008 08:25:01 17.8 C 13.96 g/m*3 17.8 C 0 km/h
2081 27-05-2008 08:37:02 18.3 C 14.23 g/m*3 18.3 C 0 km/h
2082 27-05-2008 08:49:01 18.3 C 13.92 g/m*3 18.3 C 0 km/h
2083 27-05-2008 09:01:02 18.9 C 14.09 g/m*3 18.9 C 0 km/h
2084 27-05-2008 09:13:02 19.4 C 13.51 g/m*3 19.4 C 0 km/h
2085 27-05-2008 09:25:02 19.9 C 13.57 g/m*3 19.9 C 0 km/h
2086 27-05-2008 09:37:01 20.6 C 13.42 g/m*3 20.6 C 0 km/h
2087 27-05-2008 09:49:01 21 C 12.64 g/m*3 21 C 0 km/h
2088 27-05-2008 10:01:02 21.4 C 12.94 g/m*3 21.4 C 0 km/h
2089 27-05-2008 10:13:02 21.9 C 12.54 g/m*3 21.9 C 0 km/h
2090 27-05-2008 10:25:01 21.7 C 12.21 g/m*3 21.7 C 0 km/h
2091 27-05-2008 10:37:01 22 C 12.42 g/m*3 22 C 0 km/h
2092 27-05-2008 10:49:01 21.9 C 12.16 g/m*3 21.9 C 0 km/h
2093 27-05-2008 11:01:01 22.3 C 11.85 g/m*3 22.3 C 0 km/h
2094 27-05-2008 11:13:02 23.2 C 12.27 g/m*3 23.2 C 0 km/h
2095 27-05-2008 11:25:01 24.2 C 12.54 g/m*3 24.2 C 0 km/h
2096 27-05-2008 11:37:02 25.2 C 11.87 g/m*3 25.2 C 0 km/h
2097 27-05-2008 11:49:03 25.4 C 11.77 g/m*3 25.4 C 0 km/h
2098 27-05-2008 12:01:02 25.2 C 11.41 g/m*3 25.2 C 0 km/h
2099 27-05-2008 12:13:02 25.1 C 11.81 g/m*3 25.1 C 0 km/h
2100 27-05-2008 12:25:02 25.7 C 11.97 g/m*3 25.7 C 0 km/h
Sensor: Nr:Datum:Temp:Abs-Feuchte:Windchill:Wind:
Aussen-T/F 2101 27-05-2008 12:37:01 25.8 C 11.8 g/m*3 25.8 C 0 km/h
2102 27-05-2008 12:49:02 26.5 C 11.26 g/m*3 26.5 C 0 km/h
2103 27-05-2008 13:01:02 25.7 C 11.49 g/m*3 25.7 C 0 km/h
2104 27-05-2008 13:13:03 24.5 C 11.86 g/m*3 24.5 C 0 km/h
2105 27-05-2008 13:25:02 24.3 C 12.39 g/m*3 24.3 C 0 km/h
2106 27-05-2008 13:37:02 24.6 C 12.15 g/m*3 24.6 C 0 km/h
2107 27-05-2008 13:49:02 24.9 C 11.67 g/m*3 24.9 C 0 km/h
2108 27-05-2008 14:01:01 25.2 C 11.41 g/m*3 25.2 C 0 km/h
2109 27-05-2008 14:13:01 25.6 C 11.9 g/m*3 25.6 C 0 km/h
2110 27-05-2008 14:25:01 26.3 C 12.38 g/m*3 26.3 C 0 km/h
2111 27-05-2008 14:37:02 26.6 C 11.58 g/m*3 26.6 C 0 km/h
2112 27-05-2008 14:49:02 26.8 C 11.96 g/m*3 26.8 C 0 km/h
2113 27-05-2008 15:01:02 27.1 C 11.13 g/m*3 27.1 C 0 km/h
2114 27-05-2008 15:13:02 27.2 C 10.93 g/m*3 27.2 C 0 km/h
2115 27-05-2008 15:25:02 27.4 C 11.05 g/m*3 27.4 C 0 km/h
2116 27-05-2008 15:37:02 27.1 C 11.39 g/m*3 27.1 C 0 km/h
2117 27-05-2008 15:49:02 26.1 C 12 g/m*3 26.1 C 0 km/h
2118 27-05-2008 16:01:01 26 C 11.93 g/m*3 26 C 0 km/h
2119 27-05-2008 16:13:01 26.7 C 11.64 g/m*3 26.7 C 0 km/h
2120 27-05-2008 16:25:01 27.4 C 11.58 g/m*3 27.4 C 0 km/h
2121 27-05-2008 16:37:02 27.3 C 11.25 g/m*3 27.3 C 0 km/h
2122 27-05-2008 16:49:02 28.6 C 11.24 g/m*3 28.6 C 0 km/h
2123 27-05-2008 17:01:02 30 C 10.92 g/m*3 30 C 0 km/h
2124 27-05-2008 17:13:02 30 C 10.61 g/m*3 30 C 0 km/h
2125 27-05-2008 17:25:01 29.9 C 10.86 g/m*3 29.9 C 0 km/h
Sensor: Nr:Datum:Temp:Abs-Feuchte:Windchill:Wind:
Aussen-T/F 2126 27-05-2008 17:37:02 29.5 C 10.92 g/m*3 29.5 C 0 km/h
2127 27-05-2008 17:49:02 29.2 C 11.03 g/m*3 29.2 C 0 km/h
2128 27-05-2008 18:01:01 29.1 C 10.97 g/m*3 29.1 C 0 km/h
2129 27-05-2008 18:13:01 28.8 C 11.36 g/m*3 28.8 C 0 km/h
2130 27-05-2008 18:25:02 28.3 C 11.61 g/m*3 28.3 C 0 km/h
2131 27-05-2008 18:37:01 28.4 C 11.4 g/m*3 28.4 C 0 km/h
2132 27-05-2008 18:49:02 28.3 C 11.89 g/m*3 28.3 C 0 km/h
2133 27-05-2008 19:01:01 27.7 C 12.57 g/m*3 27.7 C 0 km/h
2134 27-05-2008 19:13:01 27.1 C 12.16 g/m*3 27.1 C 0 km/h
2135 27-05-2008 19:25:02 26.2 C 11.57 g/m*3 26.2 C 0 km/h
2136 27-05-2008 19:37:02 25.6 C 11.67 g/m*3 25.6 C 0 km/h
2137 27-05-2008 19:49:02 25.5 C 12.07 g/m*3 25.5 C 0 km/h
2138 27-05-2008 20:01:02 24.8 C 12.52 g/m*3 24.8 C 0 km/h
2139 27-05-2008 20:13:02 24.5 C 12.53 g/m*3 24.5 C 0 km/h
2140 27-05-2008 20:25:02 24.3 C 12.39 g/m*3 24.3 C 0 km/h
2141 27-05-2008 20:37:02 24.1 C 12.25 g/m*3 24.1 C 0 km/h
2142 27-05-2008 20:49:01 23.8 C 12.26 g/m*3 23.8 C 0 km/h
2143 27-05-2008 21:01:01 23.5 C 12.27 g/m*3 23.5 C 0 km/h
2144 27-05-2008 21:13:01 23.3 C 11.92 g/m*3 23.3 C 0 km/h
2145 27-05-2008 21:25:02 23.1 C 11.37 g/m*3 23.1 C 0 km/h
2146 27-05-2008 21:37:01 22.9 C 11.44 g/m*3 22.9 C 0 km/h
2147 27-05-2008 21:49:01 22.9 C 11.24 g/m*3 22.9 C 0 km/h
2148 27-05-2008 22:02:03 22.8 C 10.97 g/m*3 22.8 C 0 km/h
2149 27-05-2008 22:14:03 22.8 C 10.97 g/m*3 22.8 C 0 km/h
2150 27-05-2008 22:26:03 22.8 C 10.77 g/m*3 22.8 C 0 km/h
Sensor: Nr:Datum:Temp:Abs-Feuchte:Windchill:Wind:
Aussen-T/F 2151 27-05-2008 22:38:03 22.6 C 10.65 g/m*3 22.6 C 0 km/h
2152 27-05-2008 22:50:03 22.3 C 10.47 g/m*3 22.3 C 0 km/h
2153 27-05-2008 23:02:03 22.2 C 10.6 g/m*3 22.2 C 0 km/h
2154 27-05-2008 23:14:03 21.9 C 10.61 g/m*3 21.9 C 0 km/h
2155 27-05-2008 23:26:03 21.8 C 10.55 g/m*3 21.8 C 0 km/h
2156 27-05-2008 23:38:03 21.5 C 10.56 g/m*3 21.5 C 0 km/h
2157 27-05-2008 23:50:03 21.4 C 10.5 g/m*3 21.4 C 0 km/h
2158 28-05-2008 00:02:03 21.2 C 10.56 g/m*3 21.2 C 0 km/h
2159 28-05-2008 00:14:04 21.1 C 10.69 g/m*3 21.1 C 0 km/h
2160 28-05-2008 00:26:04 20.9 C 10.75 g/m*3 20.9 C 0 km/h
2161 28-05-2008 00:38:04 20.8 C 10.5 g/m*3 20.8 C 0 km/h
2162 28-05-2008 00:50:04 20.7 C 10.62 g/m*3 20.7 C 0 km/h
2163 28-05-2008 01:02:04 20.4 C 10.79 g/m*3 20.4 C 0 km/h
2164 28-05-2008 01:14:04 20.2 C 10.67 g/m*3 20.2 C 0 km/h
2165 28-05-2008 01:26:04 20.2 C 10.67 g/m*3 20.2 C 0 km/h
2166 28-05-2008 01:38:04 20.1 C 10.43 g/m*3 20.1 C 0 km/h
2167 28-05-2008 01:50:04 19.8 C 10.59 g/m*3 19.8 C 0 km/h
2168 28-05-2008 02:02:04 20 C 10.37 g/m*3 20 C 0 km/h
2169 28-05-2008 02:14:04 20 C 10.2 g/m*3 20 C 0 km/h
2170 28-05-2008 02:26:04 20 C 10.2 g/m*3 20 C 0 km/h
2171 28-05-2008 02:38:04 20 C 10.2 g/m*3 20 C 0 km/h
2172 28-05-2008 02:50:04 19.9 C 10.31 g/m*3 19.9 C 0 km/h
2173 28-05-2008 03:02:04 19.9 C 10.31 g/m*3 19.9 C 0 km/h
2174 28-05-2008 03:14:04 19.9 C 10.48 g/m*3 19.9 C 0 km/h
2175 28-05-2008 03:26:04 19.7 C 10.36 g/m*3 19.7 C 0 km/h
Sensor: Nr:Datum:Temp:Abs-Feuchte:Windchill:Wind:
Aussen-T/F 2176 28-05-2008 03:38:04 19.7 C 10.36 g/m*3 19.7 C 0 km/h
2177 28-05-2008 03:50:04 19.7 C 10.53 g/m*3 19.7 C 0 km/h
2178 28-05-2008 04:02:04 19.6 C 10.47 g/m*3 19.6 C 0 km/h
2179 28-05-2008 04:14:04 19.4 C 10.51 g/m*3 19.4 C 0 km/h
2180 28-05-2008 04:26:05 19.5 C 10.74 g/m*3 19.5 C 0 km/h
2181 28-05-2008 04:38:05 19.2 C 10.72 g/m*3 19.2 C 0 km/h
2182 28-05-2008 04:50:05 19.1 C 10.66 g/m*3 19.1 C 0 km/h
2183 28-05-2008 05:02:05 19.2 C 10.55 g/m*3 19.2 C 0 km/h
2184 28-05-2008 05:14:05 19.2 C 10.72 g/m*3 19.2 C 0 km/h
2185 28-05-2008 05:26:05 19 C 10.92 g/m*3 19 C 0 km/h
2186 28-05-2008 05:38:05 18.9 C 11.02 g/m*3 18.9 C 0 km/h
2187 28-05-2008 05:50:05 18.9 C 10.85 g/m*3 18.9 C 0 km/h
2188 28-05-2008 06:02:05 18.6 C 10.98 g/m*3 18.6 C 0 km/h
2189 28-05-2008 06:14:05 18.5 C 10.92 g/m*3 18.5 C 0 km/h
2190 28-05-2008 06:26:05 18.7 C 11.21 g/m*3 18.7 C 0 km/h
2191 28-05-2008 06:38:05 18.9 C 11.18 g/m*3 18.9 C 0 km/h
2192 28-05-2008 06:50:05 19.1 C 11.31 g/m*3 19.1 C 0 km/h
2193 28-05-2008 07:02:02 19.1 C 11.31 g/m*3 19.1 C 0 km/h
2194 28-05-2008 07:14:02 19.2 C 11.54 g/m*3 19.2 C 0 km/h
2195 28-05-2008 07:26:02 19.3 C 11.61 g/m*3 19.3 C 0 km/h
2196 28-05-2008 07:38:02 19.5 C 11.58 g/m*3 19.5 C 0 km/h
2197 28-05-2008 07:50:02 19.6 C 11.99 g/m*3 19.6 C 0 km/h
2198 28-05-2008 08:02:02 20 C 12.1 g/m*3 20 C 0 km/h
2199 28-05-2008 08:14:02 20.8 C 11.77 g/m*3 20.8 C 0 km/h
2200 28-05-2008 08:26:01 20.8 C 11.59 g/m*3 20.8 C 0 km/h
Sensor: Nr:Datum:Temp:Abs-Feuchte:Windchill:Wind:
Aussen-T/F 2201 28-05-2008 08:38:02 21 C 11.36 g/m*3 21 C 0 km/h
2202 28-05-2008 08:50:02 21.4 C 11.62 g/m*3 21.4 C 0 km/h
2203 28-05-2008 09:02:02 22.1 C 11.52 g/m*3 22.1 C 0 km/h
2204 28-05-2008 09:14:02 22.3 C 11.45 g/m*3 22.3 C 0 km/h
2205 28-05-2008 09:26:02 22.8 C 12.19 g/m*3 22.8 C 0 km/h
2206 28-05-2008 09:38:02 23.4 C 11.99 g/m*3 23.4 C 0 km/h
2207 28-05-2008 09:50:02 23.8 C 11.83 g/m*3 23.8 C 0 km/h
2208 28-05-2008 10:02:02 23.7 C 12.19 g/m*3 23.7 C 0 km/h
2209 28-05-2008 10:14:02 24.2 C 12.32 g/m*3 24.2 C 0 km/h
2210 28-05-2008 10:26:02 24.6 C 11.48 g/m*3 24.6 C 0 km/h
2211 28-05-2008 10:38:02 25.1 C 11.81 g/m*3 25.1 C 0 km/h
2212 28-05-2008 10:50:01 26 C 11.2 g/m*3 26 C 0 km/h
2213 28-05-2008 11:02:01 26.8 C 10.44 g/m*3 26.8 C 0 km/h
2214 28-05-2008 11:14:01 26.9 C 11.01 g/m*3 26.9 C 0 km/h
2215 28-05-2008 11:26:01 27.4 C 10.52 g/m*3 27.4 C 0 km/h
2216 28-05-2008 11:38:02 27.6 C 9.31 g/m*3 27.6 C 0 km/h
2217 28-05-2008 11:50:02 27.8 C 9.15 g/m*3 27.8 C 0 km/h
2218 28-05-2008 12:02:02 27.8 C 9.41 g/m*3 27.8 C 0 km/h
2219 28-05-2008 12:14:02 28.4 C 9.17 g/m*3 28.4 C 0 km/h
2220 28-05-2008 12:26:02 28.7 C 9.04 g/m*3 28.7 C 0 km/h
2221 28-05-2008 12:38:02 29.3 C 9.63 g/m*3 29.3 C 0 km/h
2222 28-05-2008 12:50:02 27.9 C 8.38 g/m*3 27.9 C 0 km/h
2223 28-05-2008 13:02:02 28.5 C 8.38 g/m*3 28.5 C 0 km/h
2224 28-05-2008 13:14:02 29.3 C 7.59 g/m*3 29.3 C 0 km/h
2225 28-05-2008 13:26:01 29.2 C 6.97 g/m*3 29.2 C 0 km/h
Sensor: Nr:Datum:Temp:Abs-Feuchte:Windchill:Wind:
Aussen-T/F 2226 28-05-2008 13:38:02 28.5 C 6.99 g/m*3 28.5 C 0 km/h
2227 28-05-2008 13:50:03 28.1 C 7.38 g/m*3 28.1 C 0 km/h
2228 28-05-2008 14:02:03 28.6 C 7.59 g/m*3 28.6 C 0 km/h
2229 28-05-2008 14:14:03 28.2 C 7.15 g/m*3 28.2 C 0 km/h
2230 28-05-2008 14:26:02 27.5 C 7.67 g/m*3 27.5 C 0 km/h
2231 28-05-2008 14:38:02 27.6 C 7.98 g/m*3 27.6 C 0 km/h
2232 28-05-2008 14:50:02 27 C 7.72 g/m*3 27 C 0 km/h
2233 28-05-2008 15:02:03 27.2 C 7.55 g/m*3 27.2 C 0 km/h
2234 28-05-2008 15:14:03 26.8 C 7.64 g/m*3 26.8 C 0 km/h
2235 28-05-2008 15:26:02 26.9 C 8.19 g/m*3 26.9 C 0 km/h
2236 28-05-2008 15:38:02 27.4 C 7.63 g/m*3 27.4 C 0 km/h
2237 28-05-2008 15:50:01 28 C 7.89 g/m*3 28 C 0 km/h
2238 28-05-2008 16:02:02 27.9 C 7.3 g/m*3 27.9 C 0 km/h
2239 28-05-2008 16:14:02 27.7 C 7.76 g/m*3 27.7 C 0 km/h
2240 28-05-2008 16:26:02 28.1 C 7.38 g/m*3 28.1 C 0 km/h
2241 28-05-2008 16:38:01 28 C 7.34 g/m*3 28 C 0 km/h
2242 28-05-2008 16:50:02 28.2 C 7.7 g/m*3 28.2 C 0 km/h
2243 28-05-2008 17:02:01 28.2 C 7.7 g/m*3 28.2 C 0 km/h
2244 28-05-2008 17:14:01 28.2 C 7.97 g/m*3 28.2 C 0 km/h
2245 28-05-2008 17:26:02 28.5 C 7.83 g/m*3 28.5 C 0 km/h
2246 28-05-2008 17:38:02 28.2 C 7.97 g/m*3 28.2 C 0 km/h
2247 28-05-2008 17:50:03 28.5 C 7.83 g/m*3 28.5 C 0 km/h
2248 28-05-2008 18:02:02 28.6 C 7.87 g/m*3 28.6 C 0 km/h
2249 28-05-2008 18:14:02 29.2 C 8.13 g/m*3 29.2 C 0 km/h
2250 28-05-2008 18:26:02 28.8 C 7.96 g/m*3 28.8 C 0 km/h
Sensor: Nr:Datum:Temp:Abs-Feuchte:Windchill:Wind:
Aussen-T/F 2251 28-05-2008 18:38:03 28.9 C 8 g/m*3 28.9 C 0 km/h
2252 28-05-2008 18:50:02 28.7 C 8.19 g/m*3 28.7 C 0 km/h
2253 28-05-2008 19:02:02 28.7 C 8.48 g/m*3 28.7 C 0 km/h
2254 28-05-2008 19:14:03 28.3 C 8.29 g/m*3 28.3 C 0 km/h
2255 28-05-2008 19:26:02 27.5 C 8.2 g/m*3 27.5 C 0 km/h
2256 28-05-2008 19:38:02 27.2 C 8.33 g/m*3 27.2 C 0 km/h
2257 28-05-2008 19:50:02 26.9 C 8.7 g/m*3 26.9 C 0 km/h
2258 28-05-2008 20:02:03 27 C 9.01 g/m*3 27 C 0 km/h
2259 28-05-2008 20:14:03 26.7 C 9.11 g/m*3 26.7 C 0 km/h
2260 28-05-2008 20:26:02 26.1 C 9.3 g/m*3 26.1 C 0 km/h
2261 28-05-2008 20:38:02 25.6 C 9.28 g/m*3 25.6 C 0 km/h
2262 28-05-2008 20:50:02 25 C 9.21 g/m*3 25 C 0 km/h
2263 28-05-2008 21:02:02 24.4 C 9.35 g/m*3 24.4 C 0 km/h
2264 28-05-2008 21:14:02 24.1 C 9.41 g/m*3 24.1 C 0 km/h
2265 28-05-2008 21:26:02 23.4 C 9.46 g/m*3 23.4 C 0 km/h
2266 28-05-2008 21:38:02 23 C 9.45 g/m*3 23 C 0 km/h
2267 28-05-2008 21:50:02 22.6 C 9.84 g/m*3 22.6 C 0 km/h
2268 28-05-2008 22:02:03 22.4 C 9.73 g/m*3 22.4 C 0 km/h
2269 28-05-2008 22:14:03 22.4 C 9.73 g/m*3 22.4 C 0 km/h
2270 28-05-2008 22:27:01 22.2 C 9.62 g/m*3 22.2 C 0 km/h
2271 28-05-2008 22:39:01 22 C 9.7 g/m*3 22 C 0 km/h
2272 28-05-2008 22:51:01 21.8 C 9.78 g/m*3 21.8 C 0 km/h
2273 28-05-2008 23:03:01 21.7 C 9.92 g/m*3 21.7 C 0 km/h
2274 28-05-2008 23:15:01 21.5 C 9.81 g/m*3 21.5 C 0 km/h
2275 28-05-2008 23:27:01 21.1 C 9.95 g/m*3 21.1 C 0 km/h
Sensor: Nr:Datum:Temp:Abs-Feuchte:Windchill:Wind:
Aussen-T/F 2276 28-05-2008 23:39:01 21 C 10.26 g/m*3 21 C 0 km/h
2277 28-05-2008 23:51:01 20.9 C 10.38 g/m*3 20.9 C 0 km/h
2278 29-05-2008 00:03:01 20.8 C 10.32 g/m*3 20.8 C 0 km/h
2279 29-05-2008 00:15:01 20.7 C 10.44 g/m*3 20.7 C 0 km/h
2280 29-05-2008 00:27:01 20.7 C 10.62 g/m*3 20.7 C 0 km/h
2281 29-05-2008 00:39:01 20.7 C 10.62 g/m*3 20.7 C 0 km/h
2282 29-05-2008 00:51:02 20.4 C 10.44 g/m*3 20.4 C 0 km/h
2283 29-05-2008 01:03:02 20.3 C 10.55 g/m*3 20.3 C 0 km/h
2284 29-05-2008 01:15:02 20.1 C 10.43 g/m*3 20.1 C 0 km/h
2285 29-05-2008 01:27:02 19.7 C 10.7 g/m*3 19.7 C 0 km/h
2286 29-05-2008 01:39:02 19.5 C 10.74 g/m*3 19.5 C 0 km/h
2287 29-05-2008 01:51:02 19.4 C 10.68 g/m*3 19.4 C 0 km/h
2288 29-05-2008 02:03:02 19.3 C 10.62 g/m*3 19.3 C 0 km/h
2289 29-05-2008 02:15:02 19.2 C 10.72 g/m*3 19.2 C 0 km/h
2290 29-05-2008 02:27:02 19 C 10.76 g/m*3 19 C 0 km/h
2291 29-05-2008 02:39:02 18.8 C 10.95 g/m*3 18.8 C 0 km/h
2292 29-05-2008 02:51:02 18.3 C 10.79 g/m*3 18.3 C 0 km/h
2293 29-05-2008 03:03:02 18.3 C 10.94 g/m*3 18.3 C 0 km/h
2294 29-05-2008 03:15:02 18.3 C 11.1 g/m*3 18.3 C 0 km/h
2295 29-05-2008 03:27:02 18.2 C 11.19 g/m*3 18.2 C 0 km/h
2296 29-05-2008 03:39:02 18.4 C 11.17 g/m*3 18.4 C 0 km/h
2297 29-05-2008 03:51:02 18.5 C 11.23 g/m*3 18.5 C 0 km/h
2298 29-05-2008 04:03:02 18.6 C 11.14 g/m*3 18.6 C 0 km/h
2299 29-05-2008 04:15:02 18.5 C 11.08 g/m*3 18.5 C 0 km/h
2300 29-05-2008 04:27:02 18.5 C 11.23 g/m*3 18.5 C 0 km/h
Sensor: Nr:Datum:Temp:Abs-Feuchte:Windchill:Wind:
Aussen-T/F 2301 29-05-2008 04:39:02 18.3 C 11.26 g/m*3 18.3 C 0 km/h
2302 29-05-2008 04:51:03 18.1 C 11.12 g/m*3 18.1 C 0 km/h
2303 29-05-2008 05:03:03 18.2 C 11.35 g/m*3 18.2 C 0 km/h
2304 29-05-2008 05:15:03 18 C 11.21 g/m*3 18 C 0 km/h
2305 29-05-2008 05:27:03 17.9 C 11.45 g/m*3 17.9 C 0 km/h
2306 29-05-2008 05:39:03 17.7 C 11.47 g/m*3 17.7 C 0 km/h
2307 29-05-2008 05:51:03 17.7 C 11.32 g/m*3 17.7 C 0 km/h
2308 29-05-2008 06:03:03 18 C 11.52 g/m*3 18 C 0 km/h
2309 29-05-2008 06:15:03 18.1 C 11.43 g/m*3 18.1 C 0 km/h
2310 29-05-2008 06:27:03 18.2 C 11.5 g/m*3 18.2 C 0 km/h
2311 29-05-2008 06:39:03 18.4 C 11.48 g/m*3 18.4 C 0 km/h
2312 29-05-2008 06:51:03 18.7 C 11.69 g/m*3 18.7 C 0 km/h
2313 29-05-2008 07:03:02 19 C 11.57 g/m*3 19 C 0 km/h
2314 29-05-2008 07:15:01 19.3 C 11.44 g/m*3 19.3 C 0 km/h
2315 29-05-2008 07:27:01 19.4 C 11.51 g/m*3 19.4 C 0 km/h
2316 29-05-2008 07:39:01 19.7 C 11.55 g/m*3 19.7 C 0 km/h
2317 29-05-2008 07:51:02 20 C 11.23 g/m*3 20 C 0 km/h
2318 29-05-2008 08:03:03 20.3 C 11.43 g/m*3 20.3 C 0 km/h
2319 29-05-2008 08:15:02 20.7 C 11.52 g/m*3 20.7 C 0 km/h
2320 29-05-2008 08:27:02 21.1 C 11.24 g/m*3 21.1 C 0 km/h
2321 29-05-2008 08:39:02 21.1 C 11.24 g/m*3 21.1 C 0 km/h
2322 29-05-2008 08:51:02 21.8 C 11.51 g/m*3 21.8 C 0 km/h
2323 29-05-2008 09:03:01 22.5 C 11.39 g/m*3 22.5 C 0 km/h
2324 29-05-2008 09:15:02 22.6 C 11.05 g/m*3 22.6 C 0 km/h
2325 29-05-2008 09:27:02 22.8 C 11.38 g/m*3 22.8 C 0 km/h
Sensor: Nr:Datum:Temp:Abs-Feuchte:Windchill:Wind:
Aussen-T/F 2326 29-05-2008 09:39:02 23 C 11.3 g/m*3 23 C 0 km/h
2327 29-05-2008 09:51:02 23.2 C 11.43 g/m*3 23.2 C 0 km/h
2328 29-05-2008 10:03:02 23.8 C 11.4 g/m*3 23.8 C 0 km/h
2329 29-05-2008 10:15:02 24.3 C 10.84 g/m*3 24.3 C 0 km/h
2330 29-05-2008 10:27:02 24.5 C 10.97 g/m*3 24.5 C 0 km/h
2331 29-05-2008 10:39:02 24.7 C 11.09 g/m*3 24.7 C 0 km/h
2332 29-05-2008 10:51:01 24.4 C 11.13 g/m*3 24.4 C 0 km/h
2333 29-05-2008 11:03:01 24.2 C 11 g/m*3 24.2 C 0 km/h
2334 29-05-2008 11:15:02 23.8 C 11.19 g/m*3 23.8 C 0 km/h
2335 29-05-2008 11:27:02 23.3 C 11.5 g/m*3 23.3 C 0 km/h
2336 29-05-2008 11:39:01 23.7 C 11.34 g/m*3 23.7 C 0 km/h
2337 29-05-2008 11:51:02 24.5 C 11.19 g/m*3 24.5 C 0 km/h
2338 29-05-2008 12:03:01 25.4 C 11.06 g/m*3 25.4 C 0 km/h
2339 29-05-2008 12:15:02 25.9 C 10.89 g/m*3 25.9 C 0 km/h
2340 29-05-2008 12:27:02 25.4 C 10.83 g/m*3 25.4 C 0 km/h
2341 29-05-2008 12:39:02 25.9 C 11.14 g/m*3 25.9 C 0 km/h
2342 29-05-2008 12:51:03 25.4 C 10.83 g/m*3 25.4 C 0 km/h
2343 29-05-2008 13:03:02 27.3 C 10.47 g/m*3 27.3 C 0 km/h
2344 29-05-2008 13:15:02 26.2 C 10.34 g/m*3 26.2 C 0 km/h
2345 29-05-2008 13:27:02 26.7 C 10.63 g/m*3 26.7 C 0 km/h
2346 29-05-2008 13:39:03 26.6 C 10.82 g/m*3 26.6 C 0 km/h
2347 29-05-2008 13:51:02 27.1 C 10.61 g/m*3 27.1 C 0 km/h
2348 29-05-2008 14:03:02 26.7 C 10.38 g/m*3 26.7 C 0 km/h
2349 29-05-2008 14:15:02 26.6 C 10.82 g/m*3 26.6 C 0 km/h
2350 29-05-2008 14:27:02 27.2 C 10.67 g/m*3 27.2 C 0 km/h
Sensor: Nr:Datum:Temp:Abs-Feuchte:Windchill:Wind:
Aussen-T/F 2351 29-05-2008 14:39:02 28.2 C 11 g/m*3 28.2 C 0 km/h
2352 29-05-2008 14:51:02 29.3 C 10.8 g/m*3 29.3 C 0 km/h
2353 29-05-2008 15:03:02 29.5 C 10.33 g/m*3 29.5 C 0 km/h
2354 29-05-2008 15:15:02 30 C 10.92 g/m*3 30 C 0 km/h
2355 29-05-2008 15:27:02 30.7 C 10.39 g/m*3 30.7 C 0 km/h
2356 29-05-2008 15:39:02 30.9 C 10.19 g/m*3 30.9 C 0 km/h
2357 29-05-2008 15:51:02 30.8 C 10.45 g/m*3 30.8 C 0 km/h
2358 29-05-2008 16:03:03 30.8 C 10.76 g/m*3 30.8 C 0 km/h
2359 29-05-2008 16:15:02 31.4 C 10.14 g/m*3 31.4 C 0 km/h
2360 29-05-2008 16:27:02 31.4 C 10.14 g/m*3 31.4 C 0 km/h
2361 29-05-2008 16:39:02 31.3 C 10.08 g/m*3 31.3 C 0 km/h
2362 29-05-2008 16:51:02 31.2 C 10.67 g/m*3 31.2 C 0 km/h
2363 29-05-2008 17:03:02 30.4 C 11.47 g/m*3 30.4 C 0 km/h
2364 29-05-2008 17:15:28 29.2 C 12.2 g/m*3 29.2 C 0 km/h
2365 29-05-2008 17:27:28 28 C 12.51 g/m*3 28 C 0 km/h
2366 29-05-2008 17:39:28 27.3 C 12.82 g/m*3 27.3 C 0 km/h
2367 29-05-2008 17:51:28 26.9 C 13.05 g/m*3 26.9 C 0 km/h
2368 29-05-2008 18:03:28 26.2 C 12.8 g/m*3 26.2 C 0 km/h
2369 29-05-2008 18:15:28 26 C 13.15 g/m*3 26 C 0 km/h
2370 29-05-2008 18:27:28 25.7 C 13.41 g/m*3 25.7 C 0 km/h
2371 29-05-2008 18:39:28 25.4 C 13.18 g/m*3 25.4 C 0 km/h
2372 29-05-2008 18:51:28 25.6 C 13.33 g/m*3 25.6 C 0 km/h
2373 29-05-2008 19:03:28 25.7 C 13.41 g/m*3 25.7 C 0 km/h
2374 29-05-2008 19:15:29 24.5 C 11.19 g/m*3 24.5 C 0 km/h
2375 29-05-2008 19:27:03 24.2 C 11 g/m*3 24.2 C 0 km/h
Sensor: Nr:Datum:Temp:Abs-Feuchte:Windchill:Wind:
Aussen-T/F 2376 29-05-2008 19:39:03 24.2 C 11 g/m*3 24.2 C 0 km/h
2377 29-05-2008 19:51:03 24.9 C 11.67 g/m*3 24.9 C 0 km/h
2378 29-05-2008 20:03:02 25.6 C 10.71 g/m*3 25.6 C 0 km/h
2379 29-05-2008 20:15:02 25.5 C 10.89 g/m*3 25.5 C 0 km/h
2380 29-05-2008 20:27:02 24.9 C 10.99 g/m*3 24.9 C 0 km/h
2381 29-05-2008 20:39:03 24.3 C 10.62 g/m*3 24.3 C 0 km/h
2382 29-05-2008 20:51:02 24.1 C 10.72 g/m*3 24.1 C 0 km/h
2383 29-05-2008 21:03:02 23.6 C 10.63 g/m*3 23.6 C 0 km/h
2384 29-05-2008 21:15:02 23.2 C 10.6 g/m*3 23.2 C 0 km/h
2385 29-05-2008 21:27:02 22.7 C 10.71 g/m*3 22.7 C 0 km/h
2386 29-05-2008 21:39:02 22.4 C 10.53 g/m*3 22.4 C 0 km/h
2387 29-05-2008 21:51:02 22.1 C 10.54 g/m*3 22.1 C 0 km/h
2388 29-05-2008 22:03:02 21.9 C 10.61 g/m*3 21.9 C 0 km/h
2389 29-05-2008 22:15:02 21.9 C 10.61 g/m*3 21.9 C 0 km/h
2390 29-05-2008 22:27:02 21.7 C 10.49 g/m*3 21.7 C 0 km/h
2391 29-05-2008 22:39:02 21.4 C 10.87 g/m*3 21.4 C 0 km/h
2392 29-05-2008 22:52:06 21.2 C 10.93 g/m*3 21.2 C 0 km/h
2393 29-05-2008 23:04:06 20.9 C 11.47 g/m*3 20.9 C 0 km/h
2394 29-05-2008 23:16:07 20.7 C 11.52 g/m*3 20.7 C 0 km/h
2395 29-05-2008 23:28:07 20.6 C 11.81 g/m*3 20.6 C 0 km/h
2396 29-05-2008 23:40:07 20.4 C 11.85 g/m*3 20.4 C 0 km/h
2397 29-05-2008 23:52:07 20.3 C 12.31 g/m*3 20.3 C 0 km/h
2398 30-05-2008 00:04:07 20.1 C 11.99 g/m*3 20.1 C 0 km/h
2399 30-05-2008 00:16:07 20.5 C 13.35 g/m*3 20.5 C 0 km/h
2400 30-05-2008 00:28:07 20.9 C 13.84 g/m*3 20.9 C 0 km/h
Sensor: Nr:Datum:Temp:Abs-Feuchte:Windchill:Wind:
Aussen-T/F 2401 30-05-2008 00:40:07 21.3 C 13.98 g/m*3 21.3 C 0 km/h
2402 30-05-2008 00:52:07 21.6 C 14.03 g/m*3 21.6 C 0 km/h
2403 30-05-2008 01:04:07 21.7 C 13.93 g/m*3 21.7 C 0 km/h
2404 30-05-2008 01:16:07 21.6 C 13.85 g/m*3 21.6 C 0 km/h
2405 30-05-2008 01:28:07 21.5 C 13.77 g/m*3 21.5 C 0 km/h
2406 30-05-2008 01:40:07 21.5 C 13.58 g/m*3 21.5 C 0 km/h
2407 30-05-2008 01:52:07 21.5 C 13.39 g/m*3 21.5 C 0 km/h
2408 30-05-2008 02:04:07 21.4 C 13.12 g/m*3 21.4 C 0 km/h
2409 30-05-2008 02:16:07 21.2 C 12.97 g/m*3 21.2 C 0 km/h
2410 30-05-2008 02:28:07 21.2 C 12.97 g/m*3 21.2 C 0 km/h
2411 30-05-2008 02:40:07 21 C 12.82 g/m*3 21 C 0 km/h
2412 30-05-2008 02:52:07 21.1 C 12.9 g/m*3 21.1 C 0 km/h
2413 30-05-2008 03:04:07 21.1 C 12.71 g/m*3 21.1 C 0 km/h
2414 30-05-2008 03:16:08 21 C 12.64 g/m*3 21 C 0 km/h
2415 30-05-2008 03:28:08 20.9 C 12.57 g/m*3 20.9 C 0 km/h
2416 30-05-2008 03:40:08 20.7 C 12.24 g/m*3 20.7 C 0 km/h
2417 30-05-2008 03:52:08 18.4 C 11.8 g/m*3 18.4 C 0 km/h
2418 30-05-2008 04:04:08 17.9 C 12.67 g/m*3 17.9 C 0 km/h
2419 30-05-2008 04:16:08 18.2 C 13.06 g/m*3 18.2 C 0 km/h
2420 30-05-2008 04:28:08 18.5 C 13.29 g/m*3 18.5 C 0 km/h
2421 30-05-2008 04:40:08 18.6 C 13.21 g/m*3 18.6 C 0 km/h
2422 30-05-2008 04:52:08 18.7 C 13.13 g/m*3 18.7 C 0 km/h
2423 30-05-2008 05:04:08 18.8 C 13.21 g/m*3 18.8 C 0 km/h
2424 30-05-2008 05:16:08 18.7 C 12.97 g/m*3 18.7 C 0 km/h
2425 30-05-2008 05:28:08 18.8 C 13.21 g/m*3 18.8 C 0 km/h
Sensor: Nr:Datum:Temp:Abs-Feuchte:Windchill:Wind:
Aussen-T/F 2426 30-05-2008 05:40:08 18.5 C 12.97 g/m*3 18.5 C 0 km/h
2427 30-05-2008 05:52:08 18.2 C 13.21 g/m*3 18.2 C 0 km/h
2428 30-05-2008 06:04:08 18.1 C 13.44 g/m*3 18.1 C 0 km/h
2429 30-05-2008 06:16:08 17.9 C 13.59 g/m*3 17.9 C 0 km/h
2430 30-05-2008 06:28:08 17.9 C 13.59 g/m*3 17.9 C 0 km/h
2431 30-05-2008 06:40:08 17.9 C 13.74 g/m*3 17.9 C 0 km/h
2432 30-05-2008 06:52:08 17.5 C 13.42 g/m*3 17.5 C 0 km/h
2433 30-05-2008 07:04:04 17.5 C 13.72 g/m*3 17.5 C 0 km/h
2434 30-05-2008 07:16:03 17.7 C 13.88 g/m*3 17.7 C 0 km/h
2435 30-05-2008 07:28:03 17.7 C 14.03 g/m*3 17.7 C 0 km/h
2436 30-05-2008 07:40:03 17.5 C 13.72 g/m*3 17.5 C 0 km/h
2437 30-05-2008 07:52:01 17.4 C 13.78 g/m*3 17.4 C 0 km/h
2438 30-05-2008 08:04:02 17.3 C 13.55 g/m*3 17.3 C 0 km/h
2439 30-05-2008 08:16:01 17.3 C 13.41 g/m*3 17.3 C 0 km/h
2440 30-05-2008 08:28:01 17.5 C 13.42 g/m*3 17.5 C 0 km/h
2441 30-05-2008 08:40:02 17.5 C 13.42 g/m*3 17.5 C 0 km/h
2442 30-05-2008 08:52:02 17.5 C 13.42 g/m*3 17.5 C 0 km/h
2443 30-05-2008 09:04:02 17.5 C 13.27 g/m*3 17.5 C 0 km/h
2444 30-05-2008 09:16:02 17.5 C 13.27 g/m*3 17.5 C 0 km/h
2445 30-05-2008 09:28:02 17.7 C 13.28 g/m*3 17.7 C 0 km/h
2446 30-05-2008 09:40:02 18.2 C 13.52 g/m*3 18.2 C 0 km/h
2447 30-05-2008 09:52:02 18.3 C 13.29 g/m*3 18.3 C 0 km/h
2448 30-05-2008 10:04:03 18.6 C 13.53 g/m*3 18.6 C 0 km/h
2449 30-05-2008 10:16:02 18.9 C 13.77 g/m*3 18.9 C 0 km/h
2450 30-05-2008 10:28:03 19.3 C 13.77 g/m*3 19.3 C 0 km/h
Sensor: Nr:Datum:Temp:Abs-Feuchte:Windchill:Wind:
Aussen-T/F 2451 30-05-2008 10:40:02 20 C 14.17 g/m*3 20 C 0 km/h
2452 30-05-2008 10:52:01 20.4 C 13.8 g/m*3 20.4 C 0 km/h
2453 30-05-2008 11:04:01 20.9 C 13.3 g/m*3 20.9 C 0 km/h
2454 30-05-2008 11:16:02 21.2 C 13.34 g/m*3 21.2 C 0 km/h
2455 30-05-2008 11:28:02 20.8 C 13.04 g/m*3 20.8 C 0 km/h
2456 30-05-2008 11:40:01 20.9 C 13.48 g/m*3 20.9 C 0 km/h
2457 30-05-2008 11:52:02 21 C 13.74 g/m*3 21 C 0 km/h
2458 30-05-2008 12:04:01 20.8 C 13.22 g/m*3 20.8 C 0 km/h
2459 30-05-2008 12:16:01 20.5 C 12.63 g/m*3 20.5 C 0 km/h
2460 30-05-2008 12:28:01 20.8 C 13.22 g/m*3 20.8 C 0 km/h
2461 30-05-2008 12:40:02 20.8 C 12.86 g/m*3 20.8 C 0 km/h
2462 30-05-2008 12:52:03 21.2 C 13.16 g/m*3 21.2 C 0 km/h
2463 30-05-2008 13:04:02 21.4 C 12.94 g/m*3 21.4 C 0 km/h
2464 30-05-2008 13:16:02 21.6 C 13.09 g/m*3 21.6 C 0 km/h
2465 30-05-2008 13:28:02 21.6 C 12.71 g/m*3 21.6 C 0 km/h
2466 30-05-2008 13:40:03 21.4 C 12.56 g/m*3 21.4 C 0 km/h
2467 30-05-2008 13:52:02 21.4 C 12.75 g/m*3 21.4 C 0 km/h
2468 30-05-2008 14:04:02 21.5 C 12.63 g/m*3 21.5 C 0 km/h
2469 30-05-2008 14:16:02 21.5 C 12.82 g/m*3 21.5 C 0 km/h
2470 30-05-2008 14:28:02 21.3 C 12.68 g/m*3 21.3 C 0 km/h
2471 30-05-2008 14:40:02 21.3 C 12.68 g/m*3 21.3 C 0 km/h
2472 30-05-2008 14:52:02 21.6 C 13.09 g/m*3 21.6 C 0 km/h
2473 30-05-2008 15:04:02 22.7 C 12.93 g/m*3 22.7 C 0 km/h
2474 30-05-2008 15:16:02 23.2 C 12.27 g/m*3 23.2 C 0 km/h
2475 30-05-2008 15:28:02 23.3 C 12.34 g/m*3 23.3 C 0 km/h
Sensor: Nr:Datum:Temp:Abs-Feuchte:Windchill:Wind:
Aussen-T/F 2476 30-05-2008 15:40:02 23.5 C 12.48 g/m*3 23.5 C 0 km/h
2477 30-05-2008 15:52:01 24.3 C 12.39 g/m*3 24.3 C 0 km/h
2478 30-05-2008 16:04:01 24.5 C 12.31 g/m*3 24.5 C 0 km/h
2479 30-05-2008 16:16:02 24.8 C 12.06 g/m*3 24.8 C 0 km/h
2480 30-05-2008 16:28:02 24.4 C 12.02 g/m*3 24.4 C 0 km/h
2481 30-05-2008 16:40:02 24.3 C 11.73 g/m*3 24.3 C 0 km/h
2482 30-05-2008 16:52:02 24.1 C 11.6 g/m*3 24.1 C 0 km/h
2483 30-05-2008 17:04:02 24.3 C 12.17 g/m*3 24.3 C 0 km/h
2484 30-05-2008 17:16:02 24.3 C 12.17 g/m*3 24.3 C 0 km/h
2485 30-05-2008 17:28:02 24.9 C 11.9 g/m*3 24.9 C 0 km/h
2486 30-05-2008 17:40:02 24.1 C 11.82 g/m*3 24.1 C 0 km/h
2487 30-05-2008 17:52:02 24.5 C 12.09 g/m*3 24.5 C 0 km/h
2488 30-05-2008 18:04:02 25.3 C 11.94 g/m*3 25.3 C 0 km/h
2489 30-05-2008 18:16:02 24.3 C 11.73 g/m*3 24.3 C 0 km/h
2490 30-05-2008 18:28:03 23.7 C 12.19 g/m*3 23.7 C 0 km/h
2491 30-05-2008 18:40:02 23.1 C 11.99 g/m*3 23.1 C 0 km/h
2492 30-05-2008 18:52:02 22.9 C 12.26 g/m*3 22.9 C 0 km/h
2493 30-05-2008 19:04:02 22.7 C 12.32 g/m*3 22.7 C 0 km/h
2494 30-05-2008 19:16:02 22.4 C 12.31 g/m*3 22.4 C 0 km/h
2495 30-05-2008 19:28:02 22.3 C 12.44 g/m*3 22.3 C 0 km/h
2496 30-05-2008 19:40:01 22.1 C 12.49 g/m*3 22.1 C 0 km/h
2497 30-05-2008 19:52:02 21.9 C 12.74 g/m*3 21.9 C 0 km/h
2498 30-05-2008 20:04:20 21.2 C 13.16 g/m*3 21.2 C 0 km/h
2499 30-05-2008 20:16:20 21 C 13.19 g/m*3 21 C 0 km/h
2500 30-05-2008 20:28:20 20.3 C 13.37 g/m*3 20.3 C 0 km/h
Sensor: Nr:Datum:Temp:Abs-Feuchte:Windchill:Wind:
Aussen-T/F 2501 30-05-2008 20:40:20 19.8 C 13.84 g/m*3 19.8 C 0 km/h
2502 30-05-2008 20:52:01 19.3 C 13.93 g/m*3 19.3 C 0 km/h
2503 30-05-2008 21:04:03 19.1 C 14.1 g/m*3 19.1 C 0 km/h
2504 30-05-2008 21:16:03 18.9 C 14.26 g/m*3 18.9 C 0 km/h
2505 30-05-2008 21:28:03 18.7 C 14.25 g/m*3 18.7 C 0 km/h
2506 30-05-2008 21:40:02 18.8 C 14.49 g/m*3 18.8 C 0 km/h
2507 30-05-2008 21:52:02 18.8 C 14.66 g/m*3 18.8 C 0 km/h
2508 30-05-2008 22:04:01 18.4 C 14.31 g/m*3 18.4 C 0 km/h
2509 30-05-2008 22:17:03 17.9 C 13.89 g/m*3 17.9 C 0 km/h
2510 30-05-2008 22:29:03 17.8 C 13.96 g/m*3 17.8 C 0 km/h
2511 30-05-2008 22:41:03 17.6 C 13.8 g/m*3 17.6 C 0 km/h
2512 30-05-2008 22:53:04 17.8 C 14.12 g/m*3 17.8 C 0 km/h
2513 30-05-2008 23:05:04 17.8 C 13.96 g/m*3 17.8 C 0 km/h
2514 30-05-2008 23:17:04 17.6 C 13.8 g/m*3 17.6 C 0 km/h
2515 30-05-2008 23:29:04 17.5 C 13.72 g/m*3 17.5 C 0 km/h
2516 30-05-2008 23:41:04 17.5 C 13.72 g/m*3 17.5 C 0 km/h
2517 30-05-2008 23:53:04 17.5 C 13.72 g/m*3 17.5 C 0 km/h
2518 31-05-2008 00:05:04 17.4 C 13.49 g/m*3 17.4 C 0 km/h
2519 31-05-2008 00:17:04 17.4 C 13.34 g/m*3 17.4 C 0 km/h
2520 31-05-2008 00:29:04 17.5 C 13.27 g/m*3 17.5 C 0 km/h
2521 31-05-2008 00:41:04 17.5 C 13.27 g/m*3 17.5 C 0 km/h
2522 31-05-2008 00:53:04 17.3 C 12.96 g/m*3 17.3 C 0 km/h
2523 31-05-2008 01:05:04 17.3 C 12.82 g/m*3 17.3 C 0 km/h
2524 31-05-2008 01:17:04 17.1 C 12.52 g/m*3 17.1 C 0 km/h
2525 31-05-2008 01:29:04 17 C 12.44 g/m*3 17 C 0 km/h
Sensor: Nr:Datum:Temp:Abs-Feuchte:Windchill:Wind:
Aussen-T/F 2526 31-05-2008 01:41:04 17 C 12.44 g/m*3 17 C 0 km/h
2527 31-05-2008 01:53:04 16.9 C 12.51 g/m*3 16.9 C 0 km/h
2528 31-05-2008 02:05:04 16.8 C 12.58 g/m*3 16.8 C 0 km/h
2529 31-05-2008 02:17:04 16.8 C 12.58 g/m*3 16.8 C 0 km/h
2530 31-05-2008 02:29:04 16.8 C 12.58 g/m*3 16.8 C 0 km/h
2531 31-05-2008 02:41:04 16.8 C 12.44 g/m*3 16.8 C 0 km/h
2532 31-05-2008 02:53:04 16.7 C 12.36 g/m*3 16.7 C 0 km/h
2533 31-05-2008 03:05:05 16.6 C 12.29 g/m*3 16.6 C 0 km/h
2534 31-05-2008 03:17:05 16.7 C 12.51 g/m*3 16.7 C 0 km/h
2535 31-05-2008 03:29:05 16.6 C 12.29 g/m*3 16.6 C 0 km/h
2536 31-05-2008 03:41:05 16.7 C 12.22 g/m*3 16.7 C 0 km/h
2537 31-05-2008 03:53:05 16.7 C 12.22 g/m*3 16.7 C 0 km/h
2538 31-05-2008 04:05:05 16.8 C 12.3 g/m*3 16.8 C 0 km/h
2539 31-05-2008 04:17:05 16.7 C 12.22 g/m*3 16.7 C 0 km/h
2540 31-05-2008 04:29:05 16.6 C 12.15 g/m*3 16.6 C 0 km/h
2541 31-05-2008 04:41:05 16.6 C 12.15 g/m*3 16.6 C 0 km/h
2542 31-05-2008 04:53:05 16.6 C 12.15 g/m*3 16.6 C 0 km/h
2543 31-05-2008 05:05:05 16.5 C 11.94 g/m*3 16.5 C 0 km/h
2544 31-05-2008 05:17:05 16.4 C 11.86 g/m*3 16.4 C 0 km/h
2545 31-05-2008 05:29:05 16.4 C 11.86 g/m*3 16.4 C 0 km/h
2546 31-05-2008 05:41:05 16.3 C 11.79 g/m*3 16.3 C 0 km/h
2547 31-05-2008 05:53:05 16.1 C 11.65 g/m*3 16.1 C 0 km/h
2548 31-05-2008 06:05:05 16.1 C 11.79 g/m*3 16.1 C 0 km/h
2549 31-05-2008 06:17:05 16.1 C 11.79 g/m*3 16.1 C 0 km/h
2550 31-05-2008 06:29:05 16.2 C 11.86 g/m*3 16.2 C 0 km/h
Sensor: Nr:Datum:Temp:Abs-Feuchte:Windchill:Wind:
Aussen-T/F 2551 31-05-2008 06:41:05 16.3 C 11.93 g/m*3 16.3 C 0 km/h
2552 31-05-2008 06:53:05 16.4 C 11.86 g/m*3 16.4 C 0 km/h
2553 31-05-2008 07:05:05 16.1 C 11.65 g/m*3 16.1 C 0 km/h
2554 31-05-2008 07:17:06 16.2 C 11.72 g/m*3 16.2 C 0 km/h
2555 31-05-2008 07:29:06 16.2 C 11.72 g/m*3 16.2 C 0 km/h
2556 31-05-2008 07:41:03 16.2 C 11.58 g/m*3 16.2 C 0 km/h
2557 31-05-2008 07:53:02 16.3 C 11.52 g/m*3 16.3 C 0 km/h
2558 31-05-2008 08:05:02 16.2 C 11.45 g/m*3 16.2 C 0 km/h
2559 31-05-2008 08:17:02 16 C 11.31 g/m*3 16 C 0 km/h
2560 31-05-2008 08:29:02 16 C 11.31 g/m*3 16 C 0 km/h
2561 31-05-2008 08:41:02 15.9 C 11.38 g/m*3 15.9 C 0 km/h
2562 31-05-2008 08:53:02 15.9 C 11.38 g/m*3 15.9 C 0 km/h
2563 31-05-2008 09:05:02 16.1 C 11.38 g/m*3 16.1 C 0 km/h
2564 31-05-2008 09:17:03 16.1 C 11.24 g/m*3 16.1 C 0 km/h
2565 31-05-2008 09:29:03 16.2 C 11.31 g/m*3 16.2 C 0 km/h
2566 31-05-2008 09:41:02 16.2 C 11.17 g/m*3 16.2 C 0 km/h
2567 31-05-2008 09:53:02 16.2 C 11.31 g/m*3 16.2 C 0 km/h
2568 31-05-2008 10:05:02 16.1 C 11.1 g/m*3 16.1 C 0 km/h
2569 31-05-2008 10:17:02 16.3 C 11.24 g/m*3 16.3 C 0 km/h
2570 31-05-2008 10:29:02 16.4 C 11.17 g/m*3 16.4 C 0 km/h
2571 31-05-2008 10:41:02 16.4 C 11.31 g/m*3 16.4 C 0 km/h
2572 31-05-2008 10:53:02 16.6 C 11.16 g/m*3 16.6 C 0 km/h
2573 31-05-2008 11:05:02 16.9 C 11.22 g/m*3 16.9 C 0 km/h
2574 31-05-2008 11:17:01 16.8 C 11.15 g/m*3 16.8 C 0 km/h
2575 31-05-2008 11:29:01 17 C 11.14 g/m*3 17 C 0 km/h
Sensor: Nr:Datum:Temp:Abs-Feuchte:Windchill:Wind:
Aussen-T/F 2576 31-05-2008 11:41:02 17.6 C 11.25 g/m*3 17.6 C 0 km/h
2577 31-05-2008 11:53:02 17.6 C 10.8 g/m*3 17.6 C 0 km/h
2578 31-05-2008 12:05:02 17.9 C 10.99 g/m*3 17.9 C 0 km/h
2579 31-05-2008 12:17:01 17.8 C 10.93 g/m*3 17.8 C 0 km/h
2580 31-05-2008 12:29:01 17.6 C 10.95 g/m*3 17.6 C 0 km/h
2581 31-05-2008 12:41:01 17.7 C 11.16 g/m*3 17.7 C 0 km/h
2582 31-05-2008 12:53:01 17.9 C 10.99 g/m*3 17.9 C 0 km/h
2583 31-05-2008 13:05:02 17.5 C 11.18 g/m*3 17.5 C 0 km/h
2584 31-05-2008 13:17:01 17.1 C 11.5 g/m*3 17.1 C 0 km/h
2585 31-05-2008 13:29:01 16.7 C 11.51 g/m*3 16.7 C 0 km/h
2586 31-05-2008 13:41:01 16.6 C 11.72 g/m*3 16.6 C 0 km/h
2587 31-05-2008 13:53:01 16.3 C 11.65 g/m*3 16.3 C 0 km/h
2588 31-05-2008 14:05:02 16.2 C 11.86 g/m*3 16.2 C 0 km/h
2589 31-05-2008 14:17:01 15.9 C 11.92 g/m*3 15.9 C 0 km/h
2590 31-05-2008 14:29:02 15.7 C 11.91 g/m*3 15.7 C 0 km/h
2591 31-05-2008 14:41:01 15.7 C 12.18 g/m*3 15.7 C 0 km/h
2592 31-05-2008 14:53:01 15.7 C 12.18 g/m*3 15.7 C 0 km/h
2593 31-05-2008 15:05:01 16.4 C 12.7 g/m*3 16.4 C 0 km/h
2594 31-05-2008 15:17:01 17 C 13.17 g/m*3 17 C 0 km/h
2595 31-05-2008 15:29:01 18.3 C 13.76 g/m*3 18.3 C 0 km/h
2596 31-05-2008 15:41:02 18.7 C 13.77 g/m*3 18.7 C 0 km/h
2597 31-05-2008 15:53:01 19.1 C 12.95 g/m*3 19.1 C 0 km/h
2598 31-05-2008 16:05:02 19.1 C 12.62 g/m*3 19.1 C 0 km/h
2599 31-05-2008 16:17:02 19.5 C 12.75 g/m*3 19.5 C 0 km/h
2600 31-05-2008 16:29:03 20 C 12.79 g/m*3 20 C 0 km/h
Sensor: Nr:Datum:Temp:Abs-Feuchte:Windchill:Wind:
Aussen-T/F 2601 31-05-2008 16:41:01 20 C 12.96 g/m*3 20 C 0 km/h
2602 31-05-2008 16:53:01 20.4 C 13.09 g/m*3 20.4 C 0 km/h
2603 31-05-2008 17:05:01 21 C 11.91 g/m*3 21 C 0 km/h
2604 31-05-2008 17:17:02 20.7 C 11.7 g/m*3 20.7 C 0 km/h
2605 31-05-2008 17:29:02 21.4 C 11.81 g/m*3 21.4 C 0 km/h
2606 31-05-2008 17:41:02 21.5 C 12.07 g/m*3 21.5 C 0 km/h
2607 31-05-2008 17:53:02 21.4 C 11.44 g/m*3 21.4 C 0 km/h
2608 31-05-2008 18:05:02 21.5 C 11.13 g/m*3 21.5 C 0 km/h
2609 31-05-2008 18:17:03 22 C 11.26 g/m*3 22 C 0 km/h
2610 31-05-2008 18:29:03 22.5 C 11.78 g/m*3 22.5 C 0 km/h
2611 31-05-2008 18:41:02 23.7 C 11.12 g/m*3 23.7 C 0 km/h
2612 31-05-2008 18:53:02 21.9 C 11.19 g/m*3 21.9 C 0 km/h
2613 31-05-2008 19:05:02 22 C 11.45 g/m*3 22 C 0 km/h
2614 31-05-2008 19:17:02 22.1 C 11.52 g/m*3 22.1 C 0 km/h
2615 31-05-2008 19:29:02 22.1 C 11.32 g/m*3 22.1 C 0 km/h
2616 31-05-2008 19:41:02 21.5 C 11.69 g/m*3 21.5 C 0 km/h
2617 31-05-2008 19:53:02 21.1 C 11.79 g/m*3 21.1 C 0 km/h
2618 31-05-2008 20:05:02 20.9 C 12.2 g/m*3 20.9 C 0 km/h
2619 31-05-2008 20:17:02 20.6 C 12.35 g/m*3 20.6 C 0 km/h
2620 31-05-2008 20:29:02 20.2 C 12.41 g/m*3 20.2 C 0 km/h
2621 31-05-2008 20:41:02 20.4 C 12.74 g/m*3 20.4 C 0 km/h
2622 31-05-2008 20:53:01 19.9 C 12.37 g/m*3 19.9 C 0 km/h
2623 31-05-2008 21:05:01 19.5 C 12.59 g/m*3 19.5 C 0 km/h
2624 31-05-2008 21:17:02 19.1 C 12.46 g/m*3 19.1 C 0 km/h
2625 31-05-2008 21:29:02 18.6 C 12.57 g/m*3 18.6 C 0 km/h
Sensor: Nr:Datum:Temp:Abs-Feuchte:Windchill:Wind:
Aussen-T/F 2626 31-05-2008 21:41:01 18.2 C 12.43 g/m*3 18.2 C 0 km/h
2627 31-05-2008 21:53:01 17.7 C 12.37 g/m*3 17.7 C 0 km/h
2628 31-05-2008 22:05:02 17.5 C 12.37 g/m*3 17.5 C 0 km/h
2629 31-05-2008 22:17:02 17.2 C 12.3 g/m*3 17.2 C 0 km/h
2630 31-05-2008 22:29:02 16.9 C 12.51 g/m*3 16.9 C 0 km/h
2631 31-05-2008 22:41:01 16.6 C 12.43 g/m*3 16.6 C 0 km/h
2632 31-05-2008 22:54:02 16.6 C 12.43 g/m*3 16.6 C 0 km/h
2633 31-05-2008 23:06:02 16.5 C 12.22 g/m*3 16.5 C 0 km/h
2634 31-05-2008 23:18:02 16.2 C 11.72 g/m*3 16.2 C 0 km/h
2635 31-05-2008 23:30:02 16 C 11.44 g/m*3 16 C 0 km/h
2636 31-05-2008 23:42:02 15.9 C 11.51 g/m*3 15.9 C 0 km/h
2637 31-05-2008 23:54:02 15.8 C 11.44 g/m*3 15.8 C 0 km/h
2638 01-06-2008 00:06:02 15.6 C 11.3 g/m*3 15.6 C 0 km/h
2639 01-06-2008 00:18:03 15.5 C 11.37 g/m*3 15.5 C 0 km/h
2640 01-06-2008 00:30:03 15.3 C 11.1 g/m*3 15.3 C 0 km/h
2641 01-06-2008 00:42:03 15 C 11.03 g/m*3 15 C 0 km/h
2642 01-06-2008 00:54:03 14.8 C 11.02 g/m*3 14.8 C 0 km/h
2643 01-06-2008 01:06:03 14.7 C 11.08 g/m*3 14.7 C 0 km/h
2644 01-06-2008 01:18:03 14.6 C 11.01 g/m*3 14.6 C 0 km/h
2645 01-06-2008 01:30:03 14.5 C 10.94 g/m*3 14.5 C 0 km/h
2646 01-06-2008 01:42:03 14.7 C 11.21 g/m*3 14.7 C 0 km/h
2647 01-06-2008 01:54:03 14.6 C 11.14 g/m*3 14.6 C 0 km/h
2648 01-06-2008 02:06:03 14.6 C 11.14 g/m*3 14.6 C 0 km/h
2649 01-06-2008 02:18:03 14.9 C 11.34 g/m*3 14.9 C 0 km/h
2650 01-06-2008 02:30:03 15.1 C 11.35 g/m*3 15.1 C 0 km/h
Sensor: Nr:Datum:Temp:Abs-Feuchte:Windchill:Wind:
Aussen-T/F 2651 01-06-2008 02:42:03 15.3 C 11.49 g/m*3 15.3 C 0 km/h
2652 01-06-2008 02:54:03 15.4 C 11.56 g/m*3 15.4 C 0 km/h
2653 01-06-2008 03:06:03 15.4 C 11.56 g/m*3 15.4 C 0 km/h
2654 01-06-2008 03:18:03 15.5 C 11.5 g/m*3 15.5 C 0 km/h
2655 01-06-2008 03:30:03 15.6 C 11.57 g/m*3 15.6 C 0 km/h
2656 01-06-2008 03:42:03 15.5 C 11.5 g/m*3 15.5 C 0 km/h
2657 01-06-2008 03:54:03 15.5 C 11.5 g/m*3 15.5 C 0 km/h
2658 01-06-2008 04:06:04 15 C 11.16 g/m*3 15 C 0 km/h
2659 01-06-2008 04:18:04 14.7 C 11.08 g/m*3 14.7 C 0 km/h
2660 01-06-2008 04:30:04 14.6 C 11.14 g/m*3 14.6 C 0 km/h
2661 01-06-2008 04:42:04 14.6 C 11.14 g/m*3 14.6 C 0 km/h
2662 01-06-2008 04:54:04 14.2 C 10.87 g/m*3 14.2 C 0 km/h
2663 01-06-2008 05:06:04 14.1 C 10.92 g/m*3 14.1 C 0 km/h
2664 01-06-2008 05:18:04 14.7 C 11.46 g/m*3 14.7 C 0 km/h
2665 01-06-2008 05:30:04 14.8 C 11.53 g/m*3 14.8 C 0 km/h
2666 01-06-2008 05:42:04 14.5 C 11.32 g/m*3 14.5 C 0 km/h
2667 01-06-2008 05:54:04 14.4 C 11.13 g/m*3 14.4 C 0 km/h
2668 01-06-2008 06:06:04 14.2 C 10.99 g/m*3 14.2 C 0 km/h
2669 01-06-2008 06:18:04 14.6 C 11.39 g/m*3 14.6 C 0 km/h
2670 01-06-2008 06:30:04 14.8 C 11.53 g/m*3 14.8 C 0 km/h
2671 01-06-2008 06:42:04 15.2 C 11.81 g/m*3 15.2 C 0 km/h
2672 01-06-2008 06:54:04 15.5 C 12.03 g/m*3 15.5 C 0 km/h
2673 01-06-2008 07:06:04 15.9 C 12.32 g/m*3 15.9 C 0 km/h
2674 01-06-2008 07:18:04 15.9 C 11.92 g/m*3 15.9 C 0 km/h
2675 01-06-2008 07:30:04 16.2 C 11.86 g/m*3 16.2 C 0 km/h
Sensor: Nr:Datum:Temp:Abs-Feuchte:Windchill:Wind:
Aussen-T/F 2676 01-06-2008 07:42:04 16.7 C 11.94 g/m*3 16.7 C 0 km/h
2677 01-06-2008 07:54:04 16.8 C 11.72 g/m*3 16.8 C 0 km/h
2678 01-06-2008 08:06:05 17.1 C 11.5 g/m*3 17.1 C 0 km/h
2679 01-06-2008 08:18:05 17.4 C 11.26 g/m*3 17.4 C 0 km/h
2680 01-06-2008 08:30:05 17.4 C 11.12 g/m*3 17.4 C 0 km/h
2681 01-06-2008 08:42:03 17.5 C 11.33 g/m*3 17.5 C 0 km/h
2682 01-06-2008 08:54:03 17.9 C 10.99 g/m*3 17.9 C 0 km/h
2683 01-06-2008 09:06:02 18.2 C 11.04 g/m*3 18.2 C 0 km/h
2684 01-06-2008 09:18:02 18.5 C 10.76 g/m*3 18.5 C 0 km/h
2685 01-06-2008 09:30:02 19 C 10.92 g/m*3 19 C 0 km/h
2686 01-06-2008 09:42:03 19.2 C 10.88 g/m*3 19.2 C 0 km/h
2687 01-06-2008 09:54:03 19.6 C 10.8 g/m*3 19.6 C 0 km/h
2688 01-06-2008 10:06:02 20.3 C 10.55 g/m*3 20.3 C 0 km/h
2689 01-06-2008 10:18:02 20.5 C 10.32 g/m*3 20.5 C 0 km/h
2690 01-06-2008 10:30:02 20.8 C 10.5 g/m*3 20.8 C 0 km/h
2691 01-06-2008 10:42:03 20.8 C 10.32 g/m*3 20.8 C 0 km/h
2692 01-06-2008 10:54:02 21.3 C 10.81 g/m*3 21.3 C 0 km/h
2693 01-06-2008 11:06:02 22 C 10.48 g/m*3 22 C 0 km/h
2694 01-06-2008 11:18:02 22.5 C 10.59 g/m*3 22.5 C 0 km/h
2695 01-06-2008 11:30:02 23.6 C 10.63 g/m*3 23.6 C 0 km/h
2696 01-06-2008 11:42:02 23.6 C 10.42 g/m*3 23.6 C 0 km/h
2697 01-06-2008 11:54:01 23.8 C 10.33 g/m*3 23.8 C 0 km/h
2698 01-06-2008 12:06:01 25.4 C 9.89 g/m*3 25.4 C 0 km/h
2699 01-06-2008 12:18:02 26 C 9.25 g/m*3 26 C 0 km/h
2700 01-06-2008 12:30:02 26 C 9.25 g/m*3 26 C 0 km/h
Sensor: Nr:Datum:Temp:Abs-Feuchte:Windchill:Wind:
Aussen-T/F 2701 01-06-2008 12:42:02 26.7 C 9.62 g/m*3 26.7 C 0 km/h
2702 01-06-2008 12:54:02 26.4 C 8.96 g/m*3 26.4 C 0 km/h
2703 01-06-2008 13:06:02 27.5 C 9.26 g/m*3 27.5 C 0 km/h
2704 01-06-2008 13:18:02 27.2 C 8.59 g/m*3 27.2 C 0 km/h
2705 01-06-2008 13:30:02 28 C 8.43 g/m*3 28 C 0 km/h
2706 01-06-2008 13:42:02 27.9 C 8.65 g/m*3 27.9 C 0 km/h
2707 01-06-2008 13:54:02 28.6 C 8.43 g/m*3 28.6 C 0 km/h
2708 01-06-2008 14:06:02 28 C 8.7 g/m*3 28 C 0 km/h
2709 01-06-2008 14:18:02 27.3 C 9.16 g/m*3 27.3 C 0 km/h
2710 01-06-2008 14:30:02 28.3 C 9.4 g/m*3 28.3 C 0 km/h
2711 01-06-2008 14:42:01 28.4 C 9.17 g/m*3 28.4 C 0 km/h
2712 01-06-2008 14:54:01 29 C 8.9 g/m*3 29 C 0 km/h
2713 01-06-2008 15:06:02 28 C 8.7 g/m*3 28 C 0 km/h
2714 01-06-2008 15:18:02 29.3 C 9.63 g/m*3 29.3 C 0 km/h
2715 01-06-2008 15:30:02 29.3 C 9.05 g/m*3 29.3 C 0 km/h
2716 01-06-2008 15:42:02 30.1 C 9.15 g/m*3 30.1 C 0 km/h
2717 01-06-2008 15:54:02 29.2 C 9.29 g/m*3 29.2 C 0 km/h
2718 01-06-2008 16:06:02 28.9 C 9.43 g/m*3 28.9 C 0 km/h
2719 01-06-2008 16:18:02 28.8 C 9.38 g/m*3 28.8 C 0 km/h
2720 01-06-2008 16:30:02 29.3 C 9.05 g/m*3 29.3 C 0 km/h
2721 01-06-2008 16:42:02 30.1 C 9.15 g/m*3 30.1 C 0 km/h
2722 01-06-2008 16:54:02 29.6 C 9.2 g/m*3 29.6 C 0 km/h
2723 01-06-2008 17:06:02 28.7 C 9.32 g/m*3 28.7 C 0 km/h
2724 01-06-2008 17:18:03 28.4 C 10.01 g/m*3 28.4 C 0 km/h
2725 01-06-2008 17:30:03 28.7 C 11.3 g/m*3 28.7 C 0 km/h
Sensor: Nr:Datum:Temp:Abs-Feuchte:Windchill:Wind:
Aussen-T/F 2726 01-06-2008 17:42:03 28.6 C 10.68 g/m*3 28.6 C 0 km/h
2727 01-06-2008 17:54:02 28.4 C 11.12 g/m*3 28.4 C 0 km/h
2728 01-06-2008 18:06:03 28.4 C 11.4 g/m*3 28.4 C 0 km/h
2729 01-06-2008 18:18:03 28 C 11.42 g/m*3 28 C 0 km/h
2730 01-06-2008 18:30:03 27.6 C 10.91 g/m*3 27.6 C 0 km/h
2731 01-06-2008 18:42:02 26.8 C 11.45 g/m*3 26.8 C 0 km/h
2732 01-06-2008 18:54:02 26.4 C 11.7 g/m*3 26.4 C 0 km/h
2733 01-06-2008 19:06:02 25.8 C 12.04 g/m*3 25.8 C 0 km/h
2734 01-06-2008 19:18:02 26.4 C 11.7 g/m*3 26.4 C 0 km/h
2735 01-06-2008 19:30:02 26.2 C 12.06 g/m*3 26.2 C 0 km/h
2736 01-06-2008 19:42:01 25.7 C 11.73 g/m*3 25.7 C 0 km/h
2737 01-06-2008 19:54:02 25.5 C 11.36 g/m*3 25.5 C 0 km/h
2738 01-06-2008 20:06:02 25 C 10.82 g/m*3 25 C 0 km/h
2739 01-06-2008 20:18:02 24.7 C 11.32 g/m*3 24.7 C 0 km/h
2740 01-06-2008 20:30:02 24.2 C 11.22 g/m*3 24.2 C 0 km/h
2741 01-06-2008 20:42:02 23.7 C 11.12 g/m*3 23.7 C 0 km/h
2742 01-06-2008 20:54:02 23.5 C 11.21 g/m*3 23.5 C 0 km/h
2743 01-06-2008 21:06:02 23.2 C 11.23 g/m*3 23.2 C 0 km/h
2744 01-06-2008 21:18:01 22.9 C 11.44 g/m*3 22.9 C 0 km/h
2745 01-06-2008 21:30:01 22.7 C 11.72 g/m*3 22.7 C 0 km/h
2746 01-06-2008 21:42:02 22.5 C 11.98 g/m*3 22.5 C 0 km/h
2747 01-06-2008 21:54:02 22.3 C 12.05 g/m*3 22.3 C 0 km/h
2748 01-06-2008 22:06:01 21.9 C 12.16 g/m*3 21.9 C 0 km/h
2749 01-06-2008 22:18:01 21.7 C 12.21 g/m*3 21.7 C 0 km/h
2750 01-06-2008 22:30:01 21.7 C 12.21 g/m*3 21.7 C 0 km/h
Sensor: Nr:Datum:Temp:Abs-Feuchte:Windchill:Wind:
Aussen-T/F 2751 01-06-2008 22:43:02 21.6 C 12.14 g/m*3 21.6 C 0 km/h
2752 01-06-2008 22:55:02 21.5 C 12.07 g/m*3 21.5 C 0 km/h
2753 01-06-2008 23:07:02 21.4 C 12.19 g/m*3 21.4 C 0 km/h
2754 01-06-2008 23:19:02 21.3 C 11.93 g/m*3 21.3 C 0 km/h
2755 01-06-2008 23:31:02 21.2 C 12.05 g/m*3 21.2 C 0 km/h
2756 01-06-2008 23:43:02 21.2 C 12.05 g/m*3 21.2 C 0 km/h
2757 01-06-2008 23:55:02 21.1 C 11.79 g/m*3 21.1 C 0 km/h
2758 02-06-2008 00:07:02 20.9 C 11.66 g/m*3 20.9 C 0 km/h
2759 02-06-2008 00:19:02 20.8 C 11.77 g/m*3 20.8 C 0 km/h
2760 02-06-2008 00:31:02 20.6 C 11.63 g/m*3 20.6 C 0 km/h
2761 02-06-2008 00:43:02 20.6 C 11.81 g/m*3 20.6 C 0 km/h
2762 02-06-2008 00:55:02 20.5 C 11.74 g/m*3 20.5 C 0 km/h
2763 02-06-2008 01:07:02 20.4 C 11.85 g/m*3 20.4 C 0 km/h
2764 02-06-2008 01:19:02 20.2 C 11.89 g/m*3 20.2 C 0 km/h
2765 02-06-2008 01:31:02 20.1 C 11.99 g/m*3 20.1 C 0 km/h
2766 02-06-2008 01:43:02 19.9 C 12.37 g/m*3 19.9 C 0 km/h
2767 02-06-2008 01:55:03 19.8 C 12.3 g/m*3 19.8 C 0 km/h
2768 02-06-2008 02:07:03 19.7 C 12.23 g/m*3 19.7 C 0 km/h
2769 02-06-2008 02:19:03 19.6 C 12.15 g/m*3 19.6 C 0 km/h
2770 02-06-2008 02:31:03 19.7 C 12.4 g/m*3 19.7 C 0 km/h
2771 02-06-2008 02:43:03 19.5 C 12.25 g/m*3 19.5 C 0 km/h
2772 02-06-2008 02:55:03 19.4 C 12.35 g/m*3 19.4 C 0 km/h
2773 02-06-2008 03:07:03 19.2 C 12.2 g/m*3 19.2 C 0 km/h
2774 02-06-2008 03:19:03 19.1 C 12.13 g/m*3 19.1 C 0 km/h
2775 02-06-2008 03:31:03 19.1 C 12.13 g/m*3 19.1 C 0 km/h
Sensor: Nr:Datum:Temp:Abs-Feuchte:Windchill:Wind:
Aussen-T/F 2776 02-06-2008 03:43:03 18.9 C 12.15 g/m*3 18.9 C 0 km/h
2777 02-06-2008 03:55:03 18.6 C 12.1 g/m*3 18.6 C 0 km/h
2778 02-06-2008 04:07:03 18.3 C 11.88 g/m*3 18.3 C 0 km/h
2779 02-06-2008 04:19:03 18.1 C 12.05 g/m*3 18.1 C 0 km/h
2780 02-06-2008 04:31:03 18 C 12.13 g/m*3 18 C 0 km/h
2781 02-06-2008 04:43:03 17.8 C 12.14 g/m*3 17.8 C 0 km/h
2782 02-06-2008 04:55:03 17.7 C 12.22 g/m*3 17.7 C 0 km/h
2783 02-06-2008 05:07:03 17.6 C 12.15 g/m*3 17.6 C 0 km/h
2784 02-06-2008 05:19:03 17.5 C 12.23 g/m*3 17.5 C 0 km/h
2785 02-06-2008 05:31:03 17.5 C 12.37 g/m*3 17.5 C 0 km/h
2786 02-06-2008 05:43:04 17.4 C 12.3 g/m*3 17.4 C 0 km/h
2787 02-06-2008 05:55:04 17.4 C 12.3 g/m*3 17.4 C 0 km/h
2788 02-06-2008 06:07:04 17.4 C 12.3 g/m*3 17.4 C 0 km/h
2789 02-06-2008 06:19:04 17.5 C 12.37 g/m*3 17.5 C 0 km/h
2790 02-06-2008 06:31:04 17.6 C 12.45 g/m*3 17.6 C 0 km/h
2791 02-06-2008 06:43:04 17.7 C 12.52 g/m*3 17.7 C 0 km/h
2792 02-06-2008 06:55:04 17.7 C 12.37 g/m*3 17.7 C 0 km/h
2793 02-06-2008 07:07:02 17.6 C 12.3 g/m*3 17.6 C 0 km/h
2794 02-06-2008 07:19:01 17.7 C 12.37 g/m*3 17.7 C 0 km/h
2795 02-06-2008 07:31:02 18 C 12.44 g/m*3 18 C 0 km/h
2796 02-06-2008 07:43:02 18.3 C 12.66 g/m*3 18.3 C 0 km/h
2797 02-06-2008 07:55:02 18.6 C 12.89 g/m*3 18.6 C 0 km/h
2798 02-06-2008 08:07:02 18.9 C 12.96 g/m*3 18.9 C 0 km/h
2799 02-06-2008 08:19:01 19.3 C 12.77 g/m*3 19.3 C 0 km/h
2800 02-06-2008 08:31:02 19.6 C 12.83 g/m*3 19.6 C 0 km/h
Sensor: Nr:Datum:Temp:Abs-Feuchte:Windchill:Wind:
Aussen-T/F 2801 02-06-2008 08:43:02 19.8 C 12.81 g/m*3 19.8 C 0 km/h
2802 02-06-2008 08:55:02 20.3 C 12.84 g/m*3 20.3 C 0 km/h
2803 02-06-2008 09:07:02 20.8 C 13.04 g/m*3 20.8 C 0 km/h
2804 02-06-2008 09:19:02 21.3 C 12.86 g/m*3 21.3 C 0 km/h
2805 02-06-2008 09:31:02 22 C 13 g/m*3 22 C 0 km/h
2806 02-06-2008 09:43:02 22.3 C 12.83 g/m*3 22.3 C 0 km/h
2807 02-06-2008 09:55:01 22.8 C 12.8 g/m*3 22.8 C 0 km/h
2808 02-06-2008 10:07:02 23.4 C 11.78 g/m*3 23.4 C 0 km/h
2809 02-06-2008 10:19:02 24 C 12.18 g/m*3 24 C 0 km/h
2810 02-06-2008 10:31:01 24.5 C 11.64 g/m*3 24.5 C 0 km/h
2811 02-06-2008 10:43:01 24.5 C 11.19 g/m*3 24.5 C 0 km/h
2812 02-06-2008 10:55:01 25.4 C 11.06 g/m*3 25.4 C 0 km/h
2813 02-06-2008 11:07:02 26.1 C 11.02 g/m*3 26.1 C 0 km/h
2814 02-06-2008 11:19:01 26.3 C 10.89 g/m*3 26.3 C 0 km/h
2815 02-06-2008 11:31:01 26.8 C 11.2 g/m*3 26.8 C 0 km/h
2816 02-06-2008 11:43:01 27.7 C 10.97 g/m*3 27.7 C 0 km/h
2817 02-06-2008 11:55:01 28.8 C 11.36 g/m*3 28.8 C 0 km/h
2818 02-06-2008 12:07:02 29.3 C 10.8 g/m*3 29.3 C 0 km/h
2819 02-06-2008 12:19:01 30 C 10.92 g/m*3 30 C 0 km/h
2820 02-06-2008 12:31:02 30.4 C 10.85 g/m*3 30.4 C 0 km/h
2821 02-06-2008 12:43:02 30.9 C 10.5 g/m*3 30.9 C 0 km/h
2822 02-06-2008 12:55:03 31.5 C 9.53 g/m*3 31.5 C 0 km/h
2823 02-06-2008 13:07:02 31.4 C 9.81 g/m*3 31.4 C 0 km/h
2824 02-06-2008 13:19:02 31.5 C 9.86 g/m*3 31.5 C 0 km/h
2825 02-06-2008 13:31:03 31.8 C 9.35 g/m*3 31.8 C 0 km/h
Sensor: Nr:Datum:Temp:Abs-Feuchte:Windchill:Wind:
Aussen-T/F 2826 02-06-2008 13:43:03 32.4 C 8.62 g/m*3 32.4 C 0 km/h
2827 02-06-2008 13:55:02 32.5 C 8.32 g/m*3 32.5 C 0 km/h
2828 02-06-2008 14:07:02 32.2 C 8.87 g/m*3 32.2 C 0 km/h
2829 02-06-2008 14:19:02 31.9 C 8.73 g/m*3 31.9 C 0 km/h
2830 02-06-2008 14:31:02 31.6 C 9.58 g/m*3 31.6 C 0 km/h
2831 02-06-2008 14:43:02 32.1 C 8.15 g/m*3 32.1 C 0 km/h
2832 02-06-2008 14:55:02 32.4 C 7.93 g/m*3 32.4 C 0 km/h
2833 02-06-2008 15:07:02 32.5 C 8.32 g/m*3 32.5 C 0 km/h
2834 02-06-2008 15:19:02 32.3 C 8.23 g/m*3 32.3 C 0 km/h
2835 02-06-2008 15:31:01 32.2 C 8.53 g/m*3 32.2 C 0 km/h
2836 02-06-2008 15:43:01 32.7 C 7.71 g/m*3 32.7 C 0 km/h
2837 02-06-2008 15:55:01 32.5 C 7.63 g/m*3 32.5 C 0 km/h
2838 02-06-2008 16:07:02 32.1 C 7.81 g/m*3 32.1 C 0 km/h
2839 02-06-2008 16:19:02 31.2 C 9.7 g/m*3 31.2 C 0 km/h
2840 02-06-2008 16:31:01 30.4 C 10.85 g/m*3 30.4 C 0 km/h
2841 02-06-2008 16:43:01 29.9 C 11.16 g/m*3 29.9 C 0 km/h
2842 02-06-2008 16:55:02 29 C 11.78 g/m*3 29 C 0 km/h
2843 02-06-2008 17:07:02 28.7 C 11.87 g/m*3 28.7 C 0 km/h
2844 02-06-2008 17:19:02 28.7 C 12.43 g/m*3 28.7 C 0 km/h
2845 02-06-2008 17:31:01 28.4 C 12.23 g/m*3 28.4 C 0 km/h
2846 02-06-2008 17:43:01 28.7 C 12.72 g/m*3 28.7 C 0 km/h
2847 02-06-2008 17:55:02 28.7 C 12.43 g/m*3 28.7 C 0 km/h
2848 02-06-2008 18:07:02 28.6 C 12.65 g/m*3 28.6 C 0 km/h
2849 02-06-2008 18:19:02 28.3 C 12.44 g/m*3 28.3 C 0 km/h
2850 02-06-2008 18:31:02 28 C 11.97 g/m*3 28 C 0 km/h
Sensor: Nr:Datum:Temp:Abs-Feuchte:Windchill:Wind:
Aussen-T/F 2851 02-06-2008 18:43:02 28 C 11.15 g/m*3 28 C 0 km/h
2852 02-06-2008 18:55:02 27.7 C 11.23 g/m*3 27.7 C 0 km/h
2853 02-06-2008 19:07:02 27.1 C 11.13 g/m*3 27.1 C 0 km/h
2854 02-06-2008 19:19:02 26.5 C 11.01 g/m*3 26.5 C 0 km/h
2855 02-06-2008 19:31:02 26.3 C 11.14 g/m*3 26.3 C 0 km/h
2856 02-06-2008 19:43:02 25.9 C 11.86 g/m*3 25.9 C 0 km/h
2857 02-06-2008 19:55:02 23.7 C 13.48 g/m*3 23.7 C 0 km/h
2858 02-06-2008 20:07:03 22.7 C 14.55 g/m*3 22.7 C 0 km/h
2859 02-06-2008 20:19:02 22.1 C 14.84 g/m*3 22.1 C 0 km/h
2860 02-06-2008 20:31:02 21.7 C 14.31 g/m*3 21.7 C 0 km/h
2861 02-06-2008 20:43:02 21.3 C 14.73 g/m*3 21.3 C 0 km/h
2862 02-06-2008 20:55:02 21.5 C 14.52 g/m*3 21.5 C 0 km/h
2863 02-06-2008 21:07:03 21.7 C 14.12 g/m*3 21.7 C 0 km/h
2864 02-06-2008 21:19:03 21.5 C 13.77 g/m*3 21.5 C 0 km/h
2865 02-06-2008 21:31:03 21.5 C 13.95 g/m*3 21.5 C 0 km/h
2866 02-06-2008 21:43:03 21.4 C 14.06 g/m*3 21.4 C 0 km/h
2867 02-06-2008 21:55:02 21.1 C 14.19 g/m*3 21.1 C 0 km/h
2868 02-06-2008 22:07:02 21.2 C 14.08 g/m*3 21.2 C 0 km/h
2869 02-06-2008 22:20:02 21.2 C 13.9 g/m*3 21.2 C 0 km/h
2870 02-06-2008 22:32:02 21.3 C 13.79 g/m*3 21.3 C 0 km/h
2871 02-06-2008 22:44:02 21.4 C 13.5 g/m*3 21.4 C 0 km/h
2872 02-06-2008 22:56:02 21.4 C 13.31 g/m*3 21.4 C 0 km/h
2873 02-06-2008 23:08:02 21 C 13.37 g/m*3 21 C 0 km/h
2874 02-06-2008 23:20:02 20.4 C 13.8 g/m*3 20.4 C 0 km/h
2875 02-06-2008 23:32:02 19.8 C 14.01 g/m*3 19.8 C 0 km/h
Sensor: Nr:Datum:Temp:Abs-Feuchte:Windchill:Wind:
Aussen-T/F 2876 02-06-2008 23:44:02 19.7 C 14.09 g/m*3 19.7 C 0 km/h
2877 02-06-2008 23:56:02 19.7 C 14.09 g/m*3 19.7 C 0 km/h
2878 03-06-2008 00:08:02 19.7 C 13.75 g/m*3 19.7 C 0 km/h
2879 03-06-2008 00:20:02 19.3 C 13.44 g/m*3 19.3 C 0 km/h
2880 03-06-2008 00:32:02 18.9 C 13.77 g/m*3 18.9 C 0 km/h
2881 03-06-2008 00:44:03 18.3 C 13.45 g/m*3 18.3 C 0 km/h
2882 03-06-2008 00:56:03 18.4 C 13.84 g/m*3 18.4 C 0 km/h
2883 03-06-2008 01:08:03 18.2 C 13.83 g/m*3 18.2 C 0 km/h
2884 03-06-2008 01:20:03 18.1 C 13.75 g/m*3 18.1 C 0 km/h
2885 03-06-2008 01:32:03 18 C 13.67 g/m*3 18 C 0 km/h
2886 03-06-2008 01:44:03 18 C 13.82 g/m*3 18 C 0 km/h
2887 03-06-2008 01:56:03 17.9 C 14.05 g/m*3 17.9 C 0 km/h
2888 03-06-2008 02:08:03 17.9 C 14.05 g/m*3 17.9 C 0 km/h
2889 03-06-2008 02:20:03 18 C 14.13 g/m*3 18 C 0 km/h
2890 03-06-2008 02:32:03 18 C 14.13 g/m*3 18 C 0 km/h
2891 03-06-2008 02:44:03 17.9 C 14.2 g/m*3 17.9 C 0 km/h
2892 03-06-2008 02:56:03 17.8 C 14.27 g/m*3 17.8 C 0 km/h
2893 03-06-2008 03:08:03 17.7 C 14.18 g/m*3 17.7 C 0 km/h
2894 03-06-2008 03:20:03 17.4 C 13.93 g/m*3 17.4 C 0 km/h
2895 03-06-2008 03:32:03 17.2 C 13.77 g/m*3 17.2 C 0 km/h
2896 03-06-2008 03:44:03 17 C 13.6 g/m*3 17 C 0 km/h
2897 03-06-2008 03:56:03 16.9 C 13.52 g/m*3 16.9 C 0 km/h
2898 03-06-2008 04:08:03 16.8 C 13.3 g/m*3 16.8 C 0 km/h
2899 03-06-2008 04:20:03 16.6 C 13.14 g/m*3 16.6 C 0 km/h
2900 03-06-2008 04:32:04 16.6 C 13 g/m*3 16.6 C 0 km/h
Sensor: Nr:Datum:Temp:Abs-Feuchte:Windchill:Wind:
Aussen-T/F 2901 03-06-2008 04:44:04 16.7 C 13.07 g/m*3 16.7 C 0 km/h
2902 03-06-2008 04:56:04 16.8 C 13.01 g/m*3 16.8 C 0 km/h
2903 03-06-2008 05:08:04 16.8 C 12.87 g/m*3 16.8 C 0 km/h
2904 03-06-2008 05:20:04 16.8 C 12.72 g/m*3 16.8 C 0 km/h
2905 03-06-2008 05:32:04 16.8 C 12.58 g/m*3 16.8 C 0 km/h
2906 03-06-2008 05:44:04 16.8 C 12.58 g/m*3 16.8 C 0 km/h
2907 03-06-2008 05:56:04 16.8 C 12.58 g/m*3 16.8 C 0 km/h
2908 03-06-2008 06:08:04 16.8 C 12.72 g/m*3 16.8 C 0 km/h
2909 03-06-2008 06:20:04 16.9 C 12.94 g/m*3 16.9 C 0 km/h
2910 03-06-2008 06:32:04 16.9 C 12.8 g/m*3 16.9 C 0 km/h
2911 03-06-2008 06:44:04 17 C 12.59 g/m*3 17 C 0 km/h
2912 03-06-2008 06:56:04 17 C 12.44 g/m*3 17 C 0 km/h
2913 03-06-2008 07:08:03 17.1 C 12.37 g/m*3 17.1 C 0 km/h
2914 03-06-2008 07:20:03 17.9 C 12.98 g/m*3 17.9 C 0 km/h
2915 03-06-2008 07:32:03 17.6 C 12.9 g/m*3 17.6 C 0 km/h
2916 03-06-2008 07:44:03 17.5 C 12.67 g/m*3 17.5 C 0 km/h
2917 03-06-2008 07:56:02 17.8 C 12.6 g/m*3 17.8 C 0 km/h
2918 03-06-2008 08:08:01 18 C 12.13 g/m*3 18 C 0 km/h
2919 03-06-2008 08:20:02 18.1 C 12.21 g/m*3 18.1 C 0 km/h
2920 03-06-2008 08:32:02 18.2 C 12.12 g/m*3 18.2 C 0 km/h
2921 03-06-2008 08:44:02 18.2 C 11.5 g/m*3 18.2 C 0 km/h
2922 03-06-2008 08:56:02 18.6 C 11.46 g/m*3 18.6 C 0 km/h
2923 03-06-2008 09:08:02 18.6 C 11.14 g/m*3 18.6 C 0 km/h
2924 03-06-2008 09:20:01 18.7 C 11.37 g/m*3 18.7 C 0 km/h
2925 03-06-2008 09:32:02 18.5 C 11.39 g/m*3 18.5 C 0 km/h
Sensor: Nr:Datum:Temp:Abs-Feuchte:Windchill:Wind:
Aussen-T/F 2926 03-06-2008 09:44:02 18.6 C 11.14 g/m*3 18.6 C 0 km/h
2927 03-06-2008 09:56:01 19.2 C 11.05 g/m*3 19.2 C 0 km/h
2928 03-06-2008 10:08:02 19.6 C 10.97 g/m*3 19.6 C 0 km/h
2929 03-06-2008 10:20:01 20.3 C 10.73 g/m*3 20.3 C 0 km/h
2930 03-06-2008 10:32:01 20.8 C 10.32 g/m*3 20.8 C 0 km/h
2931 03-06-2008 10:44:01 20.5 C 9.96 g/m*3 20.5 C 0 km/h
2932 03-06-2008 10:56:02 20.9 C 10.02 g/m*3 20.9 C 0 km/h
2933 03-06-2008 11:08:03 21 C 9.53 g/m*3 21 C 0 km/h
2934 03-06-2008 11:20:02 21.6 C 9.67 g/m*3 21.6 C 0 km/h
2935 03-06-2008 11:32:02 21.7 C 9.73 g/m*3 21.7 C 0 km/h
2936 03-06-2008 11:44:02 22.2 C 9.42 g/m*3 22.2 C 0 km/h
2937 03-06-2008 11:56:01 21.8 C 9.98 g/m*3 21.8 C 0 km/h
2938 03-06-2008 12:08:02 22.1 C 9.37 g/m*3 22.1 C 0 km/h
2939 03-06-2008 12:20:01 22.5 C 9.39 g/m*3 22.5 C 0 km/h
2940 03-06-2008 12:32:01 23.2 C 9.15 g/m*3 23.2 C 0 km/h
2941 03-06-2008 12:44:01 23.8 C 8.82 g/m*3 23.8 C 0 km/h
2942 03-06-2008 12:56:01 23.5 C 8.88 g/m*3 23.5 C 0 km/h
2943 03-06-2008 13:08:01 24.2 C 9.02 g/m*3 24.2 C 0 km/h
2944 03-06-2008 13:20:02 24.1 C 8.75 g/m*3 24.1 C 0 km/h
2945 03-06-2008 13:32:01 24 C 8.7 g/m*3 24 C 0 km/h
2946 03-06-2008 13:44:01 24.1 C 8.31 g/m*3 24.1 C 0 km/h
2947 03-06-2008 13:56:02 25.1 C 8.57 g/m*3 25.1 C 0 km/h
2948 03-06-2008 14:08:02 24.5 C 8.95 g/m*3 24.5 C 0 km/h
2949 03-06-2008 14:20:01 24.4 C 8.9 g/m*3 24.4 C 0 km/h
2950 03-06-2008 14:32:02 25 C 8.52 g/m*3 25 C 0 km/h
Sensor: Nr:Datum:Temp:Abs-Feuchte:Windchill:Wind:
Aussen-T/F 2951 03-06-2008 14:44:02 25.8 C 8.19 g/m*3 25.8 C 0 km/h
2952 03-06-2008 14:56:02 25.9 C 7.99 g/m*3 25.9 C 0 km/h
2953 03-06-2008 15:08:01 25.9 C 7.99 g/m*3 25.9 C 0 km/h
2954 03-06-2008 15:20:01 26.6 C 7.8 g/m*3 26.6 C 0 km/h
2955 03-06-2008 15:32:02 26.5 C 7.76 g/m*3 26.5 C 0 km/h
2956 03-06-2008 15:44:02 26.6 C 7.8 g/m*3 26.6 C 0 km/h
2957 03-06-2008 15:56:02 26.1 C 7.83 g/m*3 26.1 C 0 km/h
2958 03-06-2008 16:08:02 26.7 C 7.85 g/m*3 26.7 C 0 km/h
2959 03-06-2008 16:20:02 26.8 C 7.38 g/m*3 26.8 C 0 km/h
2960 03-06-2008 16:32:02 26.8 C 7.38 g/m*3 26.8 C 0 km/h
2961 03-06-2008 16:44:02 27.5 C 7.14 g/m*3 27.5 C 0 km/h
2962 03-06-2008 16:56:01 27.6 C 6.92 g/m*3 27.6 C 0 km/h
2963 03-06-2008 17:08:02 26.9 C 6.91 g/m*3 26.9 C 0 km/h
2964 03-06-2008 17:20:01 27.2 C 6.77 g/m*3 27.2 C 0 km/h
2965 03-06-2008 17:32:01 26.8 C 7.13 g/m*3 26.8 C 0 km/h
2966 03-06-2008 17:44:01 27.2 C 6.77 g/m*3 27.2 C 0 km/h
2967 03-06-2008 17:56:01 27 C 6.69 g/m*3 27 C 0 km/h
2968 03-06-2008 18:08:02 26.6 C 6.54 g/m*3 26.6 C 0 km/h
2969 03-06-2008 18:20:02 26.4 C 7.47 g/m*3 26.4 C 0 km/h
2970 03-06-2008 18:32:01 26.1 C 7.34 g/m*3 26.1 C 0 km/h
2971 03-06-2008 18:44:01 26.6 C 7.3 g/m*3 26.6 C 0 km/h
2972 03-06-2008 18:56:01 27 C 7.21 g/m*3 27 C 0 km/h
2973 03-06-2008 19:08:01 27.6 C 7.18 g/m*3 27.6 C 0 km/h
2974 03-06-2008 19:20:02 26.6 C 7.3 g/m*3 26.6 C 0 km/h
2975 03-06-2008 19:32:02 26.4 C 7.72 g/m*3 26.4 C 0 km/h
Sensor: Nr:Datum:Temp:Abs-Feuchte:Windchill:Wind:
Aussen-T/F 2976 03-06-2008 19:44:02 25.8 C 7.7 g/m*3 25.8 C 0 km/h
2977 03-06-2008 19:56:02 25.2 C 7.45 g/m*3 25.2 C 0 km/h
2978 03-06-2008 20:08:02 25.2 C 7.45 g/m*3 25.2 C 0 km/h
2979 03-06-2008 20:20:01 25.1 C 8.1 g/m*3 25.1 C 0 km/h
2980 03-06-2008 20:32:02 24.6 C 8.33 g/m*3 24.6 C 0 km/h
2981 03-06-2008 20:44:02 23.8 C 8.39 g/m*3 23.8 C 0 km/h
2982 03-06-2008 20:56:02 23.1 C 8.27 g/m*3 23.1 C 0 km/h
2983 03-06-2008 21:08:01 22.8 C 8.74 g/m*3 22.8 C 0 km/h
2984 03-06-2008 21:20:02 22.4 C 8.94 g/m*3 22.4 C 0 km/h
2985 03-06-2008 21:32:01 22 C 8.93 g/m*3 22 C 0 km/h
2986 03-06-2008 21:44:01 21.6 C 9.1 g/m*3 21.6 C 0 km/h
2987 03-06-2008 21:56:02 21.3 C 9.13 g/m*3 21.3 C 0 km/h
2988 03-06-2008 22:08:02 21 C 9.16 g/m*3 21 C 0 km/h
2989 03-06-2008 22:20:02 20.7 C 9.36 g/m*3 20.7 C 0 km/h
2990 03-06-2008 22:33:02 20.3 C 9.32 g/m*3 20.3 C 0 km/h
2991 03-06-2008 22:45:02 20.1 C 9.39 g/m*3 20.1 C 0 km/h
2992 03-06-2008 22:57:03 19.7 C 9.34 g/m*3 19.7 C 0 km/h
2993 03-06-2008 23:09:03 19.7 C 9.34 g/m*3 19.7 C 0 km/h
2994 03-06-2008 23:21:03 19.2 C 9.56 g/m*3 19.2 C 0 km/h
2995 03-06-2008 23:33:03 19.2 C 9.56 g/m*3 19.2 C 0 km/h
2996 03-06-2008 23:45:03 19.2 C 9.56 g/m*3 19.2 C 0 km/h
2997 03-06-2008 23:57:03 18.5 C 9.81 g/m*3 18.5 C 0 km/h
2998 04-06-2008 00:09:03 18.5 C 9.81 g/m*3 18.5 C 0 km/h
2999 04-06-2008 00:21:03 18.5 C 9.81 g/m*3 18.5 C 0 km/h
3000 04-06-2008 00:33:03 18.5 C 9.81 g/m*3 18.5 C 0 km/h
Sensor: Nr:Datum:Temp:Abs-Feuchte:Windchill:Wind:
Aussen-T/F 3001 04-06-2008 00:45:03 18.5 C 9.81 g/m*3 18.5 C 0 km/h
3002 04-06-2008 00:57:03 18.5 C 9.81 g/m*3 18.5 C 0 km/h
3003 04-06-2008 01:09:03 18.5 C 9.81 g/m*3 18.5 C 0 km/h
3004 04-06-2008 01:21:03 18.5 C 9.81 g/m*3 18.5 C 0 km/h
3005 04-06-2008 01:33:03 17 C 10.27 g/m*3 17 C 0 km/h
3006 04-06-2008 01:45:03 17 C 10.27 g/m*3 17 C 0 km/h
3007 04-06-2008 01:57:03 16.3 C 10.41 g/m*3 16.3 C 0 km/h
3008 04-06-2008 02:09:03 16.2 C 10.48 g/m*3 16.2 C 0 km/h
3009 04-06-2008 02:21:03 15.9 C 10.56 g/m*3 15.9 C 0 km/h
3010 04-06-2008 02:33:03 15.8 C 10.5 g/m*3 15.8 C 0 km/h
3011 04-06-2008 02:45:03 15.9 C 10.56 g/m*3 15.9 C 0 km/h
3012 04-06-2008 02:57:04 15.6 C 10.37 g/m*3 15.6 C 0 km/h
3013 04-06-2008 03:09:04 15.7 C 10.44 g/m*3 15.7 C 0 km/h
3014 04-06-2008 03:21:04 15.5 C 10.44 g/m*3 15.5 C 0 km/h
3015 04-06-2008 03:33:04 15.3 C 10.45 g/m*3 15.3 C 0 km/h
3016 04-06-2008 03:45:04 15.4 C 10.38 g/m*3 15.4 C 0 km/h
3017 04-06-2008 03:57:04 15.4 C 10.38 g/m*3 15.4 C 0 km/h
3018 04-06-2008 04:09:04 15.4 C 10.51 g/m*3 15.4 C 0 km/h
3019 04-06-2008 04:21:04 15.2 C 10.38 g/m*3 15.2 C 0 km/h
3020 04-06-2008 04:33:04 15.2 C 10.38 g/m*3 15.2 C 0 km/h
3021 04-06-2008 04:45:04 15.2 C 10.51 g/m*3 15.2 C 0 km/h
3022 04-06-2008 04:57:04 15.1 C 10.45 g/m*3 15.1 C 0 km/h
3023 04-06-2008 05:09:04 14.9 C 10.45 g/m*3 14.9 C 0 km/h
3024 04-06-2008 05:21:04 14.7 C 10.45 g/m*3 14.7 C 0 km/h
3025 04-06-2008 05:33:04 14.7 C 10.45 g/m*3 14.7 C 0 km/h
Sensor: Nr:Datum:Temp:Abs-Feuchte:Windchill:Wind:
Aussen-T/F 3026 04-06-2008 05:45:04 14.7 C 10.58 g/m*3 14.7 C 0 km/h
3027 04-06-2008 05:57:04 14.7 C 10.58 g/m*3 14.7 C 0 km/h
3028 04-06-2008 06:09:04 14.7 C 10.58 g/m*3 14.7 C 0 km/h
3029 04-06-2008 06:21:04 14.7 C 10.58 g/m*3 14.7 C 0 km/h
3030 04-06-2008 06:33:04 14.7 C 10.58 g/m*3 14.7 C 0 km/h
3031 04-06-2008 06:45:05 14.8 C 10.64 g/m*3 14.8 C 0 km/h
3032 04-06-2008 06:57:05 14.9 C 10.71 g/m*3 14.9 C 0 km/h
3033 04-06-2008 07:09:05 15.1 C 10.71 g/m*3 15.1 C 0 km/h
3034 04-06-2008 07:21:05 15.1 C 10.71 g/m*3 15.1 C 0 km/h
3035 04-06-2008 07:33:02 15.4 C 10.9 g/m*3 15.4 C 0 km/h
3036 04-06-2008 07:45:02 15.7 C 10.97 g/m*3 15.7 C 0 km/h
3037 04-06-2008 07:57:02 16 C 10.9 g/m*3 16 C 0 km/h
3038 04-06-2008 08:09:01 16.2 C 10.89 g/m*3 16.2 C 0 km/h
3039 04-06-2008 08:21:02 16.5 C 11.09 g/m*3 16.5 C 0 km/h
3040 04-06-2008 08:33:02 17.1 C 11.06 g/m*3 17.1 C 0 km/h
3041 04-06-2008 08:45:02 17.6 C 11.25 g/m*3 17.6 C 0 km/h
3042 04-06-2008 08:57:02 17.9 C 10.99 g/m*3 17.9 C 0 km/h
3043 04-06-2008 09:09:01 18.5 C 10.92 g/m*3 18.5 C 0 km/h
3044 04-06-2008 09:21:01 19 C 10.92 g/m*3 19 C 0 km/h
3045 04-06-2008 09:33:01 19.2 C 10.55 g/m*3 19.2 C 0 km/h
3046 04-06-2008 09:45:02 19.8 C 10.76 g/m*3 19.8 C 0 km/h
3047 04-06-2008 09:57:02 20.1 C 10.78 g/m*3 20.1 C 0 km/h
3048 04-06-2008 10:09:02 20.7 C 10.62 g/m*3 20.7 C 0 km/h
3049 04-06-2008 10:21:02 20.9 C 10.56 g/m*3 20.9 C 0 km/h
3050 04-06-2008 10:33:02 21.1 C 10.32 g/m*3 21.1 C 0 km/h
Sensor: Nr:Datum:Temp:Abs-Feuchte:Windchill:Wind:
Aussen-T/F 3051 04-06-2008 10:45:01 21.5 C 10.37 g/m*3 21.5 C 0 km/h
3052 04-06-2008 10:57:01 22.2 C 10.21 g/m*3 22.2 C 0 km/h
3053 04-06-2008 11:09:01 22.2 C 10.21 g/m*3 22.2 C 0 km/h
3054 04-06-2008 11:21:01 21.8 C 10.36 g/m*3 21.8 C 0 km/h
3055 04-06-2008 11:33:01 22.9 C 10.22 g/m*3 22.9 C 0 km/h
3056 04-06-2008 11:45:01 23 C 10.07 g/m*3 23 C 0 km/h
3057 04-06-2008 11:57:01 23.9 C 10.17 g/m*3 23.9 C 0 km/h
3058 04-06-2008 12:09:01 23.7 C 9.63 g/m*3 23.7 C 0 km/h
3059 04-06-2008 12:21:02 24.9 C 9.61 g/m*3 24.9 C 0 km/h
3060 04-06-2008 12:33:01 24.5 C 9.4 g/m*3 24.5 C 0 km/h
3061 04-06-2008 12:45:02 24.6 C 9 g/m*3 24.6 C 0 km/h
3062 04-06-2008 12:57:02 24.3 C 9.07 g/m*3 24.3 C 0 km/h
3063 04-06-2008 13:09:02 25.2 C 8.85 g/m*3 25.2 C 0 km/h
3064 04-06-2008 13:21:02 24.2 C 8.8 g/m*3 24.2 C 0 km/h
3065 04-06-2008 13:33:02 26.3 C 8.66 g/m*3 26.3 C 0 km/h
3066 04-06-2008 13:45:02 26.6 C 8.81 g/m*3 26.6 C 0 km/h
3067 04-06-2008 13:57:03 24.7 C 9.51 g/m*3 24.7 C 0 km/h
3068 04-06-2008 14:09:02 24.3 C 9.52 g/m*3 24.3 C 0 km/h
3069 04-06-2008 14:21:02 23.9 C 9.74 g/m*3 23.9 C 0 km/h
3070 04-06-2008 14:33:03 24 C 9.79 g/m*3 24 C 0 km/h
3071 04-06-2008 14:45:02 23.7 C 9.84 g/m*3 23.7 C 0 km/h
3072 04-06-2008 14:57:02 23.4 C 9.88 g/m*3 23.4 C 0 km/h
3073 04-06-2008 15:09:02 24.1 C 10.06 g/m*3 24.1 C 0 km/h
3074 04-06-2008 15:21:02 23.6 C 10.21 g/m*3 23.6 C 0 km/h
3075 04-06-2008 15:33:02 23.3 C 10.87 g/m*3 23.3 C 0 km/h
Sensor: Nr:Datum:Temp:Abs-Feuchte:Windchill:Wind:
Aussen-T/F 3076 04-06-2008 15:45:02 23.3 C 11.08 g/m*3 23.3 C 0 km/h
3077 04-06-2008 15:57:02 23.9 C 10.38 g/m*3 23.9 C 0 km/h
3078 04-06-2008 16:09:02 23.5 C 10.79 g/m*3 23.5 C 0 km/h
3079 04-06-2008 16:21:02 23.7 C 10.27 g/m*3 23.7 C 0 km/h
3080 04-06-2008 16:33:02 24.5 C 10.07 g/m*3 24.5 C 0 km/h
3081 04-06-2008 16:45:02 25.7 C 9.82 g/m*3 25.7 C 0 km/h
3082 04-06-2008 16:57:02 25.2 C 10.24 g/m*3 25.2 C 0 km/h
3083 04-06-2008 17:09:02 25.3 C 10.07 g/m*3 25.3 C 0 km/h
3084 04-06-2008 17:21:01 25.9 C 9.93 g/m*3 25.9 C 0 km/h
3085 04-06-2008 17:33:01 23.4 C 9.67 g/m*3 23.4 C 0 km/h
3086 04-06-2008 17:45:01 22.4 C 10.13 g/m*3 22.4 C 0 km/h
3087 04-06-2008 17:57:01 19.7 C 12.74 g/m*3 19.7 C 0 km/h
3088 04-06-2008 18:09:01 18.8 C 12.88 g/m*3 18.8 C 0 km/h
3089 04-06-2008 18:21:02 18.9 C 13.45 g/m*3 18.9 C 0 km/h
3090 04-06-2008 18:33:02 18.9 C 13.45 g/m*3 18.9 C 0 km/h
3091 04-06-2008 18:45:02 18.9 C 13.45 g/m*3 18.9 C 0 km/h
3092 04-06-2008 18:57:02 18.9 C 13.45 g/m*3 18.9 C 0 km/h
3093 04-06-2008 19:09:02 17.6 C 13.35 g/m*3 17.6 C 0 km/h
3094 04-06-2008 19:21:02 17.6 C 13.5 g/m*3 17.6 C 0 km/h
3095 04-06-2008 19:33:01 17.5 C 13.42 g/m*3 17.5 C 0 km/h
3096 04-06-2008 19:45:02 17.5 C 13.57 g/m*3 17.5 C 0 km/h
3097 04-06-2008 19:57:02 17.6 C 13.8 g/m*3 17.6 C 0 km/h
3098 04-06-2008 20:09:01 17.9 C 14.05 g/m*3 17.9 C 0 km/h
3099 04-06-2008 20:21:02 17.9 C 14.05 g/m*3 17.9 C 0 km/h
3100 04-06-2008 20:33:02 18.1 C 14.06 g/m*3 18.1 C 0 km/h
Sensor: Nr:Datum:Temp:Abs-Feuchte:Windchill:Wind:
Aussen-T/F 3101 04-06-2008 20:45:02 18.2 C 14.3 g/m*3 18.2 C 0 km/h
3102 04-06-2008 20:57:02 17.8 C 13.96 g/m*3 17.8 C 0 km/h
3103 04-06-2008 21:09:01 17.8 C 13.96 g/m*3 17.8 C 0 km/h
3104 04-06-2008 21:21:02 17.7 C 13.58 g/m*3 17.7 C 0 km/h
3105 04-06-2008 21:33:02 17.7 C 13.58 g/m*3 17.7 C 0 km/h
3106 04-06-2008 21:45:02 17.7 C 13.58 g/m*3 17.7 C 0 km/h
3107 04-06-2008 21:57:02 17.7 C 13.58 g/m*3 17.7 C 0 km/h
3108 04-06-2008 22:10:03 17.7 C 13.58 g/m*3 17.7 C 0 km/h
3109 04-06-2008 22:22:03 17.7 C 13.58 g/m*3 17.7 C 0 km/h
3110 04-06-2008 22:34:03 17.7 C 13.58 g/m*3 17.7 C 0 km/h
3111 04-06-2008 22:46:03 17.7 C 13.58 g/m*3 17.7 C 0 km/h
3112 04-06-2008 22:58:03 17.7 C 13.58 g/m*3 17.7 C 0 km/h
3113 04-06-2008 23:10:04 17.7 C 13.58 g/m*3 17.7 C 0 km/h
3114 04-06-2008 23:22:04 17.9 C 13.89 g/m*3 17.9 C 0 km/h
3115 04-06-2008 23:34:04 17.9 C 13.89 g/m*3 17.9 C 0 km/h
3116 04-06-2008 23:46:04 17.9 C 13.89 g/m*3 17.9 C 0 km/h
3117 04-06-2008 23:58:04 17.9 C 13.89 g/m*3 17.9 C 0 km/h
3118 05-06-2008 00:10:04 17.9 C 13.89 g/m*3 17.9 C 0 km/h
3119 05-06-2008 00:22:04 17.9 C 13.89 g/m*3 17.9 C 0 km/h
3120 05-06-2008 00:34:04 17.9 C 13.89 g/m*3 17.9 C 0 km/h
3121 05-06-2008 00:46:04 17.9 C 13.89 g/m*3 17.9 C 0 km/h
3122 05-06-2008 00:58:04 17.9 C 13.89 g/m*3 17.9 C 0 km/h
3123 05-06-2008 01:10:04 17.9 C 13.89 g/m*3 17.9 C 0 km/h
3124 05-06-2008 01:22:04 17.9 C 13.89 g/m*3 17.9 C 0 km/h
3125 05-06-2008 01:34:04 17.9 C 13.89 g/m*3 17.9 C 0 km/h
Sensor: Nr:Datum:Temp:Abs-Feuchte:Windchill:Wind:
Aussen-T/F 3126 05-06-2008 01:46:04 17.9 C 13.89 g/m*3 17.9 C 0 km/h
3127 05-06-2008 01:58:04 17.9 C 13.89 g/m*3 17.9 C 0 km/h
3128 05-06-2008 02:10:04 17.9 C 13.89 g/m*3 17.9 C 0 km/h
3129 05-06-2008 02:22:04 17.9 C 13.89 g/m*3 17.9 C 0 km/h
3130 05-06-2008 02:34:04 17.9 C 13.89 g/m*3 17.9 C 0 km/h
3131 05-06-2008 02:46:04 17.9 C 13.89 g/m*3 17.9 C 0 km/h
3132 05-06-2008 02:58:04 17.9 C 13.89 g/m*3 17.9 C 0 km/h
3133 05-06-2008 03:10:04 17.9 C 13.89 g/m*3 17.9 C 0 km/h
3134 05-06-2008 03:22:05 17.9 C 13.89 g/m*3 17.9 C 0 km/h
3135 05-06-2008 03:34:05 17.9 C 13.89 g/m*3 17.9 C 0 km/h
3136 05-06-2008 03:46:05 17.9 C 13.89 g/m*3 17.9 C 0 km/h
3137 05-06-2008 03:58:05 17.9 C 13.89 g/m*3 17.9 C 0 km/h
3138 05-06-2008 04:10:05 17.9 C 13.89 g/m*3 17.9 C 0 km/h
3139 05-06-2008 04:22:05 17.5 C 13.12 g/m*3 17.5 C 0 km/h
3140 05-06-2008 04:34:05 17.3 C 12.96 g/m*3 17.3 C 0 km/h
3141 05-06-2008 04:46:05 17.3 C 12.96 g/m*3 17.3 C 0 km/h
3142 05-06-2008 04:58:05 17.3 C 12.96 g/m*3 17.3 C 0 km/h
3143 05-06-2008 05:10:05 17.3 C 12.96 g/m*3 17.3 C 0 km/h
3144 05-06-2008 05:22:05 17.5 C 13.12 g/m*3 17.5 C 0 km/h
3145 05-06-2008 05:34:05 17.2 C 12.89 g/m*3 17.2 C 0 km/h
3146 05-06-2008 05:46:05 17.2 C 12.89 g/m*3 17.2 C 0 km/h
3147 05-06-2008 05:58:05 17.2 C 12.89 g/m*3 17.2 C 0 km/h
3148 05-06-2008 06:10:05 17.2 C 12.89 g/m*3 17.2 C 0 km/h
3149 05-06-2008 06:22:05 17.2 C 13.03 g/m*3 17.2 C 0 km/h
3150 05-06-2008 06:34:03 17.2 C 13.03 g/m*3 17.2 C 0 km/h
Sensor: Nr:Datum:Temp:Abs-Feuchte:Windchill:Wind:
Aussen-T/F 3151 05-06-2008 06:46:02 17.2 C 13.03 g/m*3 17.2 C 0 km/h
3152 05-06-2008 06:58:02 17.2 C 13.03 g/m*3 17.2 C 0 km/h
3153 05-06-2008 07:10:02 17.2 C 13.03 g/m*3 17.2 C 0 km/h
3154 05-06-2008 07:22:01 17.2 C 13.03 g/m*3 17.2 C 0 km/h
3155 05-06-2008 07:36:02 17.2 C 13.03 g/m*3 17.2 C 0 km/h
3156 05-06-2008 07:48:02 18.2 C 13.37 g/m*3 18.2 C 0 km/h
3157 05-06-2008 08:00:02 18.7 C 13.45 g/m*3 18.7 C 0 km/h
3158 05-06-2008 08:12:01 19 C 13.2 g/m*3 19 C 0 km/h
3159 05-06-2008 08:24:02 19.1 C 12.79 g/m*3 19.1 C 0 km/h
3160 05-06-2008 08:36:02 19.3 C 12.77 g/m*3 19.3 C 0 km/h
3161 05-06-2008 08:48:03 19.2 C 12.2 g/m*3 19.2 C 0 km/h
3162 05-06-2008 09:00:03 19.1 C 11.8 g/m*3 19.1 C 0 km/h
3163 05-06-2008 09:12:02 19.2 C 12.2 g/m*3 19.2 C 0 km/h
3164 05-06-2008 09:24:02 19 C 12.22 g/m*3 19 C 0 km/h
3165 05-06-2008 09:36:03 19.1 C 12.62 g/m*3 19.1 C 0 km/h
3166 05-06-2008 09:48:02 18.8 C 12.56 g/m*3 18.8 C 0 km/h
3167 05-06-2008 10:00:02 19 C 12.71 g/m*3 19 C 0 km/h
3168 05-06-2008 10:12:02 19.4 C 12.51 g/m*3 19.4 C 0 km/h
3169 05-06-2008 10:24:02 20 C 12.1 g/m*3 20 C 0 km/h
3170 05-06-2008 10:36:02 20.5 C 11.74 g/m*3 20.5 C 0 km/h
3171 05-06-2008 10:48:02 21.2 C 11.68 g/m*3 21.2 C 0 km/h
3172 05-06-2008 11:00:02 22 C 11.06 g/m*3 22 C 0 km/h
3173 05-06-2008 11:12:01 22.2 C 10.99 g/m*3 22.2 C 0 km/h
3174 05-06-2008 11:24:01 22.3 C 11.45 g/m*3 22.3 C 0 km/h
3175 05-06-2008 11:36:02 22.6 C 11.05 g/m*3 22.6 C 0 km/h
Sensor: Nr:Datum:Temp:Abs-Feuchte:Windchill:Wind:
Aussen-T/F 3176 05-06-2008 11:48:02 23.8 C 11.4 g/m*3 23.8 C 0 km/h
3177 05-06-2008 12:00:03 23.6 C 11.06 g/m*3 23.6 C 0 km/h
3178 05-06-2008 12:12:02 23.7 C 10.48 g/m*3 23.7 C 0 km/h
3179 05-06-2008 12:24:02 23.2 C 10.81 g/m*3 23.2 C 0 km/h
3180 05-06-2008 12:36:02 23 C 11.1 g/m*3 23 C 0 km/h
3181 05-06-2008 12:48:02 24.5 C 10.52 g/m*3 24.5 C 0 km/h
3182 05-06-2008 13:00:02 23.8 C 10.97 g/m*3 23.8 C 0 km/h
3183 05-06-2008 13:12:02 23.1 C 10.96 g/m*3 23.1 C 0 km/h
3184 05-06-2008 13:24:03 24.6 C 10.13 g/m*3 24.6 C 0 km/h
3185 05-06-2008 13:36:02 25 C 11.05 g/m*3 25 C 0 km/h
3186 05-06-2008 13:48:02 24.1 C 10.72 g/m*3 24.1 C 0 km/h
3187 05-06-2008 14:00:02 23.3 C 10.66 g/m*3 23.3 C 0 km/h
3188 05-06-2008 14:12:01 23.2 C 11.02 g/m*3 23.2 C 0 km/h
3189 05-06-2008 14:24:02 24.3 C 11.06 g/m*3 24.3 C 0 km/h
3190 05-06-2008 14:36:02 25.9 C 10.89 g/m*3 25.9 C 0 km/h
3191 05-06-2008 14:48:02 26.3 C 10.64 g/m*3 26.3 C 0 km/h
3192 05-06-2008 15:00:02 25.4 C 10.59 g/m*3 25.4 C 0 km/h
3193 05-06-2008 15:12:02 26 C 10.47 g/m*3 26 C 0 km/h
3194 05-06-2008 15:24:02 26.8 C 10.44 g/m*3 26.8 C 0 km/h
3195 05-06-2008 15:36:02 24.8 C 11.38 g/m*3 24.8 C 0 km/h
3196 05-06-2008 15:48:02 24.5 C 11.41 g/m*3 24.5 C 0 km/h
3197 05-06-2008 16:00:02 24.6 C 11.48 g/m*3 24.6 C 0 km/h
3198 05-06-2008 16:12:02 24.4 C 11.35 g/m*3 24.4 C 0 km/h
3199 05-06-2008 16:24:03 24.6 C 11.25 g/m*3 24.6 C 0 km/h
3200 05-06-2008 16:36:02 24.3 C 11.29 g/m*3 24.3 C 0 km/h
Sensor: Nr:Datum:Temp:Abs-Feuchte:Windchill:Wind:
Aussen-T/F 3201 05-06-2008 16:48:01 24.3 C 10.84 g/m*3 24.3 C 0 km/h
3202 05-06-2008 17:00:01 24.2 C 11.22 g/m*3 24.2 C 0 km/h
3203 05-06-2008 17:12:02 23.6 C 11.48 g/m*3 23.6 C 0 km/h
3204 05-06-2008 17:24:02 23.6 C 11.48 g/m*3 23.6 C 0 km/h
3205 05-06-2008 17:36:01 23.6 C 11.48 g/m*3 23.6 C 0 km/h
3206 05-06-2008 17:48:01 23.7 C 11.12 g/m*3 23.7 C 0 km/h
3207 05-06-2008 18:00:01 23.4 C 10.09 g/m*3 23.4 C 0 km/h
3208 05-06-2008 18:12:01 23.3 C 10.25 g/m*3 23.3 C 0 km/h
3209 05-06-2008 18:24:02 23.3 C 10.25 g/m*3 23.3 C 0 km/h
3210 05-06-2008 18:36:02 23.5 C 10.57 g/m*3 23.5 C 0 km/h
3211 05-06-2008 18:48:02 23.8 C 10.76 g/m*3 23.8 C 0 km/h
3212 05-06-2008 19:00:03 23.9 C 11.03 g/m*3 23.9 C 0 km/h
3213 05-06-2008 19:12:02 23.8 C 11.62 g/m*3 23.8 C 0 km/h
3214 05-06-2008 19:24:02 23.9 C 11.47 g/m*3 23.9 C 0 km/h
3215 05-06-2008 19:36:02 23.8 C 11.83 g/m*3 23.8 C 0 km/h
3216 05-06-2008 19:48:02 23.6 C 11.91 g/m*3 23.6 C 0 km/h
3217 05-06-2008 20:00:02 23.4 C 11.99 g/m*3 23.4 C 0 km/h
3218 05-06-2008 20:12:02 23.1 C 11.78 g/m*3 23.1 C 0 km/h
3219 05-06-2008 20:24:02 22.6 C 11.85 g/m*3 22.6 C 0 km/h
3220 05-06-2008 20:36:02 22.3 C 12.05 g/m*3 22.3 C 0 km/h
3221 05-06-2008 20:48:01 21.9 C 12.35 g/m*3 21.9 C 0 km/h
3222 05-06-2008 21:00:01 21.5 C 12.26 g/m*3 21.5 C 0 km/h